<?xml version="1.0" encoding="UTF-8" standalone="no" ?>
<gpx xmlns="http://www.topografix.com/GPX/1/1" xmlns:xsi="http://www.w3.org/2001/XMLSchema-instance" xsi:schemaLocation="http://www.topografix.com/GPX/1/1 http://www.topografix.com/GPX/1/1/gpx.xsd" version="1.1" creator="VisuGPX - https://www.visugpx.com">
  <metadata>
    <name>Défi des birettes 2015</name>
    <desc><![CDATA[Parcours de 36 Km et non 38 entre Jars et Sury-en-Vaux]]></desc>
  </metadata>
  <trk>
    <name><![CDATA[2015-10-04 06:59]]></name>
    <desc><![CDATA[<h1>OruxMaps</h1><br /><hr align="center" width="480" style="height: 2px; width: 517px"/><h2>Nom: 2015-10-04 06:59</h2><br /><p>Temps de départ: 10/04/2015 06:59</p><p>Temps d'arrivée: 10/04/2015 13:42</p><p>Distance: 35,7km (06:42)</p><p>Temps déplacement: 05:43</p><p>Vitesse moyenne: 5,3km/h</p><p>Vitesse moyenne: 6,2km/h</p><p>Vitess Max.: 19,8km/h</p><p>Altitude minimale: 203m</p><p>Altitude maximale: 377m</p><p>Vitesse d'élévation: 355,2m/h</p><p>Vitesse de descente: -364,8m/h</p><p>Gain Altitude: 955m</p><p>Perte Altitude: -968m</p><p>Temps d'élévation: 02:41</p><p>Temps de descente: 02:39</p><hr align="center" width="480" style="height: 2px; width: 517px"/>]]></desc>
    <trkseg>
      <trkpt lat="47.38886" lon="2.68002">
        <ele>229.28</ele>
        <time>2015-10-04T04:59:08Z</time>
      </trkpt>
      <trkpt lat="47.38886" lon="2.68036">
        <ele>225.34</ele>
        <time>2015-10-04T05:02:03Z</time>
      </trkpt>
      <trkpt lat="47.38882" lon="2.68065">
        <ele>225.33</ele>
        <time>2015-10-04T05:02:18Z</time>
      </trkpt>
      <trkpt lat="47.38874" lon="2.68094">
        <ele>223.3</ele>
        <time>2015-10-04T05:02:33Z</time>
      </trkpt>
      <trkpt lat="47.38869" lon="2.6812">
        <ele>222.63</ele>
        <time>2015-10-04T05:02:48Z</time>
      </trkpt>
      <trkpt lat="47.38856" lon="2.6815">
        <ele>227.52</ele>
        <time>2015-10-04T05:03:03Z</time>
      </trkpt>
      <trkpt lat="47.3885" lon="2.68176">
        <ele>228.65</ele>
        <time>2015-10-04T05:03:18Z</time>
      </trkpt>
      <trkpt lat="47.38832" lon="2.68182">
        <ele>231.04</ele>
        <time>2015-10-04T05:03:33Z</time>
      </trkpt>
      <trkpt lat="47.38811" lon="2.68178">
        <ele>233.97</ele>
        <time>2015-10-04T05:03:48Z</time>
      </trkpt>
      <trkpt lat="47.38788" lon="2.68172">
        <ele>234.38</ele>
        <time>2015-10-04T05:04:03Z</time>
      </trkpt>
      <trkpt lat="47.38767" lon="2.68168">
        <ele>235.44</ele>
        <time>2015-10-04T05:04:23Z</time>
      </trkpt>
      <trkpt lat="47.38747" lon="2.68168">
        <ele>234.93</ele>
        <time>2015-10-04T05:04:33Z</time>
      </trkpt>
      <trkpt lat="47.38726" lon="2.68163">
        <ele>235.54</ele>
        <time>2015-10-04T05:04:53Z</time>
      </trkpt>
      <trkpt lat="47.38706" lon="2.68162">
        <ele>236.36</ele>
        <time>2015-10-04T05:05:13Z</time>
      </trkpt>
      <trkpt lat="47.3868" lon="2.68153">
        <ele>235.03</ele>
        <time>2015-10-04T05:05:23Z</time>
      </trkpt>
      <trkpt lat="47.3866" lon="2.68147">
        <ele>239.53</ele>
        <time>2015-10-04T05:05:53Z</time>
      </trkpt>
      <trkpt lat="47.38641" lon="2.68145">
        <ele>241.32</ele>
        <time>2015-10-04T05:06:08Z</time>
      </trkpt>
      <trkpt lat="47.38619" lon="2.68142">
        <ele>239.8</ele>
        <time>2015-10-04T05:06:18Z</time>
      </trkpt>
      <trkpt lat="47.38599" lon="2.68138">
        <ele>243.21</ele>
        <time>2015-10-04T05:06:38Z</time>
      </trkpt>
      <trkpt lat="47.38579" lon="2.68135">
        <ele>243.79</ele>
        <time>2015-10-04T05:06:58Z</time>
      </trkpt>
      <trkpt lat="47.38555" lon="2.68138">
        <ele>246.01</ele>
        <time>2015-10-04T05:07:08Z</time>
      </trkpt>
      <trkpt lat="47.38531" lon="2.68133">
        <ele>246.79</ele>
        <time>2015-10-04T05:07:18Z</time>
      </trkpt>
      <trkpt lat="47.38513" lon="2.68123">
        <ele>249.11</ele>
        <time>2015-10-04T05:07:28Z</time>
      </trkpt>
      <trkpt lat="47.38483" lon="2.68118">
        <ele>251.5</ele>
        <time>2015-10-04T05:07:48Z</time>
      </trkpt>
      <trkpt lat="47.3846" lon="2.68119">
        <ele>254.91</ele>
        <time>2015-10-04T05:08:03Z</time>
      </trkpt>
      <trkpt lat="47.38432" lon="2.68114">
        <ele>252.92</ele>
        <time>2015-10-04T05:08:28Z</time>
      </trkpt>
      <trkpt lat="47.38413" lon="2.68117">
        <ele>249.42</ele>
        <time>2015-10-04T05:08:38Z</time>
      </trkpt>
      <trkpt lat="47.38392" lon="2.681">
        <ele>251.01</ele>
        <time>2015-10-04T05:08:58Z</time>
      </trkpt>
      <trkpt lat="47.38379" lon="2.68067">
        <ele>248.88</ele>
        <time>2015-10-04T05:09:18Z</time>
      </trkpt>
      <trkpt lat="47.38368" lon="2.6804">
        <ele>249.31</ele>
        <time>2015-10-04T05:09:28Z</time>
      </trkpt>
      <trkpt lat="47.38354" lon="2.68017">
        <ele>251.22</ele>
        <time>2015-10-04T05:09:43Z</time>
      </trkpt>
      <trkpt lat="47.38345" lon="2.67986">
        <ele>253.96</ele>
        <time>2015-10-04T05:09:58Z</time>
      </trkpt>
      <trkpt lat="47.38331" lon="2.67962">
        <ele>254.26</ele>
        <time>2015-10-04T05:10:13Z</time>
      </trkpt>
      <trkpt lat="47.38316" lon="2.6794">
        <ele>254.89</ele>
        <time>2015-10-04T05:10:28Z</time>
      </trkpt>
      <trkpt lat="47.383" lon="2.67923">
        <ele>257.52</ele>
        <time>2015-10-04T05:10:48Z</time>
      </trkpt>
      <trkpt lat="47.38285" lon="2.6791">
        <ele>257.22</ele>
        <time>2015-10-04T05:11:03Z</time>
      </trkpt>
      <trkpt lat="47.38261" lon="2.67899">
        <ele>253.9</ele>
        <time>2015-10-04T05:11:18Z</time>
      </trkpt>
      <trkpt lat="47.38232" lon="2.6789">
        <ele>252.94</ele>
        <time>2015-10-04T05:11:33Z</time>
      </trkpt>
      <trkpt lat="47.38209" lon="2.6789">
        <ele>251.55</ele>
        <time>2015-10-04T05:11:43Z</time>
      </trkpt>
      <trkpt lat="47.38186" lon="2.67893">
        <ele>250.42</ele>
        <time>2015-10-04T05:11:58Z</time>
      </trkpt>
      <trkpt lat="47.38168" lon="2.67896">
        <ele>250.25</ele>
        <time>2015-10-04T05:12:08Z</time>
      </trkpt>
      <trkpt lat="47.38142" lon="2.67899">
        <ele>245.49</ele>
        <time>2015-10-04T05:12:23Z</time>
      </trkpt>
      <trkpt lat="47.38124" lon="2.67906">
        <ele>243.96</ele>
        <time>2015-10-04T05:12:33Z</time>
      </trkpt>
      <trkpt lat="47.38104" lon="2.67909">
        <ele>242</ele>
        <time>2015-10-04T05:12:48Z</time>
      </trkpt>
      <trkpt lat="47.38087" lon="2.6792">
        <ele>239.44</ele>
        <time>2015-10-04T05:12:58Z</time>
      </trkpt>
      <trkpt lat="47.38068" lon="2.67921">
        <ele>238.98</ele>
        <time>2015-10-04T05:13:08Z</time>
      </trkpt>
      <trkpt lat="47.38043" lon="2.67924">
        <ele>238.01</ele>
        <time>2015-10-04T05:13:23Z</time>
      </trkpt>
      <trkpt lat="47.38021" lon="2.67926">
        <ele>236.68</ele>
        <time>2015-10-04T05:13:38Z</time>
      </trkpt>
      <trkpt lat="47.38002" lon="2.6793">
        <ele>235.25</ele>
        <time>2015-10-04T05:13:53Z</time>
      </trkpt>
      <trkpt lat="47.3798" lon="2.67928">
        <ele>235.36</ele>
        <time>2015-10-04T05:14:08Z</time>
      </trkpt>
      <trkpt lat="47.37959" lon="2.67923">
        <ele>234.99</ele>
        <time>2015-10-04T05:14:23Z</time>
      </trkpt>
      <trkpt lat="47.3794" lon="2.6792">
        <ele>235.64</ele>
        <time>2015-10-04T05:14:33Z</time>
      </trkpt>
      <trkpt lat="47.37923" lon="2.6791">
        <ele>234.61</ele>
        <time>2015-10-04T05:14:58Z</time>
      </trkpt>
      <trkpt lat="47.37896" lon="2.67884">
        <ele>233.47</ele>
        <time>2015-10-04T05:15:13Z</time>
      </trkpt>
      <trkpt lat="47.37877" lon="2.6787">
        <ele>232.69</ele>
        <time>2015-10-04T05:15:18Z</time>
      </trkpt>
      <trkpt lat="47.37858" lon="2.67843">
        <ele>230.3</ele>
        <time>2015-10-04T05:15:33Z</time>
      </trkpt>
      <trkpt lat="47.37844" lon="2.67819">
        <ele>228.11</ele>
        <time>2015-10-04T05:15:48Z</time>
      </trkpt>
      <trkpt lat="47.37832" lon="2.67796">
        <ele>227.22</ele>
        <time>2015-10-04T05:15:58Z</time>
      </trkpt>
      <trkpt lat="47.37815" lon="2.67768">
        <ele>225.52</ele>
        <time>2015-10-04T05:16:13Z</time>
      </trkpt>
      <trkpt lat="47.37799" lon="2.67738">
        <ele>222.49</ele>
        <time>2015-10-04T05:16:28Z</time>
      </trkpt>
      <trkpt lat="47.37785" lon="2.67718">
        <ele>221.68</ele>
        <time>2015-10-04T05:16:43Z</time>
      </trkpt>
      <trkpt lat="47.3777" lon="2.67692">
        <ele>221.66</ele>
        <time>2015-10-04T05:16:58Z</time>
      </trkpt>
      <trkpt lat="47.37756" lon="2.67664">
        <ele>221.3</ele>
        <time>2015-10-04T05:17:13Z</time>
      </trkpt>
      <trkpt lat="47.37749" lon="2.67637">
        <ele>219.52</ele>
        <time>2015-10-04T05:17:23Z</time>
      </trkpt>
      <trkpt lat="47.3774" lon="2.67601">
        <ele>217.13</ele>
        <time>2015-10-04T05:17:38Z</time>
      </trkpt>
      <trkpt lat="47.37714" lon="2.67615">
        <ele>216.47</ele>
        <time>2015-10-04T05:17:53Z</time>
      </trkpt>
      <trkpt lat="47.37699" lon="2.67631">
        <ele>217.56</ele>
        <time>2015-10-04T05:18:03Z</time>
      </trkpt>
      <trkpt lat="47.37679" lon="2.6765">
        <ele>216.3</ele>
        <time>2015-10-04T05:18:18Z</time>
      </trkpt>
      <trkpt lat="47.37662" lon="2.67669">
        <ele>212.17</ele>
        <time>2015-10-04T05:18:33Z</time>
      </trkpt>
      <trkpt lat="47.37643" lon="2.67683">
        <ele>211.78</ele>
        <time>2015-10-04T05:18:48Z</time>
      </trkpt>
      <trkpt lat="47.37623" lon="2.67687">
        <ele>211.79</ele>
        <time>2015-10-04T05:19:08Z</time>
      </trkpt>
      <trkpt lat="47.37604" lon="2.67689">
        <ele>211.81</ele>
        <time>2015-10-04T05:19:18Z</time>
      </trkpt>
      <trkpt lat="47.37573" lon="2.67682">
        <ele>216.51</ele>
        <time>2015-10-04T05:19:43Z</time>
      </trkpt>
      <trkpt lat="47.37547" lon="2.67676">
        <ele>216.09</ele>
        <time>2015-10-04T05:19:53Z</time>
      </trkpt>
      <trkpt lat="47.37528" lon="2.67666">
        <ele>217.01</ele>
        <time>2015-10-04T05:20:18Z</time>
      </trkpt>
      <trkpt lat="47.37499" lon="2.67656">
        <ele>219.99</ele>
        <time>2015-10-04T05:20:33Z</time>
      </trkpt>
      <trkpt lat="47.3748" lon="2.67651">
        <ele>221.13</ele>
        <time>2015-10-04T05:20:48Z</time>
      </trkpt>
      <trkpt lat="47.37459" lon="2.67645">
        <ele>222.18</ele>
        <time>2015-10-04T05:21:08Z</time>
      </trkpt>
      <trkpt lat="47.37438" lon="2.67634">
        <ele>221.51</ele>
        <time>2015-10-04T05:21:33Z</time>
      </trkpt>
      <trkpt lat="47.37416" lon="2.6763">
        <ele>221.54</ele>
        <time>2015-10-04T05:21:43Z</time>
      </trkpt>
      <trkpt lat="47.37384" lon="2.6762">
        <ele>223.05</ele>
        <time>2015-10-04T05:21:53Z</time>
      </trkpt>
      <trkpt lat="47.37367" lon="2.67606">
        <ele>222.19</ele>
        <time>2015-10-04T05:22:08Z</time>
      </trkpt>
      <trkpt lat="47.37362" lon="2.67578">
        <ele>222.94</ele>
        <time>2015-10-04T05:22:18Z</time>
      </trkpt>
      <trkpt lat="47.37355" lon="2.67552">
        <ele>224.1</ele>
        <time>2015-10-04T05:22:28Z</time>
      </trkpt>
      <trkpt lat="47.3734" lon="2.67529">
        <ele>222.57</ele>
        <time>2015-10-04T05:22:58Z</time>
      </trkpt>
      <trkpt lat="47.37323" lon="2.67501">
        <ele>220.61</ele>
        <time>2015-10-04T05:23:08Z</time>
      </trkpt>
      <trkpt lat="47.37311" lon="2.67472">
        <ele>220.82</ele>
        <time>2015-10-04T05:23:18Z</time>
      </trkpt>
      <trkpt lat="47.37289" lon="2.67442">
        <ele>220.44</ele>
        <time>2015-10-04T05:23:38Z</time>
      </trkpt>
      <trkpt lat="47.37271" lon="2.67421">
        <ele>219.33</ele>
        <time>2015-10-04T05:23:58Z</time>
      </trkpt>
      <trkpt lat="47.37258" lon="2.67395">
        <ele>220.71</ele>
        <time>2015-10-04T05:24:13Z</time>
      </trkpt>
      <trkpt lat="47.37248" lon="2.67371">
        <ele>219.32</ele>
        <time>2015-10-04T05:24:23Z</time>
      </trkpt>
      <trkpt lat="47.37237" lon="2.67346">
        <ele>221.18</ele>
        <time>2015-10-04T05:24:43Z</time>
      </trkpt>
      <trkpt lat="47.37224" lon="2.67312">
        <ele>220.88</ele>
        <time>2015-10-04T05:24:58Z</time>
      </trkpt>
      <trkpt lat="47.37216" lon="2.67278">
        <ele>217.21</ele>
        <time>2015-10-04T05:25:13Z</time>
      </trkpt>
      <trkpt lat="47.37197" lon="2.6727">
        <ele>224.95</ele>
        <time>2015-10-04T05:25:53Z</time>
      </trkpt>
      <trkpt lat="47.37175" lon="2.67291">
        <ele>224.41</ele>
        <time>2015-10-04T05:26:08Z</time>
      </trkpt>
      <trkpt lat="47.37155" lon="2.67305">
        <ele>224.27</ele>
        <time>2015-10-04T05:26:18Z</time>
      </trkpt>
      <trkpt lat="47.3714" lon="2.67321">
        <ele>230.13</ele>
        <time>2015-10-04T05:26:28Z</time>
      </trkpt>
      <trkpt lat="47.37123" lon="2.67335">
        <ele>231.9</ele>
        <time>2015-10-04T05:26:43Z</time>
      </trkpt>
      <trkpt lat="47.37108" lon="2.67351">
        <ele>229.35</ele>
        <time>2015-10-04T05:26:58Z</time>
      </trkpt>
      <trkpt lat="47.37085" lon="2.67372">
        <ele>228.82</ele>
        <time>2015-10-04T05:27:18Z</time>
      </trkpt>
      <trkpt lat="47.37067" lon="2.6739">
        <ele>229.42</ele>
        <time>2015-10-04T05:27:28Z</time>
      </trkpt>
      <trkpt lat="47.37048" lon="2.67411">
        <ele>230.88</ele>
        <time>2015-10-04T05:27:43Z</time>
      </trkpt>
      <trkpt lat="47.37024" lon="2.67431">
        <ele>228.79</ele>
        <time>2015-10-04T05:28:03Z</time>
      </trkpt>
      <trkpt lat="47.37004" lon="2.6745">
        <ele>230.46</ele>
        <time>2015-10-04T05:28:23Z</time>
      </trkpt>
      <trkpt lat="47.36983" lon="2.67466">
        <ele>229.04</ele>
        <time>2015-10-04T05:28:38Z</time>
      </trkpt>
      <trkpt lat="47.36966" lon="2.67484">
        <ele>228</ele>
        <time>2015-10-04T05:28:48Z</time>
      </trkpt>
      <trkpt lat="47.36948" lon="2.67502">
        <ele>227.99</ele>
        <time>2015-10-04T05:28:58Z</time>
      </trkpt>
      <trkpt lat="47.36928" lon="2.67518">
        <ele>224.57</ele>
        <time>2015-10-04T05:29:13Z</time>
      </trkpt>
      <trkpt lat="47.36909" lon="2.67536">
        <ele>224.09</ele>
        <time>2015-10-04T05:29:28Z</time>
      </trkpt>
      <trkpt lat="47.3689" lon="2.6754">
        <ele>225.26</ele>
        <time>2015-10-04T05:29:38Z</time>
      </trkpt>
      <trkpt lat="47.36869" lon="2.67541">
        <ele>225.39</ele>
        <time>2015-10-04T05:29:53Z</time>
      </trkpt>
      <trkpt lat="47.36845" lon="2.67546">
        <ele>226.99</ele>
        <time>2015-10-04T05:30:08Z</time>
      </trkpt>
      <trkpt lat="47.36819" lon="2.6755">
        <ele>229.75</ele>
        <time>2015-10-04T05:30:23Z</time>
      </trkpt>
      <trkpt lat="47.36799" lon="2.67561">
        <ele>225.33</ele>
        <time>2015-10-04T05:30:53Z</time>
      </trkpt>
      <trkpt lat="47.36786" lon="2.67597">
        <ele>222.84</ele>
        <time>2015-10-04T05:31:28Z</time>
      </trkpt>
      <trkpt lat="47.36778" lon="2.67632">
        <ele>226.02</ele>
        <time>2015-10-04T05:31:38Z</time>
      </trkpt>
      <trkpt lat="47.36775" lon="2.67659">
        <ele>228.46</ele>
        <time>2015-10-04T05:31:53Z</time>
      </trkpt>
      <trkpt lat="47.36784" lon="2.67693">
        <ele>228.44</ele>
        <time>2015-10-04T05:32:08Z</time>
      </trkpt>
      <trkpt lat="47.36794" lon="2.67746">
        <ele>227.82</ele>
        <time>2015-10-04T05:32:18Z</time>
      </trkpt>
      <trkpt lat="47.36796" lon="2.67777">
        <ele>226.86</ele>
        <time>2015-10-04T05:32:38Z</time>
      </trkpt>
      <trkpt lat="47.368" lon="2.67817">
        <ele>225.23</ele>
        <time>2015-10-04T05:32:48Z</time>
      </trkpt>
      <trkpt lat="47.36808" lon="2.67846">
        <ele>224.22</ele>
        <time>2015-10-04T05:33:13Z</time>
      </trkpt>
      <trkpt lat="47.36812" lon="2.6788">
        <ele>224.74</ele>
        <time>2015-10-04T05:33:23Z</time>
      </trkpt>
      <trkpt lat="47.36818" lon="2.67914">
        <ele>222.45</ele>
        <time>2015-10-04T05:33:38Z</time>
      </trkpt>
      <trkpt lat="47.36821" lon="2.67941">
        <ele>221.43</ele>
        <time>2015-10-04T05:33:48Z</time>
      </trkpt>
      <trkpt lat="47.36818" lon="2.67982">
        <ele>221.91</ele>
        <time>2015-10-04T05:34:28Z</time>
      </trkpt>
      <trkpt lat="47.36806" lon="2.68004">
        <ele>223.67</ele>
        <time>2015-10-04T05:34:33Z</time>
      </trkpt>
      <trkpt lat="47.36797" lon="2.68031">
        <ele>225.2</ele>
        <time>2015-10-04T05:34:48Z</time>
      </trkpt>
      <trkpt lat="47.36779" lon="2.68073">
        <ele>223.07</ele>
        <time>2015-10-04T05:35:13Z</time>
      </trkpt>
      <trkpt lat="47.36766" lon="2.68101">
        <ele>222.23</ele>
        <time>2015-10-04T05:35:23Z</time>
      </trkpt>
      <trkpt lat="47.36755" lon="2.68132">
        <ele>219.31</ele>
        <time>2015-10-04T05:35:38Z</time>
      </trkpt>
      <trkpt lat="47.36743" lon="2.68167">
        <ele>217.32</ele>
        <time>2015-10-04T05:35:53Z</time>
      </trkpt>
      <trkpt lat="47.36731" lon="2.68197">
        <ele>215.29</ele>
        <time>2015-10-04T05:36:08Z</time>
      </trkpt>
      <trkpt lat="47.36718" lon="2.68227">
        <ele>214.82</ele>
        <time>2015-10-04T05:36:23Z</time>
      </trkpt>
      <trkpt lat="47.36707" lon="2.68253">
        <ele>215.07</ele>
        <time>2015-10-04T05:36:38Z</time>
      </trkpt>
      <trkpt lat="47.36714" lon="2.68288">
        <ele>214.34</ele>
        <time>2015-10-04T05:37:18Z</time>
      </trkpt>
      <trkpt lat="47.36723" lon="2.68337">
        <ele>216.32</ele>
        <time>2015-10-04T05:37:28Z</time>
      </trkpt>
      <trkpt lat="47.36745" lon="2.6836">
        <ele>216.62</ele>
        <time>2015-10-04T05:37:38Z</time>
      </trkpt>
      <trkpt lat="47.36748" lon="2.68392">
        <ele>216.56</ele>
        <time>2015-10-04T05:38:03Z</time>
      </trkpt>
      <trkpt lat="47.36752" lon="2.68424">
        <ele>216.96</ele>
        <time>2015-10-04T05:38:18Z</time>
      </trkpt>
      <trkpt lat="47.36756" lon="2.68451">
        <ele>218.53</ele>
        <time>2015-10-04T05:38:38Z</time>
      </trkpt>
      <trkpt lat="47.36757" lon="2.68501">
        <ele>223.2</ele>
        <time>2015-10-04T05:39:03Z</time>
      </trkpt>
      <trkpt lat="47.36762" lon="2.68527">
        <ele>227.79</ele>
        <time>2015-10-04T05:39:18Z</time>
      </trkpt>
      <trkpt lat="47.36769" lon="2.6857">
        <ele>229.16</ele>
        <time>2015-10-04T05:39:28Z</time>
      </trkpt>
      <trkpt lat="47.36778" lon="2.68595">
        <ele>230.18</ele>
        <time>2015-10-04T05:39:38Z</time>
      </trkpt>
      <trkpt lat="47.36785" lon="2.68621">
        <ele>231.49</ele>
        <time>2015-10-04T05:39:48Z</time>
      </trkpt>
      <trkpt lat="47.36797" lon="2.6865">
        <ele>232.49</ele>
        <time>2015-10-04T05:39:58Z</time>
      </trkpt>
      <trkpt lat="47.36801" lon="2.68679">
        <ele>235.23</ele>
        <time>2015-10-04T05:40:13Z</time>
      </trkpt>
      <trkpt lat="47.36813" lon="2.68713">
        <ele>237.61</ele>
        <time>2015-10-04T05:40:33Z</time>
      </trkpt>
      <trkpt lat="47.36824" lon="2.68735">
        <ele>239.12</ele>
        <time>2015-10-04T05:40:43Z</time>
      </trkpt>
      <trkpt lat="47.36833" lon="2.68762">
        <ele>244.38</ele>
        <time>2015-10-04T05:40:58Z</time>
      </trkpt>
      <trkpt lat="47.3684" lon="2.68796">
        <ele>245.95</ele>
        <time>2015-10-04T05:41:18Z</time>
      </trkpt>
      <trkpt lat="47.36845" lon="2.68824">
        <ele>243.66</ele>
        <time>2015-10-04T05:41:33Z</time>
      </trkpt>
      <trkpt lat="47.36848" lon="2.68851">
        <ele>245.63</ele>
        <time>2015-10-04T05:41:48Z</time>
      </trkpt>
      <trkpt lat="47.36848" lon="2.68887">
        <ele>247.41</ele>
        <time>2015-10-04T05:42:08Z</time>
      </trkpt>
      <trkpt lat="47.36849" lon="2.68917">
        <ele>247.42</ele>
        <time>2015-10-04T05:42:18Z</time>
      </trkpt>
      <trkpt lat="47.36849" lon="2.68946">
        <ele>246.62</ele>
        <time>2015-10-04T05:42:28Z</time>
      </trkpt>
      <trkpt lat="47.3685" lon="2.68977">
        <ele>244.94</ele>
        <time>2015-10-04T05:42:48Z</time>
      </trkpt>
      <trkpt lat="47.36851" lon="2.69011">
        <ele>245.8</ele>
        <time>2015-10-04T05:43:13Z</time>
      </trkpt>
      <trkpt lat="47.36844" lon="2.69057">
        <ele>248.97</ele>
        <time>2015-10-04T05:43:38Z</time>
      </trkpt>
      <trkpt lat="47.36842" lon="2.69089">
        <ele>250.74</ele>
        <time>2015-10-04T05:43:43Z</time>
      </trkpt>
      <trkpt lat="47.36842" lon="2.69119">
        <ele>252.43</ele>
        <time>2015-10-04T05:43:53Z</time>
      </trkpt>
      <trkpt lat="47.36841" lon="2.6915">
        <ele>252.18</ele>
        <time>2015-10-04T05:44:23Z</time>
      </trkpt>
      <trkpt lat="47.36842" lon="2.69192">
        <ele>252.1</ele>
        <time>2015-10-04T05:44:28Z</time>
      </trkpt>
      <trkpt lat="47.36844" lon="2.69223">
        <ele>252.56</ele>
        <time>2015-10-04T05:44:33Z</time>
      </trkpt>
      <trkpt lat="47.36848" lon="2.69249">
        <ele>252.85</ele>
        <time>2015-10-04T05:44:43Z</time>
      </trkpt>
      <trkpt lat="47.36847" lon="2.69277">
        <ele>253.15</ele>
        <time>2015-10-04T05:45:03Z</time>
      </trkpt>
      <trkpt lat="47.36846" lon="2.6931">
        <ele>253.33</ele>
        <time>2015-10-04T05:45:13Z</time>
      </trkpt>
      <trkpt lat="47.36842" lon="2.69339">
        <ele>253.57</ele>
        <time>2015-10-04T05:45:23Z</time>
      </trkpt>
      <trkpt lat="47.36841" lon="2.69367">
        <ele>253.91</ele>
        <time>2015-10-04T05:45:53Z</time>
      </trkpt>
      <trkpt lat="47.36842" lon="2.69408">
        <ele>252.79</ele>
        <time>2015-10-04T05:46:03Z</time>
      </trkpt>
      <trkpt lat="47.36843" lon="2.69438">
        <ele>248.22</ele>
        <time>2015-10-04T05:46:23Z</time>
      </trkpt>
      <trkpt lat="47.36842" lon="2.69475">
        <ele>245.62</ele>
        <time>2015-10-04T05:46:33Z</time>
      </trkpt>
      <trkpt lat="47.36837" lon="2.69509">
        <ele>245.9</ele>
        <time>2015-10-04T05:46:43Z</time>
      </trkpt>
      <trkpt lat="47.36843" lon="2.69538">
        <ele>244.44</ele>
        <time>2015-10-04T05:46:58Z</time>
      </trkpt>
      <trkpt lat="47.36838" lon="2.6959">
        <ele>243.39</ele>
        <time>2015-10-04T05:47:43Z</time>
      </trkpt>
      <trkpt lat="47.36844" lon="2.69617">
        <ele>243.64</ele>
        <time>2015-10-04T05:47:53Z</time>
      </trkpt>
      <trkpt lat="47.36851" lon="2.69649">
        <ele>245.71</ele>
        <time>2015-10-04T05:48:08Z</time>
      </trkpt>
      <trkpt lat="47.36858" lon="2.69675">
        <ele>248.71</ele>
        <time>2015-10-04T05:48:23Z</time>
      </trkpt>
      <trkpt lat="47.36856" lon="2.69701">
        <ele>248.05</ele>
        <time>2015-10-04T05:48:43Z</time>
      </trkpt>
      <trkpt lat="47.36872" lon="2.69765">
        <ele>250.68</ele>
        <time>2015-10-04T05:48:53Z</time>
      </trkpt>
      <trkpt lat="47.36871" lon="2.69805">
        <ele>249.93</ele>
        <time>2015-10-04T05:49:03Z</time>
      </trkpt>
      <trkpt lat="47.36866" lon="2.69842">
        <ele>249.28</ele>
        <time>2015-10-04T05:49:18Z</time>
      </trkpt>
      <trkpt lat="47.36866" lon="2.69872">
        <ele>248.79</ele>
        <time>2015-10-04T05:49:33Z</time>
      </trkpt>
      <trkpt lat="47.36862" lon="2.69901">
        <ele>248.6</ele>
        <time>2015-10-04T05:49:48Z</time>
      </trkpt>
      <trkpt lat="47.36852" lon="2.69935">
        <ele>247.42</ele>
        <time>2015-10-04T05:49:58Z</time>
      </trkpt>
      <trkpt lat="47.36844" lon="2.69969">
        <ele>249.32</ele>
        <time>2015-10-04T05:50:13Z</time>
      </trkpt>
      <trkpt lat="47.36837" lon="2.69996">
        <ele>252.22</ele>
        <time>2015-10-04T05:50:23Z</time>
      </trkpt>
      <trkpt lat="47.36832" lon="2.70026">
        <ele>254.46</ele>
        <time>2015-10-04T05:50:38Z</time>
      </trkpt>
      <trkpt lat="47.36827" lon="2.70057">
        <ele>254.66</ele>
        <time>2015-10-04T05:50:53Z</time>
      </trkpt>
      <trkpt lat="47.36815" lon="2.701">
        <ele>257.29</ele>
        <time>2015-10-04T05:51:18Z</time>
      </trkpt>
      <trkpt lat="47.36807" lon="2.70127">
        <ele>257.61</ele>
        <time>2015-10-04T05:51:28Z</time>
      </trkpt>
      <trkpt lat="47.36795" lon="2.70149">
        <ele>258.97</ele>
        <time>2015-10-04T05:51:38Z</time>
      </trkpt>
      <trkpt lat="47.36785" lon="2.70172">
        <ele>260.26</ele>
        <time>2015-10-04T05:51:48Z</time>
      </trkpt>
      <trkpt lat="47.3677" lon="2.70202">
        <ele>261.01</ele>
        <time>2015-10-04T05:52:03Z</time>
      </trkpt>
      <trkpt lat="47.36754" lon="2.70225">
        <ele>265.11</ele>
        <time>2015-10-04T05:52:18Z</time>
      </trkpt>
      <trkpt lat="47.36743" lon="2.70258">
        <ele>263.74</ele>
        <time>2015-10-04T05:52:33Z</time>
      </trkpt>
      <trkpt lat="47.36728" lon="2.70283">
        <ele>264.34</ele>
        <time>2015-10-04T05:52:48Z</time>
      </trkpt>
      <trkpt lat="47.36715" lon="2.70308">
        <ele>261.31</ele>
        <time>2015-10-04T05:53:03Z</time>
      </trkpt>
      <trkpt lat="47.36704" lon="2.70335">
        <ele>257.81</ele>
        <time>2015-10-04T05:53:18Z</time>
      </trkpt>
      <trkpt lat="47.36687" lon="2.70361">
        <ele>258.51</ele>
        <time>2015-10-04T05:53:33Z</time>
      </trkpt>
      <trkpt lat="47.36674" lon="2.70391">
        <ele>262.96</ele>
        <time>2015-10-04T05:53:48Z</time>
      </trkpt>
      <trkpt lat="47.3666" lon="2.70418">
        <ele>263.82</ele>
        <time>2015-10-04T05:54:03Z</time>
      </trkpt>
      <trkpt lat="47.36645" lon="2.70444">
        <ele>264.13</ele>
        <time>2015-10-04T05:54:18Z</time>
      </trkpt>
      <trkpt lat="47.36629" lon="2.70474">
        <ele>265.46</ele>
        <time>2015-10-04T05:54:33Z</time>
      </trkpt>
      <trkpt lat="47.36617" lon="2.70499">
        <ele>264.94</ele>
        <time>2015-10-04T05:54:48Z</time>
      </trkpt>
      <trkpt lat="47.36608" lon="2.70523">
        <ele>263.84</ele>
        <time>2015-10-04T05:55:08Z</time>
      </trkpt>
      <trkpt lat="47.36591" lon="2.70552">
        <ele>262.95</ele>
        <time>2015-10-04T05:55:23Z</time>
      </trkpt>
      <trkpt lat="47.36576" lon="2.70577">
        <ele>261.95</ele>
        <time>2015-10-04T05:55:33Z</time>
      </trkpt>
      <trkpt lat="47.36562" lon="2.70595">
        <ele>262.33</ele>
        <time>2015-10-04T05:55:43Z</time>
      </trkpt>
      <trkpt lat="47.36583" lon="2.70625">
        <ele>260.62</ele>
        <time>2015-10-04T05:56:03Z</time>
      </trkpt>
      <trkpt lat="47.36597" lon="2.7065">
        <ele>259.35</ele>
        <time>2015-10-04T05:56:18Z</time>
      </trkpt>
      <trkpt lat="47.3661" lon="2.70676">
        <ele>259.66</ele>
        <time>2015-10-04T05:56:33Z</time>
      </trkpt>
      <trkpt lat="47.36616" lon="2.70714">
        <ele>260.88</ele>
        <time>2015-10-04T05:56:48Z</time>
      </trkpt>
      <trkpt lat="47.36619" lon="2.70742">
        <ele>257.58</ele>
        <time>2015-10-04T05:56:58Z</time>
      </trkpt>
      <trkpt lat="47.36627" lon="2.70768">
        <ele>255.52</ele>
        <time>2015-10-04T05:57:13Z</time>
      </trkpt>
      <trkpt lat="47.36641" lon="2.70788">
        <ele>256.84</ele>
        <time>2015-10-04T05:57:23Z</time>
      </trkpt>
      <trkpt lat="47.36661" lon="2.70789">
        <ele>258.3</ele>
        <time>2015-10-04T05:57:38Z</time>
      </trkpt>
      <trkpt lat="47.36681" lon="2.70799">
        <ele>258.96</ele>
        <time>2015-10-04T05:57:48Z</time>
      </trkpt>
      <trkpt lat="47.36701" lon="2.70809">
        <ele>257.91</ele>
        <time>2015-10-04T05:57:58Z</time>
      </trkpt>
      <trkpt lat="47.36719" lon="2.70824">
        <ele>255.13</ele>
        <time>2015-10-04T05:58:13Z</time>
      </trkpt>
      <trkpt lat="47.36735" lon="2.70842">
        <ele>253.82</ele>
        <time>2015-10-04T05:58:28Z</time>
      </trkpt>
      <trkpt lat="47.36751" lon="2.70862">
        <ele>253.97</ele>
        <time>2015-10-04T05:58:38Z</time>
      </trkpt>
      <trkpt lat="47.36767" lon="2.70881">
        <ele>253.03</ele>
        <time>2015-10-04T05:58:53Z</time>
      </trkpt>
      <trkpt lat="47.36785" lon="2.70896">
        <ele>253.87</ele>
        <time>2015-10-04T05:59:08Z</time>
      </trkpt>
      <trkpt lat="47.36805" lon="2.70916">
        <ele>254.25</ele>
        <time>2015-10-04T05:59:23Z</time>
      </trkpt>
      <trkpt lat="47.36822" lon="2.70928">
        <ele>254.6</ele>
        <time>2015-10-04T05:59:33Z</time>
      </trkpt>
      <trkpt lat="47.3684" lon="2.70941">
        <ele>254.07</ele>
        <time>2015-10-04T05:59:48Z</time>
      </trkpt>
      <trkpt lat="47.36861" lon="2.70961">
        <ele>257.9</ele>
        <time>2015-10-04T06:00:08Z</time>
      </trkpt>
      <trkpt lat="47.36887" lon="2.70974">
        <ele>259.02</ele>
        <time>2015-10-04T06:00:23Z</time>
      </trkpt>
      <trkpt lat="47.36901" lon="2.70991">
        <ele>260.64</ele>
        <time>2015-10-04T06:00:38Z</time>
      </trkpt>
      <trkpt lat="47.36918" lon="2.71009">
        <ele>262.01</ele>
        <time>2015-10-04T06:00:53Z</time>
      </trkpt>
      <trkpt lat="47.36934" lon="2.71032">
        <ele>263.93</ele>
        <time>2015-10-04T06:01:08Z</time>
      </trkpt>
      <trkpt lat="47.36953" lon="2.71043">
        <ele>265.9</ele>
        <time>2015-10-04T06:01:18Z</time>
      </trkpt>
      <trkpt lat="47.36964" lon="2.71064">
        <ele>266.29</ele>
        <time>2015-10-04T06:01:33Z</time>
      </trkpt>
      <trkpt lat="47.36974" lon="2.71098">
        <ele>269.1</ele>
        <time>2015-10-04T06:01:48Z</time>
      </trkpt>
      <trkpt lat="47.36978" lon="2.71138">
        <ele>272.27</ele>
        <time>2015-10-04T06:02:03Z</time>
      </trkpt>
      <trkpt lat="47.36979" lon="2.71171">
        <ele>271.95</ele>
        <time>2015-10-04T06:02:28Z</time>
      </trkpt>
      <trkpt lat="47.36981" lon="2.71203">
        <ele>270.02</ele>
        <time>2015-10-04T06:02:43Z</time>
      </trkpt>
      <trkpt lat="47.36986" lon="2.7123">
        <ele>267.6</ele>
        <time>2015-10-04T06:02:58Z</time>
      </trkpt>
      <trkpt lat="47.36989" lon="2.71257">
        <ele>265.39</ele>
        <time>2015-10-04T06:03:08Z</time>
      </trkpt>
      <trkpt lat="47.36989" lon="2.71294">
        <ele>268.41</ele>
        <time>2015-10-04T06:03:18Z</time>
      </trkpt>
      <trkpt lat="47.37" lon="2.71315">
        <ele>271.59</ele>
        <time>2015-10-04T06:03:28Z</time>
      </trkpt>
      <trkpt lat="47.37012" lon="2.71348">
        <ele>272.18</ele>
        <time>2015-10-04T06:03:43Z</time>
      </trkpt>
      <trkpt lat="47.37024" lon="2.71378">
        <ele>270.98</ele>
        <time>2015-10-04T06:03:58Z</time>
      </trkpt>
      <trkpt lat="47.37036" lon="2.71404">
        <ele>273.39</ele>
        <time>2015-10-04T06:04:13Z</time>
      </trkpt>
      <trkpt lat="47.37047" lon="2.71428">
        <ele>276.64</ele>
        <time>2015-10-04T06:04:23Z</time>
      </trkpt>
      <trkpt lat="47.37061" lon="2.71455">
        <ele>277.48</ele>
        <time>2015-10-04T06:04:38Z</time>
      </trkpt>
      <trkpt lat="47.37074" lon="2.71484">
        <ele>278.47</ele>
        <time>2015-10-04T06:04:58Z</time>
      </trkpt>
      <trkpt lat="47.37094" lon="2.71513">
        <ele>279.05</ele>
        <time>2015-10-04T06:05:13Z</time>
      </trkpt>
      <trkpt lat="47.37111" lon="2.71541">
        <ele>282.71</ele>
        <time>2015-10-04T06:05:28Z</time>
      </trkpt>
      <trkpt lat="47.37128" lon="2.71567">
        <ele>284.69</ele>
        <time>2015-10-04T06:05:43Z</time>
      </trkpt>
      <trkpt lat="47.37145" lon="2.7159">
        <ele>286.05</ele>
        <time>2015-10-04T06:05:58Z</time>
      </trkpt>
      <trkpt lat="47.37159" lon="2.7161">
        <ele>285.77</ele>
        <time>2015-10-04T06:06:13Z</time>
      </trkpt>
      <trkpt lat="47.37178" lon="2.71631">
        <ele>286.79</ele>
        <time>2015-10-04T06:06:28Z</time>
      </trkpt>
      <trkpt lat="47.37196" lon="2.71654">
        <ele>287.62</ele>
        <time>2015-10-04T06:06:43Z</time>
      </trkpt>
      <trkpt lat="47.37212" lon="2.71675">
        <ele>289.16</ele>
        <time>2015-10-04T06:06:58Z</time>
      </trkpt>
      <trkpt lat="47.37228" lon="2.7169">
        <ele>289.63</ele>
        <time>2015-10-04T06:07:08Z</time>
      </trkpt>
      <trkpt lat="47.3725" lon="2.71703">
        <ele>290.75</ele>
        <time>2015-10-04T06:07:23Z</time>
      </trkpt>
      <trkpt lat="47.37273" lon="2.71713">
        <ele>289.82</ele>
        <time>2015-10-04T06:07:38Z</time>
      </trkpt>
      <trkpt lat="47.37295" lon="2.71712">
        <ele>288.9</ele>
        <time>2015-10-04T06:07:58Z</time>
      </trkpt>
      <trkpt lat="47.37294" lon="2.71744">
        <ele>290</ele>
        <time>2015-10-04T06:08:28Z</time>
      </trkpt>
      <trkpt lat="47.37276" lon="2.71764">
        <ele>290.58</ele>
        <time>2015-10-04T06:08:48Z</time>
      </trkpt>
      <trkpt lat="47.37255" lon="2.7178">
        <ele>291.73</ele>
        <time>2015-10-04T06:09:03Z</time>
      </trkpt>
      <trkpt lat="47.37235" lon="2.718">
        <ele>294.28</ele>
        <time>2015-10-04T06:09:18Z</time>
      </trkpt>
      <trkpt lat="47.37222" lon="2.7182">
        <ele>294.2</ele>
        <time>2015-10-04T06:09:33Z</time>
      </trkpt>
      <trkpt lat="47.37205" lon="2.71843">
        <ele>293.82</ele>
        <time>2015-10-04T06:09:48Z</time>
      </trkpt>
      <trkpt lat="47.37186" lon="2.71864">
        <ele>290.89</ele>
        <time>2015-10-04T06:10:03Z</time>
      </trkpt>
      <trkpt lat="47.3717" lon="2.71885">
        <ele>289.75</ele>
        <time>2015-10-04T06:10:18Z</time>
      </trkpt>
      <trkpt lat="47.37155" lon="2.7191">
        <ele>288.02</ele>
        <time>2015-10-04T06:10:33Z</time>
      </trkpt>
      <trkpt lat="47.37147" lon="2.7194">
        <ele>287.5</ele>
        <time>2015-10-04T06:10:53Z</time>
      </trkpt>
      <trkpt lat="47.37129" lon="2.71956">
        <ele>285.21</ele>
        <time>2015-10-04T06:11:13Z</time>
      </trkpt>
      <trkpt lat="47.37111" lon="2.7198">
        <ele>284.22</ele>
        <time>2015-10-04T06:11:23Z</time>
      </trkpt>
      <trkpt lat="47.37095" lon="2.71995">
        <ele>284.72</ele>
        <time>2015-10-04T06:11:33Z</time>
      </trkpt>
      <trkpt lat="47.37077" lon="2.72021">
        <ele>287.58</ele>
        <time>2015-10-04T06:11:48Z</time>
      </trkpt>
      <trkpt lat="47.3706" lon="2.72042">
        <ele>287.64</ele>
        <time>2015-10-04T06:12:03Z</time>
      </trkpt>
      <trkpt lat="47.37043" lon="2.72063">
        <ele>286.9</ele>
        <time>2015-10-04T06:12:18Z</time>
      </trkpt>
      <trkpt lat="47.37027" lon="2.72087">
        <ele>284.77</ele>
        <time>2015-10-04T06:12:33Z</time>
      </trkpt>
      <trkpt lat="47.37015" lon="2.72119">
        <ele>285.35</ele>
        <time>2015-10-04T06:12:53Z</time>
      </trkpt>
      <trkpt lat="47.36999" lon="2.72141">
        <ele>286.92</ele>
        <time>2015-10-04T06:13:08Z</time>
      </trkpt>
      <trkpt lat="47.36985" lon="2.72161">
        <ele>285.21</ele>
        <time>2015-10-04T06:13:23Z</time>
      </trkpt>
      <trkpt lat="47.36969" lon="2.72177">
        <ele>284.81</ele>
        <time>2015-10-04T06:13:42Z</time>
      </trkpt>
      <trkpt lat="47.36948" lon="2.72187">
        <ele>286.79</ele>
        <time>2015-10-04T06:13:57Z</time>
      </trkpt>
      <trkpt lat="47.36926" lon="2.72203">
        <ele>288.52</ele>
        <time>2015-10-04T06:14:22Z</time>
      </trkpt>
      <trkpt lat="47.36908" lon="2.72213">
        <ele>289.73</ele>
        <time>2015-10-04T06:14:37Z</time>
      </trkpt>
      <trkpt lat="47.36892" lon="2.72226">
        <ele>296.27</ele>
        <time>2015-10-04T06:15:07Z</time>
      </trkpt>
      <trkpt lat="47.36878" lon="2.72258">
        <ele>296.85</ele>
        <time>2015-10-04T06:15:22Z</time>
      </trkpt>
      <trkpt lat="47.36863" lon="2.72283">
        <ele>296.57</ele>
        <time>2015-10-04T06:15:37Z</time>
      </trkpt>
      <trkpt lat="47.36847" lon="2.72305">
        <ele>298.69</ele>
        <time>2015-10-04T06:15:57Z</time>
      </trkpt>
      <trkpt lat="47.3683" lon="2.72317">
        <ele>298.44</ele>
        <time>2015-10-04T06:16:07Z</time>
      </trkpt>
      <trkpt lat="47.36813" lon="2.72328">
        <ele>298.95</ele>
        <time>2015-10-04T06:16:17Z</time>
      </trkpt>
      <trkpt lat="47.36797" lon="2.72352">
        <ele>302.07</ele>
        <time>2015-10-04T06:16:32Z</time>
      </trkpt>
      <trkpt lat="47.36788" lon="2.72376">
        <ele>302.03</ele>
        <time>2015-10-04T06:16:47Z</time>
      </trkpt>
      <trkpt lat="47.3677" lon="2.72397">
        <ele>304.93</ele>
        <time>2015-10-04T06:17:02Z</time>
      </trkpt>
      <trkpt lat="47.36752" lon="2.72424">
        <ele>309.02</ele>
        <time>2015-10-04T06:17:22Z</time>
      </trkpt>
      <trkpt lat="47.36737" lon="2.72443">
        <ele>309.4</ele>
        <time>2015-10-04T06:17:37Z</time>
      </trkpt>
      <trkpt lat="47.3672" lon="2.72471">
        <ele>311.19</ele>
        <time>2015-10-04T06:17:57Z</time>
      </trkpt>
      <trkpt lat="47.36707" lon="2.7249">
        <ele>310.96</ele>
        <time>2015-10-04T06:18:07Z</time>
      </trkpt>
      <trkpt lat="47.36691" lon="2.72512">
        <ele>312.35</ele>
        <time>2015-10-04T06:18:27Z</time>
      </trkpt>
      <trkpt lat="47.36675" lon="2.72524">
        <ele>312.53</ele>
        <time>2015-10-04T06:18:37Z</time>
      </trkpt>
      <trkpt lat="47.36656" lon="2.72538">
        <ele>311.78</ele>
        <time>2015-10-04T06:19:12Z</time>
      </trkpt>
      <trkpt lat="47.36636" lon="2.72572">
        <ele>312.91</ele>
        <time>2015-10-04T06:19:22Z</time>
      </trkpt>
      <trkpt lat="47.36623" lon="2.7259">
        <ele>312.22</ele>
        <time>2015-10-04T06:19:32Z</time>
      </trkpt>
      <trkpt lat="47.36612" lon="2.72612">
        <ele>313.84</ele>
        <time>2015-10-04T06:19:42Z</time>
      </trkpt>
      <trkpt lat="47.36599" lon="2.72635">
        <ele>314.35</ele>
        <time>2015-10-04T06:19:57Z</time>
      </trkpt>
      <trkpt lat="47.36589" lon="2.72663">
        <ele>316.32</ele>
        <time>2015-10-04T06:20:12Z</time>
      </trkpt>
      <trkpt lat="47.36576" lon="2.72688">
        <ele>315.57</ele>
        <time>2015-10-04T06:20:42Z</time>
      </trkpt>
      <trkpt lat="47.3656" lon="2.72712">
        <ele>315.86</ele>
        <time>2015-10-04T06:20:57Z</time>
      </trkpt>
      <trkpt lat="47.36547" lon="2.72733">
        <ele>317.11</ele>
        <time>2015-10-04T06:21:07Z</time>
      </trkpt>
      <trkpt lat="47.36527" lon="2.72753">
        <ele>318.22</ele>
        <time>2015-10-04T06:21:27Z</time>
      </trkpt>
      <trkpt lat="47.36504" lon="2.72767">
        <ele>317.12</ele>
        <time>2015-10-04T06:21:47Z</time>
      </trkpt>
      <trkpt lat="47.36485" lon="2.72792">
        <ele>317.16</ele>
        <time>2015-10-04T06:22:02Z</time>
      </trkpt>
      <trkpt lat="47.36477" lon="2.72823">
        <ele>317.37</ele>
        <time>2015-10-04T06:22:17Z</time>
      </trkpt>
      <trkpt lat="47.36466" lon="2.72849">
        <ele>317.53</ele>
        <time>2015-10-04T06:22:27Z</time>
      </trkpt>
      <trkpt lat="47.36452" lon="2.72877">
        <ele>318.47</ele>
        <time>2015-10-04T06:22:42Z</time>
      </trkpt>
      <trkpt lat="47.36442" lon="2.72902">
        <ele>318.54</ele>
        <time>2015-10-04T06:23:02Z</time>
      </trkpt>
      <trkpt lat="47.36431" lon="2.72926">
        <ele>316.2</ele>
        <time>2015-10-04T06:23:17Z</time>
      </trkpt>
      <trkpt lat="47.36423" lon="2.72957">
        <ele>313.1</ele>
        <time>2015-10-04T06:23:32Z</time>
      </trkpt>
      <trkpt lat="47.36407" lon="2.72987">
        <ele>308.68</ele>
        <time>2015-10-04T06:23:47Z</time>
      </trkpt>
      <trkpt lat="47.36398" lon="2.73011">
        <ele>308.79</ele>
        <time>2015-10-04T06:23:57Z</time>
      </trkpt>
      <trkpt lat="47.3638" lon="2.73039">
        <ele>308.98</ele>
        <time>2015-10-04T06:24:12Z</time>
      </trkpt>
      <trkpt lat="47.36362" lon="2.73059">
        <ele>308.63</ele>
        <time>2015-10-04T06:24:27Z</time>
      </trkpt>
      <trkpt lat="47.3634" lon="2.73074">
        <ele>310.83</ele>
        <time>2015-10-04T06:24:47Z</time>
      </trkpt>
      <trkpt lat="47.36318" lon="2.73073">
        <ele>312.3</ele>
        <time>2015-10-04T06:25:02Z</time>
      </trkpt>
      <trkpt lat="47.36301" lon="2.7309">
        <ele>312.6</ele>
        <time>2015-10-04T06:25:22Z</time>
      </trkpt>
      <trkpt lat="47.36275" lon="2.73113">
        <ele>312.83</ele>
        <time>2015-10-04T06:25:37Z</time>
      </trkpt>
      <trkpt lat="47.36259" lon="2.73134">
        <ele>312.6</ele>
        <time>2015-10-04T06:25:57Z</time>
      </trkpt>
      <trkpt lat="47.36242" lon="2.73163">
        <ele>312.02</ele>
        <time>2015-10-04T06:26:12Z</time>
      </trkpt>
      <trkpt lat="47.36231" lon="2.73189">
        <ele>312.81</ele>
        <time>2015-10-04T06:26:27Z</time>
      </trkpt>
      <trkpt lat="47.36224" lon="2.73221">
        <ele>312.2</ele>
        <time>2015-10-04T06:26:57Z</time>
      </trkpt>
      <trkpt lat="47.36216" lon="2.73255">
        <ele>311.59</ele>
        <time>2015-10-04T06:27:17Z</time>
      </trkpt>
      <trkpt lat="47.36211" lon="2.7328">
        <ele>312.35</ele>
        <time>2015-10-04T06:27:22Z</time>
      </trkpt>
      <trkpt lat="47.36203" lon="2.73317">
        <ele>316.3</ele>
        <time>2015-10-04T06:27:32Z</time>
      </trkpt>
      <trkpt lat="47.36196" lon="2.73345">
        <ele>318.51</ele>
        <time>2015-10-04T06:27:47Z</time>
      </trkpt>
      <trkpt lat="47.3619" lon="2.73372">
        <ele>318.09</ele>
        <time>2015-10-04T06:27:57Z</time>
      </trkpt>
      <trkpt lat="47.36178" lon="2.73394">
        <ele>315.38</ele>
        <time>2015-10-04T06:28:12Z</time>
      </trkpt>
      <trkpt lat="47.3617" lon="2.73419">
        <ele>313.94</ele>
        <time>2015-10-04T06:28:27Z</time>
      </trkpt>
      <trkpt lat="47.36158" lon="2.73445">
        <ele>313.4</ele>
        <time>2015-10-04T06:28:42Z</time>
      </trkpt>
      <trkpt lat="47.36147" lon="2.73469">
        <ele>313.28</ele>
        <time>2015-10-04T06:28:57Z</time>
      </trkpt>
      <trkpt lat="47.36138" lon="2.73495">
        <ele>314.11</ele>
        <time>2015-10-04T06:29:07Z</time>
      </trkpt>
      <trkpt lat="47.36127" lon="2.73519">
        <ele>313.43</ele>
        <time>2015-10-04T06:29:22Z</time>
      </trkpt>
      <trkpt lat="47.36117" lon="2.73542">
        <ele>313.42</ele>
        <time>2015-10-04T06:29:37Z</time>
      </trkpt>
      <trkpt lat="47.36107" lon="2.73572">
        <ele>314.07</ele>
        <time>2015-10-04T06:29:52Z</time>
      </trkpt>
      <trkpt lat="47.36097" lon="2.73601">
        <ele>315.13</ele>
        <time>2015-10-04T06:30:02Z</time>
      </trkpt>
      <trkpt lat="47.36088" lon="2.7363">
        <ele>315.62</ele>
        <time>2015-10-04T06:30:27Z</time>
      </trkpt>
      <trkpt lat="47.36086" lon="2.73663">
        <ele>317.13</ele>
        <time>2015-10-04T06:30:42Z</time>
      </trkpt>
      <trkpt lat="47.361" lon="2.7368">
        <ele>319.5</ele>
        <time>2015-10-04T06:30:57Z</time>
      </trkpt>
      <trkpt lat="47.36126" lon="2.73704">
        <ele>322.98</ele>
        <time>2015-10-04T06:31:22Z</time>
      </trkpt>
      <trkpt lat="47.36141" lon="2.7372">
        <ele>326.54</ele>
        <time>2015-10-04T06:31:32Z</time>
      </trkpt>
      <trkpt lat="47.36158" lon="2.73744">
        <ele>330.53</ele>
        <time>2015-10-04T06:31:47Z</time>
      </trkpt>
      <trkpt lat="47.36178" lon="2.73764">
        <ele>330.31</ele>
        <time>2015-10-04T06:32:12Z</time>
      </trkpt>
      <trkpt lat="47.36197" lon="2.73779">
        <ele>329.88</ele>
        <time>2015-10-04T06:32:27Z</time>
      </trkpt>
      <trkpt lat="47.36214" lon="2.73798">
        <ele>333.21</ele>
        <time>2015-10-04T06:32:47Z</time>
      </trkpt>
      <trkpt lat="47.36231" lon="2.73819">
        <ele>340.05</ele>
        <time>2015-10-04T06:33:07Z</time>
      </trkpt>
      <trkpt lat="47.36252" lon="2.73839">
        <ele>345.15</ele>
        <time>2015-10-04T06:33:37Z</time>
      </trkpt>
      <trkpt lat="47.3627" lon="2.73856">
        <ele>347.73</ele>
        <time>2015-10-04T06:33:47Z</time>
      </trkpt>
      <trkpt lat="47.36286" lon="2.73872">
        <ele>349.02</ele>
        <time>2015-10-04T06:33:57Z</time>
      </trkpt>
      <trkpt lat="47.36306" lon="2.73895">
        <ele>355.3</ele>
        <time>2015-10-04T06:34:17Z</time>
      </trkpt>
      <trkpt lat="47.36327" lon="2.73911">
        <ele>359.16</ele>
        <time>2015-10-04T06:34:32Z</time>
      </trkpt>
      <trkpt lat="47.36342" lon="2.73928">
        <ele>360.49</ele>
        <time>2015-10-04T06:34:47Z</time>
      </trkpt>
      <trkpt lat="47.3636" lon="2.73947">
        <ele>363.87</ele>
        <time>2015-10-04T06:35:02Z</time>
      </trkpt>
      <trkpt lat="47.36378" lon="2.73972">
        <ele>367.6</ele>
        <time>2015-10-04T06:35:17Z</time>
      </trkpt>
      <trkpt lat="47.36398" lon="2.73988">
        <ele>373.13</ele>
        <time>2015-10-04T06:35:32Z</time>
      </trkpt>
      <trkpt lat="47.36417" lon="2.74013">
        <ele>376.85</ele>
        <time>2015-10-04T06:35:47Z</time>
      </trkpt>
      <trkpt lat="47.36436" lon="2.74027">
        <ele>376.91</ele>
        <time>2015-10-04T06:36:02Z</time>
      </trkpt>
      <trkpt lat="47.36452" lon="2.74049">
        <ele>377.13</ele>
        <time>2015-10-04T06:36:22Z</time>
      </trkpt>
      <trkpt lat="47.36471" lon="2.74062">
        <ele>372.4</ele>
        <time>2015-10-04T06:41:17Z</time>
      </trkpt>
      <trkpt lat="47.36488" lon="2.74072">
        <ele>373.37</ele>
        <time>2015-10-04T06:41:37Z</time>
      </trkpt>
      <trkpt lat="47.36508" lon="2.74094">
        <ele>376.48</ele>
        <time>2015-10-04T06:41:52Z</time>
      </trkpt>
      <trkpt lat="47.36523" lon="2.74111">
        <ele>377.36</ele>
        <time>2015-10-04T06:42:02Z</time>
      </trkpt>
      <trkpt lat="47.36544" lon="2.74134">
        <ele>373.72</ele>
        <time>2015-10-04T06:42:17Z</time>
      </trkpt>
      <trkpt lat="47.36562" lon="2.74151">
        <ele>369.97</ele>
        <time>2015-10-04T06:42:32Z</time>
      </trkpt>
      <trkpt lat="47.36575" lon="2.74169">
        <ele>369.21</ele>
        <time>2015-10-04T06:42:42Z</time>
      </trkpt>
      <trkpt lat="47.36595" lon="2.74189">
        <ele>365.24</ele>
        <time>2015-10-04T06:42:57Z</time>
      </trkpt>
      <trkpt lat="47.36614" lon="2.74212">
        <ele>363.21</ele>
        <time>2015-10-04T06:43:12Z</time>
      </trkpt>
      <trkpt lat="47.36634" lon="2.74229">
        <ele>359.79</ele>
        <time>2015-10-04T06:43:27Z</time>
      </trkpt>
      <trkpt lat="47.36649" lon="2.74244">
        <ele>358.76</ele>
        <time>2015-10-04T06:43:37Z</time>
      </trkpt>
      <trkpt lat="47.36667" lon="2.74267">
        <ele>355.53</ele>
        <time>2015-10-04T06:43:52Z</time>
      </trkpt>
      <trkpt lat="47.36686" lon="2.74287">
        <ele>350.46</ele>
        <time>2015-10-04T06:44:07Z</time>
      </trkpt>
      <trkpt lat="47.36707" lon="2.74305">
        <ele>348.25</ele>
        <time>2015-10-04T06:44:22Z</time>
      </trkpt>
      <trkpt lat="47.36724" lon="2.74323">
        <ele>346.46</ele>
        <time>2015-10-04T06:44:37Z</time>
      </trkpt>
      <trkpt lat="47.36716" lon="2.74353">
        <ele>346.56</ele>
        <time>2015-10-04T06:45:02Z</time>
      </trkpt>
      <trkpt lat="47.36695" lon="2.74375">
        <ele>344.04</ele>
        <time>2015-10-04T06:45:17Z</time>
      </trkpt>
      <trkpt lat="47.36677" lon="2.74391">
        <ele>344.56</ele>
        <time>2015-10-04T06:45:32Z</time>
      </trkpt>
      <trkpt lat="47.36653" lon="2.74402">
        <ele>341.82</ele>
        <time>2015-10-04T06:45:52Z</time>
      </trkpt>
      <trkpt lat="47.36635" lon="2.74423">
        <ele>342.71</ele>
        <time>2015-10-04T06:46:07Z</time>
      </trkpt>
      <trkpt lat="47.36617" lon="2.74442">
        <ele>341.13</ele>
        <time>2015-10-04T06:46:22Z</time>
      </trkpt>
      <trkpt lat="47.36595" lon="2.74455">
        <ele>340.27</ele>
        <time>2015-10-04T06:46:37Z</time>
      </trkpt>
      <trkpt lat="47.36572" lon="2.74471">
        <ele>339.53</ele>
        <time>2015-10-04T06:46:52Z</time>
      </trkpt>
      <trkpt lat="47.36557" lon="2.74492">
        <ele>338.1</ele>
        <time>2015-10-04T06:47:02Z</time>
      </trkpt>
      <trkpt lat="47.36542" lon="2.7451">
        <ele>338.04</ele>
        <time>2015-10-04T06:47:12Z</time>
      </trkpt>
      <trkpt lat="47.36526" lon="2.74533">
        <ele>338.6</ele>
        <time>2015-10-04T06:47:27Z</time>
      </trkpt>
      <trkpt lat="47.36509" lon="2.74551">
        <ele>341.27</ele>
        <time>2015-10-04T06:47:47Z</time>
      </trkpt>
      <trkpt lat="47.36485" lon="2.74572">
        <ele>339.84</ele>
        <time>2015-10-04T06:48:02Z</time>
      </trkpt>
      <trkpt lat="47.36459" lon="2.74576">
        <ele>337.37</ele>
        <time>2015-10-04T06:48:17Z</time>
      </trkpt>
      <trkpt lat="47.36436" lon="2.74582">
        <ele>336.71</ele>
        <time>2015-10-04T06:48:27Z</time>
      </trkpt>
      <trkpt lat="47.36416" lon="2.74592">
        <ele>337.77</ele>
        <time>2015-10-04T06:48:42Z</time>
      </trkpt>
      <trkpt lat="47.36396" lon="2.74605">
        <ele>337.66</ele>
        <time>2015-10-04T06:48:52Z</time>
      </trkpt>
      <trkpt lat="47.36375" lon="2.74607">
        <ele>336.25</ele>
        <time>2015-10-04T06:49:12Z</time>
      </trkpt>
      <trkpt lat="47.36353" lon="2.74619">
        <ele>335.65</ele>
        <time>2015-10-04T06:49:27Z</time>
      </trkpt>
      <trkpt lat="47.36332" lon="2.7463">
        <ele>334.03</ele>
        <time>2015-10-04T06:49:37Z</time>
      </trkpt>
      <trkpt lat="47.36315" lon="2.74641">
        <ele>332.55</ele>
        <time>2015-10-04T06:49:47Z</time>
      </trkpt>
      <trkpt lat="47.36294" lon="2.7463">
        <ele>330.32</ele>
        <time>2015-10-04T06:50:02Z</time>
      </trkpt>
      <trkpt lat="47.36279" lon="2.74648">
        <ele>329.3</ele>
        <time>2015-10-04T06:50:12Z</time>
      </trkpt>
      <trkpt lat="47.3626" lon="2.74669">
        <ele>330.36</ele>
        <time>2015-10-04T06:50:22Z</time>
      </trkpt>
      <trkpt lat="47.36238" lon="2.74689">
        <ele>332.45</ele>
        <time>2015-10-04T06:50:37Z</time>
      </trkpt>
      <trkpt lat="47.36218" lon="2.74713">
        <ele>332.44</ele>
        <time>2015-10-04T06:50:52Z</time>
      </trkpt>
      <trkpt lat="47.36205" lon="2.74732">
        <ele>331.9</ele>
        <time>2015-10-04T06:51:02Z</time>
      </trkpt>
      <trkpt lat="47.36191" lon="2.74753">
        <ele>331.96</ele>
        <time>2015-10-04T06:51:12Z</time>
      </trkpt>
      <trkpt lat="47.36174" lon="2.74776">
        <ele>328.94</ele>
        <time>2015-10-04T06:51:32Z</time>
      </trkpt>
      <trkpt lat="47.36157" lon="2.74797">
        <ele>327.28</ele>
        <time>2015-10-04T06:51:47Z</time>
      </trkpt>
      <trkpt lat="47.36143" lon="2.74819">
        <ele>325.99</ele>
        <time>2015-10-04T06:52:02Z</time>
      </trkpt>
      <trkpt lat="47.36126" lon="2.74841">
        <ele>322.14</ele>
        <time>2015-10-04T06:52:12Z</time>
      </trkpt>
      <trkpt lat="47.36107" lon="2.74866">
        <ele>319.97</ele>
        <time>2015-10-04T06:52:27Z</time>
      </trkpt>
      <trkpt lat="47.36087" lon="2.74889">
        <ele>318.86</ele>
        <time>2015-10-04T06:52:42Z</time>
      </trkpt>
      <trkpt lat="47.36073" lon="2.74905">
        <ele>316.31</ele>
        <time>2015-10-04T06:52:52Z</time>
      </trkpt>
      <trkpt lat="47.36056" lon="2.74926">
        <ele>312.15</ele>
        <time>2015-10-04T06:53:17Z</time>
      </trkpt>
      <trkpt lat="47.36042" lon="2.74944">
        <ele>310.93</ele>
        <time>2015-10-04T06:53:22Z</time>
      </trkpt>
      <trkpt lat="47.36026" lon="2.74967">
        <ele>310.6</ele>
        <time>2015-10-04T06:53:32Z</time>
      </trkpt>
      <trkpt lat="47.36012" lon="2.74985">
        <ele>310.41</ele>
        <time>2015-10-04T06:53:42Z</time>
      </trkpt>
      <trkpt lat="47.35996" lon="2.75012">
        <ele>311.56</ele>
        <time>2015-10-04T06:53:57Z</time>
      </trkpt>
      <trkpt lat="47.35976" lon="2.75038">
        <ele>311.46</ele>
        <time>2015-10-04T06:54:12Z</time>
      </trkpt>
      <trkpt lat="47.35964" lon="2.75061">
        <ele>314.54</ele>
        <time>2015-10-04T06:54:17Z</time>
      </trkpt>
      <trkpt lat="47.35947" lon="2.75085">
        <ele>314.9</ele>
        <time>2015-10-04T06:54:27Z</time>
      </trkpt>
      <trkpt lat="47.35928" lon="2.75099">
        <ele>314.78</ele>
        <time>2015-10-04T06:54:47Z</time>
      </trkpt>
      <trkpt lat="47.35909" lon="2.75118">
        <ele>313.55</ele>
        <time>2015-10-04T06:55:02Z</time>
      </trkpt>
      <trkpt lat="47.35893" lon="2.7513">
        <ele>314.09</ele>
        <time>2015-10-04T06:55:17Z</time>
      </trkpt>
      <trkpt lat="47.35884" lon="2.75155">
        <ele>312.47</ele>
        <time>2015-10-04T06:55:37Z</time>
      </trkpt>
      <trkpt lat="47.35883" lon="2.75186">
        <ele>312.25</ele>
        <time>2015-10-04T06:55:52Z</time>
      </trkpt>
      <trkpt lat="47.35888" lon="2.75216">
        <ele>309.82</ele>
        <time>2015-10-04T07:03:12Z</time>
      </trkpt>
      <trkpt lat="47.35893" lon="2.75251">
        <ele>313.19</ele>
        <time>2015-10-04T07:03:27Z</time>
      </trkpt>
      <trkpt lat="47.35886" lon="2.75282">
        <ele>315.99</ele>
        <time>2015-10-04T07:03:37Z</time>
      </trkpt>
      <trkpt lat="47.35879" lon="2.7531">
        <ele>316.78</ele>
        <time>2015-10-04T07:03:52Z</time>
      </trkpt>
      <trkpt lat="47.35872" lon="2.75335">
        <ele>318.99</ele>
        <time>2015-10-04T07:04:17Z</time>
      </trkpt>
      <trkpt lat="47.35854" lon="2.75372">
        <ele>314.46</ele>
        <time>2015-10-04T07:04:37Z</time>
      </trkpt>
      <trkpt lat="47.35843" lon="2.754">
        <ele>312.8</ele>
        <time>2015-10-04T07:04:47Z</time>
      </trkpt>
      <trkpt lat="47.35838" lon="2.75428">
        <ele>311.99</ele>
        <time>2015-10-04T07:05:02Z</time>
      </trkpt>
      <trkpt lat="47.35828" lon="2.75457">
        <ele>312.26</ele>
        <time>2015-10-04T07:05:12Z</time>
      </trkpt>
      <trkpt lat="47.35821" lon="2.75496">
        <ele>311.26</ele>
        <time>2015-10-04T07:05:37Z</time>
      </trkpt>
      <trkpt lat="47.35808" lon="2.75526">
        <ele>311.54</ele>
        <time>2015-10-04T07:05:52Z</time>
      </trkpt>
      <trkpt lat="47.35791" lon="2.75561">
        <ele>305.85</ele>
        <time>2015-10-04T07:06:02Z</time>
      </trkpt>
      <trkpt lat="47.35786" lon="2.75599">
        <ele>304.26</ele>
        <time>2015-10-04T07:06:32Z</time>
      </trkpt>
      <trkpt lat="47.35768" lon="2.75641">
        <ele>306.46</ele>
        <time>2015-10-04T07:06:42Z</time>
      </trkpt>
      <trkpt lat="47.35762" lon="2.75676">
        <ele>308.34</ele>
        <time>2015-10-04T07:06:57Z</time>
      </trkpt>
      <trkpt lat="47.35752" lon="2.75706">
        <ele>308.38</ele>
        <time>2015-10-04T07:07:12Z</time>
      </trkpt>
      <trkpt lat="47.35739" lon="2.75739">
        <ele>309.59</ele>
        <time>2015-10-04T07:07:27Z</time>
      </trkpt>
      <trkpt lat="47.35725" lon="2.75762">
        <ele>307.75</ele>
        <time>2015-10-04T07:07:42Z</time>
      </trkpt>
      <trkpt lat="47.35713" lon="2.75782">
        <ele>310.48</ele>
        <time>2015-10-04T07:07:52Z</time>
      </trkpt>
      <trkpt lat="47.35697" lon="2.75797">
        <ele>310.3</ele>
        <time>2015-10-04T07:08:07Z</time>
      </trkpt>
      <trkpt lat="47.35682" lon="2.7582">
        <ele>311.42</ele>
        <time>2015-10-04T07:08:22Z</time>
      </trkpt>
      <trkpt lat="47.35669" lon="2.75841">
        <ele>311.54</ele>
        <time>2015-10-04T07:08:37Z</time>
      </trkpt>
      <trkpt lat="47.35657" lon="2.75863">
        <ele>312.1</ele>
        <time>2015-10-04T07:08:47Z</time>
      </trkpt>
      <trkpt lat="47.35646" lon="2.7589">
        <ele>314.17</ele>
        <time>2015-10-04T07:08:57Z</time>
      </trkpt>
      <trkpt lat="47.35637" lon="2.75914">
        <ele>312.46</ele>
        <time>2015-10-04T07:09:07Z</time>
      </trkpt>
      <trkpt lat="47.35628" lon="2.75942">
        <ele>312.74</ele>
        <time>2015-10-04T07:09:22Z</time>
      </trkpt>
      <trkpt lat="47.35617" lon="2.75966">
        <ele>312.68</ele>
        <time>2015-10-04T07:09:37Z</time>
      </trkpt>
      <trkpt lat="47.35602" lon="2.75992">
        <ele>313.89</ele>
        <time>2015-10-04T07:09:52Z</time>
      </trkpt>
      <trkpt lat="47.3559" lon="2.76014">
        <ele>313.09</ele>
        <time>2015-10-04T07:10:02Z</time>
      </trkpt>
      <trkpt lat="47.35573" lon="2.76036">
        <ele>313.98</ele>
        <time>2015-10-04T07:10:17Z</time>
      </trkpt>
      <trkpt lat="47.35563" lon="2.7607">
        <ele>315.66</ele>
        <time>2015-10-04T07:10:32Z</time>
      </trkpt>
      <trkpt lat="47.3555" lon="2.76092">
        <ele>315.55</ele>
        <time>2015-10-04T07:10:52Z</time>
      </trkpt>
      <trkpt lat="47.35541" lon="2.76129">
        <ele>319.85</ele>
        <time>2015-10-04T07:11:02Z</time>
      </trkpt>
      <trkpt lat="47.35531" lon="2.76153">
        <ele>322.4</ele>
        <time>2015-10-04T07:11:12Z</time>
      </trkpt>
      <trkpt lat="47.35517" lon="2.7618">
        <ele>323.26</ele>
        <time>2015-10-04T07:11:27Z</time>
      </trkpt>
      <trkpt lat="47.35503" lon="2.76204">
        <ele>322.91</ele>
        <time>2015-10-04T07:11:42Z</time>
      </trkpt>
      <trkpt lat="47.35488" lon="2.7623">
        <ele>322.17</ele>
        <time>2015-10-04T07:11:57Z</time>
      </trkpt>
      <trkpt lat="47.35474" lon="2.76253">
        <ele>320.69</ele>
        <time>2015-10-04T07:12:12Z</time>
      </trkpt>
      <trkpt lat="47.35461" lon="2.76292">
        <ele>320.43</ele>
        <time>2015-10-04T07:12:27Z</time>
      </trkpt>
      <trkpt lat="47.3545" lon="2.76314">
        <ele>319.92</ele>
        <time>2015-10-04T07:12:37Z</time>
      </trkpt>
      <trkpt lat="47.35443" lon="2.76342">
        <ele>321.35</ele>
        <time>2015-10-04T07:12:47Z</time>
      </trkpt>
      <trkpt lat="47.35426" lon="2.76354">
        <ele>319.06</ele>
        <time>2015-10-04T07:13:07Z</time>
      </trkpt>
      <trkpt lat="47.35408" lon="2.76374">
        <ele>320.1</ele>
        <time>2015-10-04T07:13:22Z</time>
      </trkpt>
      <trkpt lat="47.35385" lon="2.76393">
        <ele>320.09</ele>
        <time>2015-10-04T07:13:37Z</time>
      </trkpt>
      <trkpt lat="47.3537" lon="2.7642">
        <ele>316.23</ele>
        <time>2015-10-04T07:13:52Z</time>
      </trkpt>
      <trkpt lat="47.35352" lon="2.76444">
        <ele>313.96</ele>
        <time>2015-10-04T07:14:07Z</time>
      </trkpt>
      <trkpt lat="47.35335" lon="2.76464">
        <ele>312.59</ele>
        <time>2015-10-04T07:14:22Z</time>
      </trkpt>
      <trkpt lat="47.35317" lon="2.76486">
        <ele>314.75</ele>
        <time>2015-10-04T07:14:37Z</time>
      </trkpt>
      <trkpt lat="47.35304" lon="2.76507">
        <ele>315.85</ele>
        <time>2015-10-04T07:14:52Z</time>
      </trkpt>
      <trkpt lat="47.35292" lon="2.76533">
        <ele>316.08</ele>
        <time>2015-10-04T07:15:02Z</time>
      </trkpt>
      <trkpt lat="47.35287" lon="2.7656">
        <ele>319.69</ele>
        <time>2015-10-04T07:15:17Z</time>
      </trkpt>
      <trkpt lat="47.3529" lon="2.76589">
        <ele>320.04</ele>
        <time>2015-10-04T07:15:27Z</time>
      </trkpt>
      <trkpt lat="47.35295" lon="2.76625">
        <ele>317.41</ele>
        <time>2015-10-04T07:15:52Z</time>
      </trkpt>
      <trkpt lat="47.35299" lon="2.76658">
        <ele>315.79</ele>
        <time>2015-10-04T07:16:07Z</time>
      </trkpt>
      <trkpt lat="47.35305" lon="2.76686">
        <ele>314.99</ele>
        <time>2015-10-04T07:16:17Z</time>
      </trkpt>
      <trkpt lat="47.35313" lon="2.76713">
        <ele>313.79</ele>
        <time>2015-10-04T07:16:32Z</time>
      </trkpt>
      <trkpt lat="47.35313" lon="2.76747">
        <ele>314.28</ele>
        <time>2015-10-04T07:16:47Z</time>
      </trkpt>
      <trkpt lat="47.35315" lon="2.76777">
        <ele>315.84</ele>
        <time>2015-10-04T07:17:02Z</time>
      </trkpt>
      <trkpt lat="47.35317" lon="2.76817">
        <ele>318.07</ele>
        <time>2015-10-04T07:17:17Z</time>
      </trkpt>
      <trkpt lat="47.3532" lon="2.76844">
        <ele>319.66</ele>
        <time>2015-10-04T07:17:27Z</time>
      </trkpt>
      <trkpt lat="47.35314" lon="2.76879">
        <ele>320.41</ele>
        <time>2015-10-04T07:17:42Z</time>
      </trkpt>
      <trkpt lat="47.35311" lon="2.76914">
        <ele>317.97</ele>
        <time>2015-10-04T07:18:07Z</time>
      </trkpt>
      <trkpt lat="47.35303" lon="2.76951">
        <ele>318.38</ele>
        <time>2015-10-04T07:18:17Z</time>
      </trkpt>
      <trkpt lat="47.35301" lon="2.76982">
        <ele>319.81</ele>
        <time>2015-10-04T07:18:27Z</time>
      </trkpt>
      <trkpt lat="47.35295" lon="2.7702">
        <ele>319.58</ele>
        <time>2015-10-04T07:18:47Z</time>
      </trkpt>
      <trkpt lat="47.35299" lon="2.77053">
        <ele>319.06</ele>
        <time>2015-10-04T07:19:02Z</time>
      </trkpt>
      <trkpt lat="47.35307" lon="2.77083">
        <ele>320.9</ele>
        <time>2015-10-04T07:19:17Z</time>
      </trkpt>
      <trkpt lat="47.35315" lon="2.77112">
        <ele>321.16</ele>
        <time>2015-10-04T07:19:32Z</time>
      </trkpt>
      <trkpt lat="47.35326" lon="2.77134">
        <ele>322.05</ele>
        <time>2015-10-04T07:19:42Z</time>
      </trkpt>
      <trkpt lat="47.35328" lon="2.77168">
        <ele>320.57</ele>
        <time>2015-10-04T07:19:57Z</time>
      </trkpt>
      <trkpt lat="47.35335" lon="2.77205">
        <ele>320.28</ele>
        <time>2015-10-04T07:20:12Z</time>
      </trkpt>
      <trkpt lat="47.3535" lon="2.77228">
        <ele>318.98</ele>
        <time>2015-10-04T07:20:27Z</time>
      </trkpt>
      <trkpt lat="47.35366" lon="2.77252">
        <ele>318.66</ele>
        <time>2015-10-04T07:20:42Z</time>
      </trkpt>
      <trkpt lat="47.35377" lon="2.77277">
        <ele>318.14</ele>
        <time>2015-10-04T07:20:57Z</time>
      </trkpt>
      <trkpt lat="47.35397" lon="2.77291">
        <ele>317.2</ele>
        <time>2015-10-04T07:21:07Z</time>
      </trkpt>
      <trkpt lat="47.35413" lon="2.77306">
        <ele>314.14</ele>
        <time>2015-10-04T07:21:17Z</time>
      </trkpt>
      <trkpt lat="47.3543" lon="2.7733">
        <ele>312.17</ele>
        <time>2015-10-04T07:21:32Z</time>
      </trkpt>
      <trkpt lat="47.35446" lon="2.77344">
        <ele>313.11</ele>
        <time>2015-10-04T07:21:47Z</time>
      </trkpt>
      <trkpt lat="47.35462" lon="2.77372">
        <ele>312.74</ele>
        <time>2015-10-04T07:22:02Z</time>
      </trkpt>
      <trkpt lat="47.35474" lon="2.77395">
        <ele>314.64</ele>
        <time>2015-10-04T07:22:17Z</time>
      </trkpt>
      <trkpt lat="47.35487" lon="2.77415">
        <ele>316.35</ele>
        <time>2015-10-04T07:22:27Z</time>
      </trkpt>
      <trkpt lat="47.35504" lon="2.77444">
        <ele>316.11</ele>
        <time>2015-10-04T07:22:42Z</time>
      </trkpt>
      <trkpt lat="47.35514" lon="2.77466">
        <ele>314.47</ele>
        <time>2015-10-04T07:22:52Z</time>
      </trkpt>
      <trkpt lat="47.35526" lon="2.77491">
        <ele>315.58</ele>
        <time>2015-10-04T07:23:07Z</time>
      </trkpt>
      <trkpt lat="47.35539" lon="2.77515">
        <ele>314.99</ele>
        <time>2015-10-04T07:23:22Z</time>
      </trkpt>
      <trkpt lat="47.35552" lon="2.77535">
        <ele>314.17</ele>
        <time>2015-10-04T07:23:37Z</time>
      </trkpt>
      <trkpt lat="47.3557" lon="2.77552">
        <ele>312.83</ele>
        <time>2015-10-04T07:23:47Z</time>
      </trkpt>
      <trkpt lat="47.35586" lon="2.7757">
        <ele>311.17</ele>
        <time>2015-10-04T07:24:02Z</time>
      </trkpt>
      <trkpt lat="47.35608" lon="2.77592">
        <ele>307.49</ele>
        <time>2015-10-04T07:24:17Z</time>
      </trkpt>
      <trkpt lat="47.35629" lon="2.77611">
        <ele>306.35</ele>
        <time>2015-10-04T07:24:32Z</time>
      </trkpt>
      <trkpt lat="47.35646" lon="2.77624">
        <ele>306.85</ele>
        <time>2015-10-04T07:24:42Z</time>
      </trkpt>
      <trkpt lat="47.35664" lon="2.77633">
        <ele>306.62</ele>
        <time>2015-10-04T07:24:57Z</time>
      </trkpt>
      <trkpt lat="47.3568" lon="2.77647">
        <ele>305.27</ele>
        <time>2015-10-04T07:25:07Z</time>
      </trkpt>
      <trkpt lat="47.35696" lon="2.77662">
        <ele>304.43</ele>
        <time>2015-10-04T07:25:17Z</time>
      </trkpt>
      <trkpt lat="47.35705" lon="2.77687">
        <ele>303.36</ele>
        <time>2015-10-04T07:25:37Z</time>
      </trkpt>
      <trkpt lat="47.35703" lon="2.77717">
        <ele>305.48</ele>
        <time>2015-10-04T07:25:47Z</time>
      </trkpt>
      <trkpt lat="47.35704" lon="2.77756">
        <ele>308.29</ele>
        <time>2015-10-04T07:26:22Z</time>
      </trkpt>
      <trkpt lat="47.35701" lon="2.77791">
        <ele>306.14</ele>
        <time>2015-10-04T07:26:32Z</time>
      </trkpt>
      <trkpt lat="47.35706" lon="2.77821">
        <ele>308.23</ele>
        <time>2015-10-04T07:26:47Z</time>
      </trkpt>
      <trkpt lat="47.357" lon="2.77857">
        <ele>308.47</ele>
        <time>2015-10-04T07:26:57Z</time>
      </trkpt>
      <trkpt lat="47.35697" lon="2.77888">
        <ele>308.48</ele>
        <time>2015-10-04T07:27:07Z</time>
      </trkpt>
      <trkpt lat="47.35695" lon="2.77916">
        <ele>305.49</ele>
        <time>2015-10-04T07:27:17Z</time>
      </trkpt>
      <trkpt lat="47.35694" lon="2.77947">
        <ele>305.84</ele>
        <time>2015-10-04T07:27:27Z</time>
      </trkpt>
      <trkpt lat="47.35696" lon="2.77982">
        <ele>306.88</ele>
        <time>2015-10-04T07:27:42Z</time>
      </trkpt>
      <trkpt lat="47.35699" lon="2.78014">
        <ele>305.64</ele>
        <time>2015-10-04T07:27:57Z</time>
      </trkpt>
      <trkpt lat="47.35703" lon="2.78049">
        <ele>303.09</ele>
        <time>2015-10-04T07:28:12Z</time>
      </trkpt>
      <trkpt lat="47.35706" lon="2.78076">
        <ele>304.29</ele>
        <time>2015-10-04T07:28:22Z</time>
      </trkpt>
      <trkpt lat="47.3571" lon="2.78105">
        <ele>300.88</ele>
        <time>2015-10-04T07:28:37Z</time>
      </trkpt>
      <trkpt lat="47.35712" lon="2.78132">
        <ele>299.2</ele>
        <time>2015-10-04T07:28:52Z</time>
      </trkpt>
      <trkpt lat="47.35715" lon="2.78159">
        <ele>300.22</ele>
        <time>2015-10-04T07:29:02Z</time>
      </trkpt>
      <trkpt lat="47.3572" lon="2.78196">
        <ele>301.46</ele>
        <time>2015-10-04T07:29:17Z</time>
      </trkpt>
      <trkpt lat="47.35722" lon="2.78231">
        <ele>304.14</ele>
        <time>2015-10-04T07:29:32Z</time>
      </trkpt>
      <trkpt lat="47.35725" lon="2.78266">
        <ele>302.48</ele>
        <time>2015-10-04T07:29:47Z</time>
      </trkpt>
      <trkpt lat="47.35728" lon="2.78293">
        <ele>302.56</ele>
        <time>2015-10-04T07:29:57Z</time>
      </trkpt>
      <trkpt lat="47.35733" lon="2.78328">
        <ele>303.01</ele>
        <time>2015-10-04T07:30:12Z</time>
      </trkpt>
      <trkpt lat="47.35735" lon="2.78363">
        <ele>301.02</ele>
        <time>2015-10-04T07:30:27Z</time>
      </trkpt>
      <trkpt lat="47.35736" lon="2.78397">
        <ele>301.08</ele>
        <time>2015-10-04T07:30:42Z</time>
      </trkpt>
      <trkpt lat="47.3574" lon="2.78427">
        <ele>301.21</ele>
        <time>2015-10-04T07:30:52Z</time>
      </trkpt>
      <trkpt lat="47.35745" lon="2.78462">
        <ele>299.74</ele>
        <time>2015-10-04T07:31:07Z</time>
      </trkpt>
      <trkpt lat="47.35748" lon="2.78501">
        <ele>297.65</ele>
        <time>2015-10-04T07:31:22Z</time>
      </trkpt>
      <trkpt lat="47.35749" lon="2.78531">
        <ele>293.29</ele>
        <time>2015-10-04T07:31:37Z</time>
      </trkpt>
      <trkpt lat="47.35747" lon="2.78568">
        <ele>290.57</ele>
        <time>2015-10-04T07:31:52Z</time>
      </trkpt>
      <trkpt lat="47.35746" lon="2.78603">
        <ele>291.79</ele>
        <time>2015-10-04T07:32:07Z</time>
      </trkpt>
      <trkpt lat="47.35743" lon="2.78638">
        <ele>293.03</ele>
        <time>2015-10-04T07:32:22Z</time>
      </trkpt>
      <trkpt lat="47.35746" lon="2.78667">
        <ele>293.56</ele>
        <time>2015-10-04T07:32:37Z</time>
      </trkpt>
      <trkpt lat="47.35747" lon="2.78694">
        <ele>297.2</ele>
        <time>2015-10-04T07:32:47Z</time>
      </trkpt>
      <trkpt lat="47.35752" lon="2.78729">
        <ele>298.98</ele>
        <time>2015-10-04T07:33:02Z</time>
      </trkpt>
      <trkpt lat="47.35762" lon="2.78762">
        <ele>300.25</ele>
        <time>2015-10-04T07:33:17Z</time>
      </trkpt>
      <trkpt lat="47.35766" lon="2.78789">
        <ele>300.77</ele>
        <time>2015-10-04T07:33:32Z</time>
      </trkpt>
      <trkpt lat="47.35773" lon="2.78828">
        <ele>299.45</ele>
        <time>2015-10-04T07:33:47Z</time>
      </trkpt>
      <trkpt lat="47.35782" lon="2.78865">
        <ele>300.61</ele>
        <time>2015-10-04T07:34:02Z</time>
      </trkpt>
      <trkpt lat="47.35791" lon="2.78889">
        <ele>299.29</ele>
        <time>2015-10-04T07:34:12Z</time>
      </trkpt>
      <trkpt lat="47.35807" lon="2.78917">
        <ele>296.3</ele>
        <time>2015-10-04T07:34:27Z</time>
      </trkpt>
      <trkpt lat="47.35824" lon="2.78942">
        <ele>294.99</ele>
        <time>2015-10-04T07:34:42Z</time>
      </trkpt>
      <trkpt lat="47.35836" lon="2.78963">
        <ele>295.34</ele>
        <time>2015-10-04T07:34:52Z</time>
      </trkpt>
      <trkpt lat="47.35851" lon="2.78988">
        <ele>295.67</ele>
        <time>2015-10-04T07:35:07Z</time>
      </trkpt>
      <trkpt lat="47.35871" lon="2.79013">
        <ele>293.8</ele>
        <time>2015-10-04T07:35:22Z</time>
      </trkpt>
      <trkpt lat="47.35888" lon="2.79035">
        <ele>291.31</ele>
        <time>2015-10-04T07:35:37Z</time>
      </trkpt>
      <trkpt lat="47.35902" lon="2.79065">
        <ele>288.78</ele>
        <time>2015-10-04T07:35:52Z</time>
      </trkpt>
      <trkpt lat="47.35887" lon="2.79098">
        <ele>283.54</ele>
        <time>2015-10-04T07:36:12Z</time>
      </trkpt>
      <trkpt lat="47.35879" lon="2.79124">
        <ele>282.53</ele>
        <time>2015-10-04T07:36:22Z</time>
      </trkpt>
      <trkpt lat="47.35863" lon="2.79152">
        <ele>277.68</ele>
        <time>2015-10-04T07:36:37Z</time>
      </trkpt>
      <trkpt lat="47.35847" lon="2.79179">
        <ele>271.55</ele>
        <time>2015-10-04T07:36:52Z</time>
      </trkpt>
      <trkpt lat="47.3583" lon="2.79201">
        <ele>267.01</ele>
        <time>2015-10-04T07:37:07Z</time>
      </trkpt>
      <trkpt lat="47.35814" lon="2.79218">
        <ele>262.39</ele>
        <time>2015-10-04T07:37:27Z</time>
      </trkpt>
      <trkpt lat="47.35822" lon="2.79247">
        <ele>260.24</ele>
        <time>2015-10-04T07:37:42Z</time>
      </trkpt>
      <trkpt lat="47.35841" lon="2.7927">
        <ele>261.24</ele>
        <time>2015-10-04T07:37:57Z</time>
      </trkpt>
      <trkpt lat="47.35858" lon="2.7929">
        <ele>261.43</ele>
        <time>2015-10-04T07:38:12Z</time>
      </trkpt>
      <trkpt lat="47.35878" lon="2.79313">
        <ele>260.23</ele>
        <time>2015-10-04T07:38:27Z</time>
      </trkpt>
      <trkpt lat="47.35874" lon="2.79342">
        <ele>256.68</ele>
        <time>2015-10-04T07:38:42Z</time>
      </trkpt>
      <trkpt lat="47.35889" lon="2.79376">
        <ele>251.3</ele>
        <time>2015-10-04T07:38:57Z</time>
      </trkpt>
      <trkpt lat="47.35898" lon="2.79398">
        <ele>251.41</ele>
        <time>2015-10-04T07:39:12Z</time>
      </trkpt>
      <trkpt lat="47.35912" lon="2.79416">
        <ele>251.24</ele>
        <time>2015-10-04T07:39:22Z</time>
      </trkpt>
      <trkpt lat="47.35933" lon="2.79438">
        <ele>250.75</ele>
        <time>2015-10-04T07:39:37Z</time>
      </trkpt>
      <trkpt lat="47.35951" lon="2.79456">
        <ele>249.05</ele>
        <time>2015-10-04T07:39:52Z</time>
      </trkpt>
      <trkpt lat="47.35961" lon="2.79482">
        <ele>246.6</ele>
        <time>2015-10-04T07:40:07Z</time>
      </trkpt>
      <trkpt lat="47.35967" lon="2.79509">
        <ele>242.38</ele>
        <time>2015-10-04T07:40:22Z</time>
      </trkpt>
      <trkpt lat="47.3598" lon="2.79543">
        <ele>243.62</ele>
        <time>2015-10-04T07:40:42Z</time>
      </trkpt>
      <trkpt lat="47.35988" lon="2.79581">
        <ele>243.12</ele>
        <time>2015-10-04T07:40:52Z</time>
      </trkpt>
      <trkpt lat="47.35996" lon="2.79614">
        <ele>240.18</ele>
        <time>2015-10-04T07:41:07Z</time>
      </trkpt>
      <trkpt lat="47.36007" lon="2.79645">
        <ele>234.82</ele>
        <time>2015-10-04T07:41:27Z</time>
      </trkpt>
      <trkpt lat="47.3601" lon="2.79676">
        <ele>234.82</ele>
        <time>2015-10-04T07:41:37Z</time>
      </trkpt>
      <trkpt lat="47.3601" lon="2.79706">
        <ele>236.07</ele>
        <time>2015-10-04T07:41:47Z</time>
      </trkpt>
      <trkpt lat="47.3599" lon="2.79722">
        <ele>236.5</ele>
        <time>2015-10-04T07:42:02Z</time>
      </trkpt>
      <trkpt lat="47.35968" lon="2.79717">
        <ele>235.47</ele>
        <time>2015-10-04T07:42:12Z</time>
      </trkpt>
      <trkpt lat="47.3594" lon="2.79721">
        <ele>234.35</ele>
        <time>2015-10-04T07:42:27Z</time>
      </trkpt>
      <trkpt lat="47.35913" lon="2.79711">
        <ele>233.59</ele>
        <time>2015-10-04T07:42:47Z</time>
      </trkpt>
      <trkpt lat="47.35892" lon="2.79705">
        <ele>230.84</ele>
        <time>2015-10-04T07:43:02Z</time>
      </trkpt>
      <trkpt lat="47.35875" lon="2.79724">
        <ele>225.55</ele>
        <time>2015-10-04T07:43:17Z</time>
      </trkpt>
      <trkpt lat="47.35855" lon="2.79745">
        <ele>222.37</ele>
        <time>2015-10-04T07:43:32Z</time>
      </trkpt>
      <trkpt lat="47.35841" lon="2.79769">
        <ele>222.45</ele>
        <time>2015-10-04T07:43:47Z</time>
      </trkpt>
      <trkpt lat="47.35823" lon="2.7978">
        <ele>224.42</ele>
        <time>2015-10-04T07:44:02Z</time>
      </trkpt>
      <trkpt lat="47.35807" lon="2.79797">
        <ele>226.52</ele>
        <time>2015-10-04T07:44:12Z</time>
      </trkpt>
      <trkpt lat="47.35789" lon="2.7981">
        <ele>228.18</ele>
        <time>2015-10-04T07:44:32Z</time>
      </trkpt>
      <trkpt lat="47.35768" lon="2.79829">
        <ele>231.44</ele>
        <time>2015-10-04T07:44:47Z</time>
      </trkpt>
      <trkpt lat="47.35743" lon="2.79837">
        <ele>234.86</ele>
        <time>2015-10-04T07:45:02Z</time>
      </trkpt>
      <trkpt lat="47.35723" lon="2.79829">
        <ele>235.75</ele>
        <time>2015-10-04T07:45:32Z</time>
      </trkpt>
      <trkpt lat="47.357" lon="2.7982">
        <ele>236.73</ele>
        <time>2015-10-04T07:45:52Z</time>
      </trkpt>
      <trkpt lat="47.3567" lon="2.79813">
        <ele>239.2</ele>
        <time>2015-10-04T07:46:02Z</time>
      </trkpt>
      <trkpt lat="47.35647" lon="2.79814">
        <ele>242.96</ele>
        <time>2015-10-04T07:46:12Z</time>
      </trkpt>
      <trkpt lat="47.35625" lon="2.79819">
        <ele>249.41</ele>
        <time>2015-10-04T07:46:27Z</time>
      </trkpt>
      <trkpt lat="47.35606" lon="2.79819">
        <ele>252.94</ele>
        <time>2015-10-04T07:46:37Z</time>
      </trkpt>
      <trkpt lat="47.35581" lon="2.79817">
        <ele>258.88</ele>
        <time>2015-10-04T07:46:57Z</time>
      </trkpt>
      <trkpt lat="47.35549" lon="2.79812">
        <ele>259.83</ele>
        <time>2015-10-04T07:47:22Z</time>
      </trkpt>
      <trkpt lat="47.3552" lon="2.79814">
        <ele>262.52</ele>
        <time>2015-10-04T07:47:32Z</time>
      </trkpt>
      <trkpt lat="47.35502" lon="2.79824">
        <ele>264.65</ele>
        <time>2015-10-04T07:47:42Z</time>
      </trkpt>
      <trkpt lat="47.35473" lon="2.7984">
        <ele>266.12</ele>
        <time>2015-10-04T07:48:07Z</time>
      </trkpt>
      <trkpt lat="47.35452" lon="2.79862">
        <ele>273.15</ele>
        <time>2015-10-04T07:48:22Z</time>
      </trkpt>
      <trkpt lat="47.35432" lon="2.79879">
        <ele>275.95</ele>
        <time>2015-10-04T07:48:37Z</time>
      </trkpt>
      <trkpt lat="47.35413" lon="2.79898">
        <ele>278.85</ele>
        <time>2015-10-04T07:48:47Z</time>
      </trkpt>
      <trkpt lat="47.35396" lon="2.79924">
        <ele>283.92</ele>
        <time>2015-10-04T07:49:07Z</time>
      </trkpt>
      <trkpt lat="47.35376" lon="2.7994">
        <ele>282.69</ele>
        <time>2015-10-04T07:49:17Z</time>
      </trkpt>
      <trkpt lat="47.35356" lon="2.79961">
        <ele>285.19</ele>
        <time>2015-10-04T07:49:27Z</time>
      </trkpt>
      <trkpt lat="47.35345" lon="2.79983">
        <ele>289.69</ele>
        <time>2015-10-04T07:49:37Z</time>
      </trkpt>
      <trkpt lat="47.35333" lon="2.80005">
        <ele>294.16</ele>
        <time>2015-10-04T07:49:47Z</time>
      </trkpt>
      <trkpt lat="47.35322" lon="2.80029">
        <ele>294.73</ele>
        <time>2015-10-04T07:49:57Z</time>
      </trkpt>
      <trkpt lat="47.35311" lon="2.8006">
        <ele>300.31</ele>
        <time>2015-10-04T07:50:12Z</time>
      </trkpt>
      <trkpt lat="47.35312" lon="2.80091">
        <ele>304.51</ele>
        <time>2015-10-04T07:50:27Z</time>
      </trkpt>
      <trkpt lat="47.35335" lon="2.80098">
        <ele>306.24</ele>
        <time>2015-10-04T07:53:32Z</time>
      </trkpt>
      <trkpt lat="47.35353" lon="2.80105">
        <ele>308.1</ele>
        <time>2015-10-04T07:53:46Z</time>
      </trkpt>
      <trkpt lat="47.35372" lon="2.80114">
        <ele>304.97</ele>
        <time>2015-10-04T07:54:01Z</time>
      </trkpt>
      <trkpt lat="47.35379" lon="2.80139">
        <ele>303.46</ele>
        <time>2015-10-04T07:54:16Z</time>
      </trkpt>
      <trkpt lat="47.35363" lon="2.80168">
        <ele>306.01</ele>
        <time>2015-10-04T07:54:31Z</time>
      </trkpt>
      <trkpt lat="47.35372" lon="2.80198">
        <ele>306.89</ele>
        <time>2015-10-04T07:54:56Z</time>
      </trkpt>
      <trkpt lat="47.35387" lon="2.80224">
        <ele>304.45</ele>
        <time>2015-10-04T07:55:11Z</time>
      </trkpt>
      <trkpt lat="47.35402" lon="2.80244">
        <ele>301.05</ele>
        <time>2015-10-04T07:55:27Z</time>
      </trkpt>
      <trkpt lat="47.35413" lon="2.8027">
        <ele>300.95</ele>
        <time>2015-10-04T07:55:47Z</time>
      </trkpt>
      <trkpt lat="47.35424" lon="2.8029">
        <ele>300.85</ele>
        <time>2015-10-04T07:56:02Z</time>
      </trkpt>
      <trkpt lat="47.35438" lon="2.80316">
        <ele>300.18</ele>
        <time>2015-10-04T07:56:12Z</time>
      </trkpt>
      <trkpt lat="47.3545" lon="2.80348">
        <ele>301.74</ele>
        <time>2015-10-04T07:56:27Z</time>
      </trkpt>
      <trkpt lat="47.35467" lon="2.80379">
        <ele>302.55</ele>
        <time>2015-10-04T07:56:47Z</time>
      </trkpt>
      <trkpt lat="47.35485" lon="2.80411">
        <ele>301.96</ele>
        <time>2015-10-04T07:57:07Z</time>
      </trkpt>
      <trkpt lat="47.35501" lon="2.80447">
        <ele>302.85</ele>
        <time>2015-10-04T07:57:17Z</time>
      </trkpt>
      <trkpt lat="47.35508" lon="2.80481">
        <ele>302.11</ele>
        <time>2015-10-04T07:57:32Z</time>
      </trkpt>
      <trkpt lat="47.35525" lon="2.80492">
        <ele>302.82</ele>
        <time>2015-10-04T07:57:47Z</time>
      </trkpt>
      <trkpt lat="47.35539" lon="2.80473">
        <ele>299.41</ele>
        <time>2015-10-04T07:58:02Z</time>
      </trkpt>
      <trkpt lat="47.35558" lon="2.80493">
        <ele>302.11</ele>
        <time>2015-10-04T07:58:17Z</time>
      </trkpt>
      <trkpt lat="47.3557" lon="2.80514">
        <ele>305.42</ele>
        <time>2015-10-04T07:58:27Z</time>
      </trkpt>
      <trkpt lat="47.35588" lon="2.80533">
        <ele>304.57</ele>
        <time>2015-10-04T07:58:42Z</time>
      </trkpt>
      <trkpt lat="47.35604" lon="2.80553">
        <ele>307.04</ele>
        <time>2015-10-04T07:58:57Z</time>
      </trkpt>
      <trkpt lat="47.35623" lon="2.80575">
        <ele>306.2</ele>
        <time>2015-10-04T07:59:12Z</time>
      </trkpt>
      <trkpt lat="47.35642" lon="2.80595">
        <ele>303.38</ele>
        <time>2015-10-04T07:59:27Z</time>
      </trkpt>
      <trkpt lat="47.35661" lon="2.80609">
        <ele>301.21</ele>
        <time>2015-10-04T07:59:42Z</time>
      </trkpt>
      <trkpt lat="47.35682" lon="2.80624">
        <ele>298.82</ele>
        <time>2015-10-04T07:59:57Z</time>
      </trkpt>
      <trkpt lat="47.35702" lon="2.80644">
        <ele>298.37</ele>
        <time>2015-10-04T08:00:12Z</time>
      </trkpt>
      <trkpt lat="47.35724" lon="2.80664">
        <ele>298.34</ele>
        <time>2015-10-04T08:00:27Z</time>
      </trkpt>
      <trkpt lat="47.35743" lon="2.80677">
        <ele>296.47</ele>
        <time>2015-10-04T08:00:42Z</time>
      </trkpt>
      <trkpt lat="47.3576" lon="2.80684">
        <ele>296.24</ele>
        <time>2015-10-04T08:00:57Z</time>
      </trkpt>
      <trkpt lat="47.35775" lon="2.8066">
        <ele>296.4</ele>
        <time>2015-10-04T08:01:13Z</time>
      </trkpt>
      <trkpt lat="47.35791" lon="2.80632">
        <ele>296.68</ele>
        <time>2015-10-04T08:01:28Z</time>
      </trkpt>
      <trkpt lat="47.35801" lon="2.80607">
        <ele>297.53</ele>
        <time>2015-10-04T08:01:43Z</time>
      </trkpt>
      <trkpt lat="47.35819" lon="2.80596">
        <ele>300.66</ele>
        <time>2015-10-04T08:01:58Z</time>
      </trkpt>
      <trkpt lat="47.35841" lon="2.80612">
        <ele>305.1</ele>
        <time>2015-10-04T08:02:13Z</time>
      </trkpt>
      <trkpt lat="47.3586" lon="2.80622">
        <ele>303.9</ele>
        <time>2015-10-04T08:02:28Z</time>
      </trkpt>
      <trkpt lat="47.35881" lon="2.80641">
        <ele>302.63</ele>
        <time>2015-10-04T08:02:43Z</time>
      </trkpt>
      <trkpt lat="47.35901" lon="2.80663">
        <ele>301.98</ele>
        <time>2015-10-04T08:02:58Z</time>
      </trkpt>
      <trkpt lat="47.35922" lon="2.80682">
        <ele>298.22</ele>
        <time>2015-10-04T08:03:13Z</time>
      </trkpt>
      <trkpt lat="47.35938" lon="2.807">
        <ele>292.42</ele>
        <time>2015-10-04T08:03:28Z</time>
      </trkpt>
      <trkpt lat="47.35961" lon="2.8072">
        <ele>294.91</ele>
        <time>2015-10-04T08:03:43Z</time>
      </trkpt>
      <trkpt lat="47.3598" lon="2.80737">
        <ele>292.17</ele>
        <time>2015-10-04T08:03:58Z</time>
      </trkpt>
      <trkpt lat="47.36003" lon="2.80747">
        <ele>288.95</ele>
        <time>2015-10-04T08:04:13Z</time>
      </trkpt>
      <trkpt lat="47.36023" lon="2.80765">
        <ele>283.94</ele>
        <time>2015-10-04T08:04:28Z</time>
      </trkpt>
      <trkpt lat="47.36045" lon="2.80782">
        <ele>280.61</ele>
        <time>2015-10-04T08:04:43Z</time>
      </trkpt>
      <trkpt lat="47.36062" lon="2.80794">
        <ele>279.09</ele>
        <time>2015-10-04T08:04:53Z</time>
      </trkpt>
      <trkpt lat="47.36083" lon="2.80804">
        <ele>274.7</ele>
        <time>2015-10-04T08:05:08Z</time>
      </trkpt>
      <trkpt lat="47.36108" lon="2.8081">
        <ele>273.98</ele>
        <time>2015-10-04T08:05:23Z</time>
      </trkpt>
      <trkpt lat="47.36126" lon="2.80821">
        <ele>275.2</ele>
        <time>2015-10-04T08:05:38Z</time>
      </trkpt>
      <trkpt lat="47.36149" lon="2.80831">
        <ele>272.91</ele>
        <time>2015-10-04T08:05:53Z</time>
      </trkpt>
      <trkpt lat="47.36172" lon="2.80845">
        <ele>272.62</ele>
        <time>2015-10-04T08:06:08Z</time>
      </trkpt>
      <trkpt lat="47.36195" lon="2.80853">
        <ele>271.24</ele>
        <time>2015-10-04T08:06:23Z</time>
      </trkpt>
      <trkpt lat="47.36219" lon="2.80863">
        <ele>269.14</ele>
        <time>2015-10-04T08:06:38Z</time>
      </trkpt>
      <trkpt lat="47.36244" lon="2.80875">
        <ele>266.51</ele>
        <time>2015-10-04T08:06:53Z</time>
      </trkpt>
      <trkpt lat="47.36268" lon="2.80884">
        <ele>266.09</ele>
        <time>2015-10-04T08:07:08Z</time>
      </trkpt>
      <trkpt lat="47.36293" lon="2.80894">
        <ele>264.85</ele>
        <time>2015-10-04T08:07:23Z</time>
      </trkpt>
      <trkpt lat="47.36315" lon="2.80903">
        <ele>266.49</ele>
        <time>2015-10-04T08:07:38Z</time>
      </trkpt>
      <trkpt lat="47.36331" lon="2.80931">
        <ele>265.62</ele>
        <time>2015-10-04T08:07:53Z</time>
      </trkpt>
      <trkpt lat="47.3635" lon="2.80907">
        <ele>264.55</ele>
        <time>2015-10-04T08:08:13Z</time>
      </trkpt>
      <trkpt lat="47.36369" lon="2.80911">
        <ele>264.91</ele>
        <time>2015-10-04T08:08:28Z</time>
      </trkpt>
      <trkpt lat="47.36392" lon="2.80921">
        <ele>262.51</ele>
        <time>2015-10-04T08:08:43Z</time>
      </trkpt>
      <trkpt lat="47.36415" lon="2.80934">
        <ele>263.11</ele>
        <time>2015-10-04T08:08:58Z</time>
      </trkpt>
      <trkpt lat="47.36437" lon="2.80947">
        <ele>262.31</ele>
        <time>2015-10-04T08:09:13Z</time>
      </trkpt>
      <trkpt lat="47.36457" lon="2.80962">
        <ele>260.24</ele>
        <time>2015-10-04T08:09:28Z</time>
      </trkpt>
      <trkpt lat="47.3648" lon="2.80972">
        <ele>260.14</ele>
        <time>2015-10-04T08:09:43Z</time>
      </trkpt>
      <trkpt lat="47.36503" lon="2.80992">
        <ele>259.75</ele>
        <time>2015-10-04T08:09:58Z</time>
      </trkpt>
      <trkpt lat="47.36523" lon="2.8101">
        <ele>257.74</ele>
        <time>2015-10-04T08:10:13Z</time>
      </trkpt>
      <trkpt lat="47.36543" lon="2.81028">
        <ele>261.12</ele>
        <time>2015-10-04T08:10:28Z</time>
      </trkpt>
      <trkpt lat="47.36565" lon="2.81044">
        <ele>261</ele>
        <time>2015-10-04T08:10:43Z</time>
      </trkpt>
      <trkpt lat="47.36582" lon="2.81051">
        <ele>261.51</ele>
        <time>2015-10-04T08:10:53Z</time>
      </trkpt>
      <trkpt lat="47.36604" lon="2.81064">
        <ele>259.96</ele>
        <time>2015-10-04T08:11:08Z</time>
      </trkpt>
      <trkpt lat="47.36624" lon="2.81078">
        <ele>261.4</ele>
        <time>2015-10-04T08:11:23Z</time>
      </trkpt>
      <trkpt lat="47.36648" lon="2.81093">
        <ele>261.49</ele>
        <time>2015-10-04T08:11:38Z</time>
      </trkpt>
      <trkpt lat="47.36668" lon="2.81106">
        <ele>259.29</ele>
        <time>2015-10-04T08:11:53Z</time>
      </trkpt>
      <trkpt lat="47.36687" lon="2.8112">
        <ele>252.52</ele>
        <time>2015-10-04T08:12:08Z</time>
      </trkpt>
      <trkpt lat="47.36702" lon="2.81137">
        <ele>255.17</ele>
        <time>2015-10-04T08:12:18Z</time>
      </trkpt>
      <trkpt lat="47.36721" lon="2.81157">
        <ele>255.61</ele>
        <time>2015-10-04T08:12:33Z</time>
      </trkpt>
      <trkpt lat="47.36741" lon="2.81178">
        <ele>257.69</ele>
        <time>2015-10-04T08:12:48Z</time>
      </trkpt>
      <trkpt lat="47.36761" lon="2.81198">
        <ele>257.74</ele>
        <time>2015-10-04T08:13:03Z</time>
      </trkpt>
      <trkpt lat="47.36783" lon="2.81216">
        <ele>256.64</ele>
        <time>2015-10-04T08:13:18Z</time>
      </trkpt>
      <trkpt lat="47.36801" lon="2.81235">
        <ele>257.61</ele>
        <time>2015-10-04T08:13:33Z</time>
      </trkpt>
      <trkpt lat="47.36822" lon="2.81251">
        <ele>258.09</ele>
        <time>2015-10-04T08:13:48Z</time>
      </trkpt>
      <trkpt lat="47.36839" lon="2.81266">
        <ele>260.99</ele>
        <time>2015-10-04T08:14:03Z</time>
      </trkpt>
      <trkpt lat="47.36839" lon="2.81229">
        <ele>261.92</ele>
        <time>2015-10-04T08:14:28Z</time>
      </trkpt>
      <trkpt lat="47.36827" lon="2.81201">
        <ele>263.62</ele>
        <time>2015-10-04T08:14:43Z</time>
      </trkpt>
      <trkpt lat="47.36812" lon="2.81177">
        <ele>264.88</ele>
        <time>2015-10-04T08:14:58Z</time>
      </trkpt>
      <trkpt lat="47.36799" lon="2.81151">
        <ele>264.15</ele>
        <time>2015-10-04T08:15:13Z</time>
      </trkpt>
      <trkpt lat="47.36787" lon="2.81126">
        <ele>265.51</ele>
        <time>2015-10-04T08:15:28Z</time>
      </trkpt>
      <trkpt lat="47.36773" lon="2.81106">
        <ele>264.17</ele>
        <time>2015-10-04T08:15:38Z</time>
      </trkpt>
      <trkpt lat="47.36751" lon="2.81071">
        <ele>270.36</ele>
        <time>2015-10-04T08:15:52Z</time>
      </trkpt>
      <trkpt lat="47.3674" lon="2.81048">
        <ele>264.96</ele>
        <time>2015-10-04T08:16:02Z</time>
      </trkpt>
      <trkpt lat="47.36729" lon="2.81017">
        <ele>263.25</ele>
        <time>2015-10-04T08:16:17Z</time>
      </trkpt>
      <trkpt lat="47.36727" lon="2.80986">
        <ele>260.81</ele>
        <time>2015-10-04T08:16:32Z</time>
      </trkpt>
      <trkpt lat="47.36731" lon="2.80955">
        <ele>257.52</ele>
        <time>2015-10-04T08:16:42Z</time>
      </trkpt>
      <trkpt lat="47.36735" lon="2.80929">
        <ele>245.93</ele>
        <time>2015-10-04T08:16:57Z</time>
      </trkpt>
      <trkpt lat="47.36731" lon="2.80876">
        <ele>241.18</ele>
        <time>2015-10-04T08:17:07Z</time>
      </trkpt>
      <trkpt lat="47.36727" lon="2.80849">
        <ele>238.37</ele>
        <time>2015-10-04T08:17:12Z</time>
      </trkpt>
      <trkpt lat="47.3673" lon="2.8082">
        <ele>235.06</ele>
        <time>2015-10-04T08:17:27Z</time>
      </trkpt>
      <trkpt lat="47.36719" lon="2.80796">
        <ele>231.78</ele>
        <time>2015-10-04T08:17:42Z</time>
      </trkpt>
      <trkpt lat="47.36707" lon="2.80769">
        <ele>229.74</ele>
        <time>2015-10-04T08:17:57Z</time>
      </trkpt>
      <trkpt lat="47.36712" lon="2.80738">
        <ele>225.34</ele>
        <time>2015-10-04T08:18:17Z</time>
      </trkpt>
      <trkpt lat="47.3673" lon="2.80709">
        <ele>225.44</ele>
        <time>2015-10-04T08:18:42Z</time>
      </trkpt>
      <trkpt lat="47.36739" lon="2.80685">
        <ele>220.65</ele>
        <time>2015-10-04T08:18:52Z</time>
      </trkpt>
      <trkpt lat="47.36753" lon="2.80659">
        <ele>218.13</ele>
        <time>2015-10-04T08:19:07Z</time>
      </trkpt>
      <trkpt lat="47.3677" lon="2.80636">
        <ele>215.47</ele>
        <time>2015-10-04T08:19:22Z</time>
      </trkpt>
      <trkpt lat="47.36782" lon="2.80612">
        <ele>213.52</ele>
        <time>2015-10-04T08:19:37Z</time>
      </trkpt>
      <trkpt lat="47.36793" lon="2.8059">
        <ele>211.27</ele>
        <time>2015-10-04T08:19:52Z</time>
      </trkpt>
      <trkpt lat="47.36809" lon="2.80566">
        <ele>210.58</ele>
        <time>2015-10-04T08:20:07Z</time>
      </trkpt>
      <trkpt lat="47.36828" lon="2.80543">
        <ele>214.31</ele>
        <time>2015-10-04T08:20:32Z</time>
      </trkpt>
      <trkpt lat="47.36848" lon="2.80529">
        <ele>218.19</ele>
        <time>2015-10-04T08:20:47Z</time>
      </trkpt>
      <trkpt lat="47.36868" lon="2.80546">
        <ele>218.33</ele>
        <time>2015-10-04T08:21:02Z</time>
      </trkpt>
      <trkpt lat="47.3689" lon="2.80554">
        <ele>218.13</ele>
        <time>2015-10-04T08:21:17Z</time>
      </trkpt>
      <trkpt lat="47.36913" lon="2.8056">
        <ele>218.13</ele>
        <time>2015-10-04T08:21:32Z</time>
      </trkpt>
      <trkpt lat="47.36932" lon="2.80567">
        <ele>217.1</ele>
        <time>2015-10-04T08:21:42Z</time>
      </trkpt>
      <trkpt lat="47.36951" lon="2.80578">
        <ele>215.27</ele>
        <time>2015-10-04T08:21:52Z</time>
      </trkpt>
      <trkpt lat="47.36969" lon="2.80589">
        <ele>216.31</ele>
        <time>2015-10-04T08:22:07Z</time>
      </trkpt>
      <trkpt lat="47.36988" lon="2.80606">
        <ele>213.03</ele>
        <time>2015-10-04T08:22:27Z</time>
      </trkpt>
      <trkpt lat="47.37004" lon="2.8063">
        <ele>207.5</ele>
        <time>2015-10-04T08:22:47Z</time>
      </trkpt>
      <trkpt lat="47.37028" lon="2.80648">
        <ele>209.56</ele>
        <time>2015-10-04T08:23:07Z</time>
      </trkpt>
      <trkpt lat="47.37051" lon="2.80663">
        <ele>209.26</ele>
        <time>2015-10-04T08:23:17Z</time>
      </trkpt>
      <trkpt lat="47.37068" lon="2.80671">
        <ele>208.91</ele>
        <time>2015-10-04T08:23:32Z</time>
      </trkpt>
      <trkpt lat="47.37093" lon="2.80688">
        <ele>204.77</ele>
        <time>2015-10-04T08:23:52Z</time>
      </trkpt>
      <trkpt lat="47.37114" lon="2.80707">
        <ele>203.69</ele>
        <time>2015-10-04T08:24:02Z</time>
      </trkpt>
      <trkpt lat="47.37136" lon="2.80733">
        <ele>207.62</ele>
        <time>2015-10-04T08:24:22Z</time>
      </trkpt>
      <trkpt lat="47.37152" lon="2.8075">
        <ele>206.64</ele>
        <time>2015-10-04T08:24:37Z</time>
      </trkpt>
      <trkpt lat="47.37173" lon="2.80759">
        <ele>204.03</ele>
        <time>2015-10-04T08:24:47Z</time>
      </trkpt>
      <trkpt lat="47.37193" lon="2.80772">
        <ele>204.59</ele>
        <time>2015-10-04T08:25:02Z</time>
      </trkpt>
      <trkpt lat="47.37211" lon="2.8078">
        <ele>208.22</ele>
        <time>2015-10-04T08:25:12Z</time>
      </trkpt>
      <trkpt lat="47.37237" lon="2.80791">
        <ele>211.24</ele>
        <time>2015-10-04T08:25:27Z</time>
      </trkpt>
      <trkpt lat="47.3726" lon="2.808">
        <ele>208.12</ele>
        <time>2015-10-04T08:25:42Z</time>
      </trkpt>
      <trkpt lat="47.37281" lon="2.8081">
        <ele>206.85</ele>
        <time>2015-10-04T08:25:57Z</time>
      </trkpt>
      <trkpt lat="47.37301" lon="2.80794">
        <ele>204.92</ele>
        <time>2015-10-04T08:26:12Z</time>
      </trkpt>
      <trkpt lat="47.37321" lon="2.80784">
        <ele>206.47</ele>
        <time>2015-10-04T08:26:27Z</time>
      </trkpt>
      <trkpt lat="47.37338" lon="2.80778">
        <ele>210.88</ele>
        <time>2015-10-04T08:26:42Z</time>
      </trkpt>
      <trkpt lat="47.37356" lon="2.80764">
        <ele>211.12</ele>
        <time>2015-10-04T08:26:52Z</time>
      </trkpt>
      <trkpt lat="47.3737" lon="2.8074">
        <ele>211.88</ele>
        <time>2015-10-04T08:27:12Z</time>
      </trkpt>
      <trkpt lat="47.37385" lon="2.80724">
        <ele>212.1</ele>
        <time>2015-10-04T08:27:27Z</time>
      </trkpt>
      <trkpt lat="47.37404" lon="2.80717">
        <ele>211.19</ele>
        <time>2015-10-04T08:27:42Z</time>
      </trkpt>
      <trkpt lat="47.37423" lon="2.80716">
        <ele>211.84</ele>
        <time>2015-10-04T08:27:57Z</time>
      </trkpt>
      <trkpt lat="47.3744" lon="2.80704">
        <ele>210.21</ele>
        <time>2015-10-04T08:28:12Z</time>
      </trkpt>
      <trkpt lat="47.37463" lon="2.80688">
        <ele>214.65</ele>
        <time>2015-10-04T08:28:27Z</time>
      </trkpt>
      <trkpt lat="47.37482" lon="2.80665">
        <ele>218.71</ele>
        <time>2015-10-04T08:28:42Z</time>
      </trkpt>
      <trkpt lat="47.37491" lon="2.80637">
        <ele>219.59</ele>
        <time>2015-10-04T08:28:57Z</time>
      </trkpt>
      <trkpt lat="47.37499" lon="2.80608">
        <ele>219.54</ele>
        <time>2015-10-04T08:29:12Z</time>
      </trkpt>
      <trkpt lat="47.37513" lon="2.8058">
        <ele>220.88</ele>
        <time>2015-10-04T08:29:27Z</time>
      </trkpt>
      <trkpt lat="47.37526" lon="2.80554">
        <ele>222.85</ele>
        <time>2015-10-04T08:29:42Z</time>
      </trkpt>
      <trkpt lat="47.37543" lon="2.80532">
        <ele>222.17</ele>
        <time>2015-10-04T08:29:57Z</time>
      </trkpt>
      <trkpt lat="47.37561" lon="2.80508">
        <ele>220.37</ele>
        <time>2015-10-04T08:30:13Z</time>
      </trkpt>
      <trkpt lat="47.37572" lon="2.80483">
        <ele>219.98</ele>
        <time>2015-10-04T08:30:33Z</time>
      </trkpt>
      <trkpt lat="47.37588" lon="2.80464">
        <ele>220.09</ele>
        <time>2015-10-04T08:30:43Z</time>
      </trkpt>
      <trkpt lat="47.37597" lon="2.8044">
        <ele>221.18</ele>
        <time>2015-10-04T08:30:58Z</time>
      </trkpt>
      <trkpt lat="47.37607" lon="2.80415">
        <ele>222.11</ele>
        <time>2015-10-04T08:31:13Z</time>
      </trkpt>
      <trkpt lat="47.37615" lon="2.80389">
        <ele>224.54</ele>
        <time>2015-10-04T08:31:28Z</time>
      </trkpt>
      <trkpt lat="47.37627" lon="2.80364">
        <ele>224.65</ele>
        <time>2015-10-04T08:31:38Z</time>
      </trkpt>
      <trkpt lat="47.37632" lon="2.80337">
        <ele>230.43</ele>
        <time>2015-10-04T08:31:53Z</time>
      </trkpt>
      <trkpt lat="47.37621" lon="2.80313">
        <ele>233.54</ele>
        <time>2015-10-04T08:32:13Z</time>
      </trkpt>
      <trkpt lat="47.37618" lon="2.80281">
        <ele>239.09</ele>
        <time>2015-10-04T08:32:28Z</time>
      </trkpt>
      <trkpt lat="47.37615" lon="2.80254">
        <ele>239.84</ele>
        <time>2015-10-04T08:32:53Z</time>
      </trkpt>
      <trkpt lat="47.37609" lon="2.80224">
        <ele>241.84</ele>
        <time>2015-10-04T08:33:18Z</time>
      </trkpt>
      <trkpt lat="47.37601" lon="2.80194">
        <ele>242.52</ele>
        <time>2015-10-04T08:33:33Z</time>
      </trkpt>
      <trkpt lat="47.37592" lon="2.80162">
        <ele>243.05</ele>
        <time>2015-10-04T08:33:48Z</time>
      </trkpt>
      <trkpt lat="47.37587" lon="2.80134">
        <ele>244.45</ele>
        <time>2015-10-04T08:34:03Z</time>
      </trkpt>
      <trkpt lat="47.37587" lon="2.80097">
        <ele>247.96</ele>
        <time>2015-10-04T08:34:23Z</time>
      </trkpt>
      <trkpt lat="47.37592" lon="2.80069">
        <ele>252.35</ele>
        <time>2015-10-04T08:34:38Z</time>
      </trkpt>
      <trkpt lat="47.37606" lon="2.80044">
        <ele>253.61</ele>
        <time>2015-10-04T08:34:58Z</time>
      </trkpt>
      <trkpt lat="47.37613" lon="2.80014">
        <ele>257.42</ele>
        <time>2015-10-04T08:35:08Z</time>
      </trkpt>
      <trkpt lat="47.37617" lon="2.79987">
        <ele>265.62</ele>
        <time>2015-10-04T08:35:18Z</time>
      </trkpt>
      <trkpt lat="47.37617" lon="2.7996">
        <ele>271.42</ele>
        <time>2015-10-04T08:35:33Z</time>
      </trkpt>
      <trkpt lat="47.3762" lon="2.79927">
        <ele>271.46</ele>
        <time>2015-10-04T08:35:53Z</time>
      </trkpt>
      <trkpt lat="47.37616" lon="2.79894">
        <ele>275.16</ele>
        <time>2015-10-04T08:36:08Z</time>
      </trkpt>
      <trkpt lat="47.37614" lon="2.79866">
        <ele>276.05</ele>
        <time>2015-10-04T08:36:23Z</time>
      </trkpt>
      <trkpt lat="47.3761" lon="2.79838">
        <ele>280.48</ele>
        <time>2015-10-04T08:36:43Z</time>
      </trkpt>
      <trkpt lat="47.3761" lon="2.79803">
        <ele>283.57</ele>
        <time>2015-10-04T08:37:03Z</time>
      </trkpt>
      <trkpt lat="47.3761" lon="2.7977">
        <ele>288.45</ele>
        <time>2015-10-04T08:37:18Z</time>
      </trkpt>
      <trkpt lat="47.37604" lon="2.79742">
        <ele>288</ele>
        <time>2015-10-04T08:37:33Z</time>
      </trkpt>
      <trkpt lat="47.37601" lon="2.79707">
        <ele>287.95</ele>
        <time>2015-10-04T08:37:48Z</time>
      </trkpt>
      <trkpt lat="47.37596" lon="2.7968">
        <ele>285.53</ele>
        <time>2015-10-04T08:38:08Z</time>
      </trkpt>
      <trkpt lat="47.37594" lon="2.79646">
        <ele>292.6</ele>
        <time>2015-10-04T08:41:08Z</time>
      </trkpt>
      <trkpt lat="47.37592" lon="2.79615">
        <ele>288.28</ele>
        <time>2015-10-04T08:41:23Z</time>
      </trkpt>
      <trkpt lat="47.37587" lon="2.79583">
        <ele>294.14</ele>
        <time>2015-10-04T08:41:38Z</time>
      </trkpt>
      <trkpt lat="47.37588" lon="2.79549">
        <ele>295.83</ele>
        <time>2015-10-04T08:41:58Z</time>
      </trkpt>
      <trkpt lat="47.37587" lon="2.79513">
        <ele>296.12</ele>
        <time>2015-10-04T08:42:13Z</time>
      </trkpt>
      <trkpt lat="47.37581" lon="2.79477">
        <ele>297.15</ele>
        <time>2015-10-04T08:42:28Z</time>
      </trkpt>
      <trkpt lat="47.37579" lon="2.79445">
        <ele>294.32</ele>
        <time>2015-10-04T08:42:53Z</time>
      </trkpt>
      <trkpt lat="47.37582" lon="2.79415">
        <ele>293.5</ele>
        <time>2015-10-04T08:43:03Z</time>
      </trkpt>
      <trkpt lat="47.37582" lon="2.79385">
        <ele>293.68</ele>
        <time>2015-10-04T08:43:23Z</time>
      </trkpt>
      <trkpt lat="47.3758" lon="2.79352">
        <ele>293.94</ele>
        <time>2015-10-04T08:43:38Z</time>
      </trkpt>
      <trkpt lat="47.37582" lon="2.79316">
        <ele>296.03</ele>
        <time>2015-10-04T08:43:53Z</time>
      </trkpt>
      <trkpt lat="47.37589" lon="2.79288">
        <ele>296.47</ele>
        <time>2015-10-04T08:44:08Z</time>
      </trkpt>
      <trkpt lat="47.37597" lon="2.79257">
        <ele>297.1</ele>
        <time>2015-10-04T08:44:23Z</time>
      </trkpt>
      <trkpt lat="47.37605" lon="2.79232">
        <ele>298.75</ele>
        <time>2015-10-04T08:44:38Z</time>
      </trkpt>
      <trkpt lat="47.37616" lon="2.79205">
        <ele>298.6</ele>
        <time>2015-10-04T08:44:53Z</time>
      </trkpt>
      <trkpt lat="47.3762" lon="2.79172">
        <ele>302.06</ele>
        <time>2015-10-04T08:45:08Z</time>
      </trkpt>
      <trkpt lat="47.37632" lon="2.7915">
        <ele>303.21</ele>
        <time>2015-10-04T08:45:23Z</time>
      </trkpt>
      <trkpt lat="47.37634" lon="2.79122">
        <ele>304.55</ele>
        <time>2015-10-04T08:45:33Z</time>
      </trkpt>
      <trkpt lat="47.37643" lon="2.79098">
        <ele>303.46</ele>
        <time>2015-10-04T08:45:43Z</time>
      </trkpt>
      <trkpt lat="47.37653" lon="2.79068">
        <ele>300.68</ele>
        <time>2015-10-04T08:46:03Z</time>
      </trkpt>
      <trkpt lat="47.37658" lon="2.79033">
        <ele>301.67</ele>
        <time>2015-10-04T08:46:18Z</time>
      </trkpt>
      <trkpt lat="47.37661" lon="2.79003">
        <ele>304.05</ele>
        <time>2015-10-04T08:46:33Z</time>
      </trkpt>
      <trkpt lat="47.37655" lon="2.78971">
        <ele>303.77</ele>
        <time>2015-10-04T08:46:58Z</time>
      </trkpt>
      <trkpt lat="47.37662" lon="2.78943">
        <ele>302.41</ele>
        <time>2015-10-04T08:47:08Z</time>
      </trkpt>
      <trkpt lat="47.37656" lon="2.78915">
        <ele>302.64</ele>
        <time>2015-10-04T08:47:23Z</time>
      </trkpt>
      <trkpt lat="47.37649" lon="2.78886">
        <ele>304.06</ele>
        <time>2015-10-04T08:54:18Z</time>
      </trkpt>
      <trkpt lat="47.37648" lon="2.78856">
        <ele>302.82</ele>
        <time>2015-10-04T08:56:48Z</time>
      </trkpt>
      <trkpt lat="47.3765" lon="2.78819">
        <ele>305.47</ele>
        <time>2015-10-04T08:57:03Z</time>
      </trkpt>
      <trkpt lat="47.37661" lon="2.78795">
        <ele>305.01</ele>
        <time>2015-10-04T08:57:13Z</time>
      </trkpt>
      <trkpt lat="47.37648" lon="2.78769">
        <ele>304.63</ele>
        <time>2015-10-04T08:57:28Z</time>
      </trkpt>
      <trkpt lat="47.37647" lon="2.78729">
        <ele>304.69</ele>
        <time>2015-10-04T08:57:43Z</time>
      </trkpt>
      <trkpt lat="47.37648" lon="2.7869">
        <ele>306.94</ele>
        <time>2015-10-04T08:58:03Z</time>
      </trkpt>
      <trkpt lat="47.3765" lon="2.78658">
        <ele>307.33</ele>
        <time>2015-10-04T08:58:18Z</time>
      </trkpt>
      <trkpt lat="47.37655" lon="2.78632">
        <ele>306.89</ele>
        <time>2015-10-04T08:58:33Z</time>
      </trkpt>
      <trkpt lat="47.37663" lon="2.78603">
        <ele>308.26</ele>
        <time>2015-10-04T08:58:48Z</time>
      </trkpt>
      <trkpt lat="47.37675" lon="2.78567">
        <ele>310.53</ele>
        <time>2015-10-04T08:59:08Z</time>
      </trkpt>
      <trkpt lat="47.37677" lon="2.78531">
        <ele>313.48</ele>
        <time>2015-10-04T08:59:28Z</time>
      </trkpt>
      <trkpt lat="47.37691" lon="2.78504">
        <ele>313.06</ele>
        <time>2015-10-04T08:59:38Z</time>
      </trkpt>
      <trkpt lat="47.37695" lon="2.78473">
        <ele>315.96</ele>
        <time>2015-10-04T08:59:53Z</time>
      </trkpt>
      <trkpt lat="47.37699" lon="2.78447">
        <ele>311.57</ele>
        <time>2015-10-04T09:00:13Z</time>
      </trkpt>
      <trkpt lat="47.37698" lon="2.7841">
        <ele>307.97</ele>
        <time>2015-10-04T09:00:28Z</time>
      </trkpt>
      <trkpt lat="47.37697" lon="2.78381">
        <ele>307.7</ele>
        <time>2015-10-04T09:00:43Z</time>
      </trkpt>
      <trkpt lat="47.37691" lon="2.78344">
        <ele>310.78</ele>
        <time>2015-10-04T09:01:03Z</time>
      </trkpt>
      <trkpt lat="47.37689" lon="2.78315">
        <ele>319.19</ele>
        <time>2015-10-04T09:02:03Z</time>
      </trkpt>
      <trkpt lat="47.37693" lon="2.78283">
        <ele>318.64</ele>
        <time>2015-10-04T09:02:13Z</time>
      </trkpt>
      <trkpt lat="47.37696" lon="2.78255">
        <ele>317.41</ele>
        <time>2015-10-04T09:02:28Z</time>
      </trkpt>
      <trkpt lat="47.37695" lon="2.78225">
        <ele>318.79</ele>
        <time>2015-10-04T09:03:03Z</time>
      </trkpt>
      <trkpt lat="47.37697" lon="2.78187">
        <ele>317.27</ele>
        <time>2015-10-04T09:03:28Z</time>
      </trkpt>
      <trkpt lat="47.37697" lon="2.78148">
        <ele>315.94</ele>
        <time>2015-10-04T09:03:38Z</time>
      </trkpt>
      <trkpt lat="47.37699" lon="2.78121">
        <ele>316.27</ele>
        <time>2015-10-04T09:03:53Z</time>
      </trkpt>
      <trkpt lat="47.37708" lon="2.78094">
        <ele>315.55</ele>
        <time>2015-10-04T09:04:13Z</time>
      </trkpt>
      <trkpt lat="47.37719" lon="2.78068">
        <ele>314.03</ele>
        <time>2015-10-04T09:04:23Z</time>
      </trkpt>
      <trkpt lat="47.37732" lon="2.78046">
        <ele>314.25</ele>
        <time>2015-10-04T09:04:33Z</time>
      </trkpt>
      <trkpt lat="47.37743" lon="2.78024">
        <ele>316.63</ele>
        <time>2015-10-04T09:04:43Z</time>
      </trkpt>
      <trkpt lat="47.3775" lon="2.77995">
        <ele>316.94</ele>
        <time>2015-10-04T09:04:58Z</time>
      </trkpt>
      <trkpt lat="47.37751" lon="2.77961">
        <ele>317.94</ele>
        <time>2015-10-04T09:05:13Z</time>
      </trkpt>
      <trkpt lat="47.37754" lon="2.77932">
        <ele>320.82</ele>
        <time>2015-10-04T09:05:28Z</time>
      </trkpt>
      <trkpt lat="47.37762" lon="2.779">
        <ele>319.87</ele>
        <time>2015-10-04T09:05:43Z</time>
      </trkpt>
      <trkpt lat="47.37772" lon="2.77872">
        <ele>318.73</ele>
        <time>2015-10-04T09:05:58Z</time>
      </trkpt>
      <trkpt lat="47.37785" lon="2.77843">
        <ele>316.73</ele>
        <time>2015-10-04T09:06:13Z</time>
      </trkpt>
      <trkpt lat="47.37798" lon="2.7782">
        <ele>313.27</ele>
        <time>2015-10-04T09:06:28Z</time>
      </trkpt>
      <trkpt lat="47.37806" lon="2.77793">
        <ele>308.72</ele>
        <time>2015-10-04T09:06:43Z</time>
      </trkpt>
      <trkpt lat="47.37818" lon="2.77764">
        <ele>309.72</ele>
        <time>2015-10-04T09:06:58Z</time>
      </trkpt>
      <trkpt lat="47.37829" lon="2.77738">
        <ele>307.45</ele>
        <time>2015-10-04T09:07:08Z</time>
      </trkpt>
      <trkpt lat="47.37839" lon="2.77715">
        <ele>306.96</ele>
        <time>2015-10-04T09:07:23Z</time>
      </trkpt>
      <trkpt lat="47.37855" lon="2.77699">
        <ele>305.58</ele>
        <time>2015-10-04T09:07:33Z</time>
      </trkpt>
      <trkpt lat="47.37865" lon="2.77672">
        <ele>307.68</ele>
        <time>2015-10-04T09:07:53Z</time>
      </trkpt>
      <trkpt lat="47.37878" lon="2.77648">
        <ele>308.31</ele>
        <time>2015-10-04T09:08:08Z</time>
      </trkpt>
      <trkpt lat="47.37891" lon="2.77621">
        <ele>310.3</ele>
        <time>2015-10-04T09:08:18Z</time>
      </trkpt>
      <trkpt lat="47.37903" lon="2.77591">
        <ele>311.25</ele>
        <time>2015-10-04T09:08:33Z</time>
      </trkpt>
      <trkpt lat="47.37914" lon="2.77568">
        <ele>311.68</ele>
        <time>2015-10-04T09:08:48Z</time>
      </trkpt>
      <trkpt lat="47.3793" lon="2.77539">
        <ele>309.15</ele>
        <time>2015-10-04T09:09:03Z</time>
      </trkpt>
      <trkpt lat="47.37942" lon="2.77509">
        <ele>308.35</ele>
        <time>2015-10-04T09:09:18Z</time>
      </trkpt>
      <trkpt lat="47.37955" lon="2.77481">
        <ele>308.34</ele>
        <time>2015-10-04T09:09:33Z</time>
      </trkpt>
      <trkpt lat="47.37963" lon="2.77454">
        <ele>308.86</ele>
        <time>2015-10-04T09:09:48Z</time>
      </trkpt>
      <trkpt lat="47.37976" lon="2.77422">
        <ele>309.51</ele>
        <time>2015-10-04T09:10:03Z</time>
      </trkpt>
      <trkpt lat="47.37983" lon="2.77394">
        <ele>306.97</ele>
        <time>2015-10-04T09:10:18Z</time>
      </trkpt>
      <trkpt lat="47.37995" lon="2.77363">
        <ele>307.12</ele>
        <time>2015-10-04T09:10:33Z</time>
      </trkpt>
      <trkpt lat="47.38003" lon="2.77334">
        <ele>306.28</ele>
        <time>2015-10-04T09:10:48Z</time>
      </trkpt>
      <trkpt lat="47.38019" lon="2.77317">
        <ele>304.89</ele>
        <time>2015-10-04T09:10:58Z</time>
      </trkpt>
      <trkpt lat="47.38032" lon="2.77289">
        <ele>305.67</ele>
        <time>2015-10-04T09:11:18Z</time>
      </trkpt>
      <trkpt lat="47.38047" lon="2.77267">
        <ele>307.11</ele>
        <time>2015-10-04T09:11:33Z</time>
      </trkpt>
      <trkpt lat="47.38063" lon="2.7725">
        <ele>305.67</ele>
        <time>2015-10-04T09:11:43Z</time>
      </trkpt>
      <trkpt lat="47.38075" lon="2.7723">
        <ele>303.54</ele>
        <time>2015-10-04T09:11:53Z</time>
      </trkpt>
      <trkpt lat="47.38094" lon="2.77219">
        <ele>300.06</ele>
        <time>2015-10-04T09:12:08Z</time>
      </trkpt>
      <trkpt lat="47.38109" lon="2.77204">
        <ele>299.21</ele>
        <time>2015-10-04T09:12:18Z</time>
      </trkpt>
      <trkpt lat="47.38133" lon="2.77188">
        <ele>299.42</ele>
        <time>2015-10-04T09:12:38Z</time>
      </trkpt>
      <trkpt lat="47.38156" lon="2.77177">
        <ele>300.73</ele>
        <time>2015-10-04T09:12:53Z</time>
      </trkpt>
      <trkpt lat="47.38175" lon="2.77161">
        <ele>303.51</ele>
        <time>2015-10-04T09:13:08Z</time>
      </trkpt>
      <trkpt lat="47.38196" lon="2.77141">
        <ele>301.89</ele>
        <time>2015-10-04T09:13:23Z</time>
      </trkpt>
      <trkpt lat="47.38213" lon="2.7713">
        <ele>301.49</ele>
        <time>2015-10-04T09:13:33Z</time>
      </trkpt>
      <trkpt lat="47.38246" lon="2.77131">
        <ele>301.36</ele>
        <time>2015-10-04T09:14:08Z</time>
      </trkpt>
      <trkpt lat="47.38265" lon="2.77131">
        <ele>301.41</ele>
        <time>2015-10-04T09:14:13Z</time>
      </trkpt>
      <trkpt lat="47.38282" lon="2.77117">
        <ele>299.62</ele>
        <time>2015-10-04T09:14:23Z</time>
      </trkpt>
      <trkpt lat="47.38261" lon="2.77092">
        <ele>295.58</ele>
        <time>2015-10-04T09:14:43Z</time>
      </trkpt>
      <trkpt lat="47.38244" lon="2.77072">
        <ele>294.29</ele>
        <time>2015-10-04T09:14:53Z</time>
      </trkpt>
      <trkpt lat="47.38225" lon="2.77053">
        <ele>297.56</ele>
        <time>2015-10-04T09:15:08Z</time>
      </trkpt>
      <trkpt lat="47.38214" lon="2.77028">
        <ele>293.74</ele>
        <time>2015-10-04T09:16:13Z</time>
      </trkpt>
      <trkpt lat="47.38213" lon="2.76999">
        <ele>290.72</ele>
        <time>2015-10-04T09:16:28Z</time>
      </trkpt>
      <trkpt lat="47.38218" lon="2.76971">
        <ele>288.89</ele>
        <time>2015-10-04T09:16:43Z</time>
      </trkpt>
      <trkpt lat="47.38237" lon="2.76944">
        <ele>289.19</ele>
        <time>2015-10-04T09:16:53Z</time>
      </trkpt>
      <trkpt lat="47.38249" lon="2.76923">
        <ele>289.14</ele>
        <time>2015-10-04T09:17:03Z</time>
      </trkpt>
      <trkpt lat="47.38259" lon="2.76896">
        <ele>288.53</ele>
        <time>2015-10-04T09:17:13Z</time>
      </trkpt>
      <trkpt lat="47.38266" lon="2.76872">
        <ele>290.55</ele>
        <time>2015-10-04T09:17:23Z</time>
      </trkpt>
      <trkpt lat="47.38276" lon="2.76837">
        <ele>292.36</ele>
        <time>2015-10-04T09:17:38Z</time>
      </trkpt>
      <trkpt lat="47.38293" lon="2.76804">
        <ele>288.28</ele>
        <time>2015-10-04T09:17:53Z</time>
      </trkpt>
      <trkpt lat="47.38304" lon="2.76783">
        <ele>284.34</ele>
        <time>2015-10-04T09:18:03Z</time>
      </trkpt>
      <trkpt lat="47.38307" lon="2.76754">
        <ele>283.03</ele>
        <time>2015-10-04T09:18:13Z</time>
      </trkpt>
      <trkpt lat="47.38312" lon="2.76716">
        <ele>281.44</ele>
        <time>2015-10-04T09:18:28Z</time>
      </trkpt>
      <trkpt lat="47.38321" lon="2.7669">
        <ele>281.38</ele>
        <time>2015-10-04T09:18:38Z</time>
      </trkpt>
      <trkpt lat="47.38333" lon="2.76669">
        <ele>281.76</ele>
        <time>2015-10-04T09:18:48Z</time>
      </trkpt>
      <trkpt lat="47.38335" lon="2.7663">
        <ele>284.28</ele>
        <time>2015-10-04T09:19:03Z</time>
      </trkpt>
      <trkpt lat="47.38339" lon="2.76603">
        <ele>283.29</ele>
        <time>2015-10-04T09:19:13Z</time>
      </trkpt>
      <trkpt lat="47.38345" lon="2.76573">
        <ele>284.49</ele>
        <time>2015-10-04T09:19:28Z</time>
      </trkpt>
      <trkpt lat="47.38358" lon="2.76547">
        <ele>283.18</ele>
        <time>2015-10-04T09:19:58Z</time>
      </trkpt>
      <trkpt lat="47.38376" lon="2.76518">
        <ele>280.52</ele>
        <time>2015-10-04T09:20:13Z</time>
      </trkpt>
      <trkpt lat="47.38399" lon="2.76497">
        <ele>279.33</ele>
        <time>2015-10-04T09:20:28Z</time>
      </trkpt>
      <trkpt lat="47.38415" lon="2.76482">
        <ele>279</ele>
        <time>2015-10-04T09:20:38Z</time>
      </trkpt>
      <trkpt lat="47.38427" lon="2.76461">
        <ele>277.67</ele>
        <time>2015-10-04T09:20:48Z</time>
      </trkpt>
      <trkpt lat="47.38442" lon="2.76435">
        <ele>274.6</ele>
        <time>2015-10-04T09:21:08Z</time>
      </trkpt>
      <trkpt lat="47.38456" lon="2.76402">
        <ele>274.36</ele>
        <time>2015-10-04T09:21:23Z</time>
      </trkpt>
      <trkpt lat="47.38478" lon="2.76374">
        <ele>274.36</ele>
        <time>2015-10-04T09:21:33Z</time>
      </trkpt>
      <trkpt lat="47.38491" lon="2.76352">
        <ele>273.66</ele>
        <time>2015-10-04T09:21:43Z</time>
      </trkpt>
      <trkpt lat="47.38516" lon="2.76362">
        <ele>273.06</ele>
        <time>2015-10-04T09:21:58Z</time>
      </trkpt>
      <trkpt lat="47.38539" lon="2.76371">
        <ele>270.45</ele>
        <time>2015-10-04T09:22:13Z</time>
      </trkpt>
      <trkpt lat="47.38565" lon="2.7637">
        <ele>269.51</ele>
        <time>2015-10-04T09:22:23Z</time>
      </trkpt>
      <trkpt lat="47.38587" lon="2.76361">
        <ele>268.24</ele>
        <time>2015-10-04T09:22:38Z</time>
      </trkpt>
      <trkpt lat="47.38611" lon="2.76353">
        <ele>268.91</ele>
        <time>2015-10-04T09:22:58Z</time>
      </trkpt>
      <trkpt lat="47.38639" lon="2.76352">
        <ele>268.42</ele>
        <time>2015-10-04T09:23:08Z</time>
      </trkpt>
      <trkpt lat="47.38659" lon="2.76354">
        <ele>268.02</ele>
        <time>2015-10-04T09:23:18Z</time>
      </trkpt>
      <trkpt lat="47.38685" lon="2.76351">
        <ele>271.29</ele>
        <time>2015-10-04T09:23:33Z</time>
      </trkpt>
      <trkpt lat="47.38706" lon="2.76348">
        <ele>268.93</ele>
        <time>2015-10-04T09:23:48Z</time>
      </trkpt>
      <trkpt lat="47.38724" lon="2.76345">
        <ele>266.33</ele>
        <time>2015-10-04T09:24:03Z</time>
      </trkpt>
      <trkpt lat="47.38755" lon="2.76345">
        <ele>263.86</ele>
        <time>2015-10-04T09:24:18Z</time>
      </trkpt>
      <trkpt lat="47.38779" lon="2.76344">
        <ele>263.36</ele>
        <time>2015-10-04T09:24:28Z</time>
      </trkpt>
      <trkpt lat="47.38799" lon="2.76343">
        <ele>262.76</ele>
        <time>2015-10-04T09:24:38Z</time>
      </trkpt>
      <trkpt lat="47.38817" lon="2.76349">
        <ele>260.86</ele>
        <time>2015-10-04T09:24:48Z</time>
      </trkpt>
      <trkpt lat="47.38836" lon="2.76337">
        <ele>259.11</ele>
        <time>2015-10-04T09:25:03Z</time>
      </trkpt>
      <trkpt lat="47.38854" lon="2.76306">
        <ele>256.24</ele>
        <time>2015-10-04T09:25:18Z</time>
      </trkpt>
      <trkpt lat="47.38856" lon="2.76275">
        <ele>255.76</ele>
        <time>2015-10-04T09:25:33Z</time>
      </trkpt>
      <trkpt lat="47.3887" lon="2.7624">
        <ele>255.92</ele>
        <time>2015-10-04T09:25:48Z</time>
      </trkpt>
      <trkpt lat="47.38882" lon="2.76213">
        <ele>254.74</ele>
        <time>2015-10-04T09:26:08Z</time>
      </trkpt>
      <trkpt lat="47.38905" lon="2.76187">
        <ele>256</ele>
        <time>2015-10-04T09:26:28Z</time>
      </trkpt>
      <trkpt lat="47.3892" lon="2.76172">
        <ele>255.97</ele>
        <time>2015-10-04T09:26:38Z</time>
      </trkpt>
      <trkpt lat="47.38939" lon="2.76148">
        <ele>253.62</ele>
        <time>2015-10-04T09:26:53Z</time>
      </trkpt>
      <trkpt lat="47.38958" lon="2.76125">
        <ele>253.17</ele>
        <time>2015-10-04T09:27:08Z</time>
      </trkpt>
      <trkpt lat="47.38976" lon="2.7611">
        <ele>251.74</ele>
        <time>2015-10-04T09:27:23Z</time>
      </trkpt>
      <trkpt lat="47.38997" lon="2.76092">
        <ele>252.56</ele>
        <time>2015-10-04T09:27:38Z</time>
      </trkpt>
      <trkpt lat="47.39016" lon="2.76072">
        <ele>248.88</ele>
        <time>2015-10-04T09:27:48Z</time>
      </trkpt>
      <trkpt lat="47.39038" lon="2.76054">
        <ele>243.89</ele>
        <time>2015-10-04T09:28:03Z</time>
      </trkpt>
      <trkpt lat="47.39053" lon="2.76034">
        <ele>242.34</ele>
        <time>2015-10-04T09:28:23Z</time>
      </trkpt>
      <trkpt lat="47.39071" lon="2.76022">
        <ele>242.53</ele>
        <time>2015-10-04T09:28:33Z</time>
      </trkpt>
      <trkpt lat="47.39088" lon="2.76006">
        <ele>241.35</ele>
        <time>2015-10-04T09:28:43Z</time>
      </trkpt>
      <trkpt lat="47.39106" lon="2.7599">
        <ele>236.7</ele>
        <time>2015-10-04T09:28:58Z</time>
      </trkpt>
      <trkpt lat="47.39126" lon="2.75978">
        <ele>236.84</ele>
        <time>2015-10-04T09:29:13Z</time>
      </trkpt>
      <trkpt lat="47.39143" lon="2.75964">
        <ele>241.07</ele>
        <time>2015-10-04T09:29:28Z</time>
      </trkpt>
      <trkpt lat="47.39168" lon="2.75957">
        <ele>240.25</ele>
        <time>2015-10-04T09:29:43Z</time>
      </trkpt>
      <trkpt lat="47.39189" lon="2.75952">
        <ele>238.12</ele>
        <time>2015-10-04T09:29:58Z</time>
      </trkpt>
      <trkpt lat="47.39216" lon="2.75942">
        <ele>238.62</ele>
        <time>2015-10-04T09:30:13Z</time>
      </trkpt>
      <trkpt lat="47.39236" lon="2.7592">
        <ele>240.78</ele>
        <time>2015-10-04T09:30:28Z</time>
      </trkpt>
      <trkpt lat="47.39253" lon="2.75896">
        <ele>238.84</ele>
        <time>2015-10-04T09:30:48Z</time>
      </trkpt>
      <trkpt lat="47.39268" lon="2.75867">
        <ele>236.69</ele>
        <time>2015-10-04T09:31:03Z</time>
      </trkpt>
      <trkpt lat="47.39273" lon="2.75837">
        <ele>232.66</ele>
        <time>2015-10-04T09:31:18Z</time>
      </trkpt>
      <trkpt lat="47.39299" lon="2.75819">
        <ele>233.5</ele>
        <time>2015-10-04T09:31:33Z</time>
      </trkpt>
      <trkpt lat="47.39313" lon="2.75803">
        <ele>234.82</ele>
        <time>2015-10-04T09:31:43Z</time>
      </trkpt>
      <trkpt lat="47.39331" lon="2.75776">
        <ele>241.13</ele>
        <time>2015-10-04T09:31:58Z</time>
      </trkpt>
      <trkpt lat="47.39337" lon="2.75749">
        <ele>241.71</ele>
        <time>2015-10-04T09:32:13Z</time>
      </trkpt>
      <trkpt lat="47.39339" lon="2.75713">
        <ele>242.99</ele>
        <time>2015-10-04T09:32:33Z</time>
      </trkpt>
      <trkpt lat="47.39337" lon="2.75677">
        <ele>242.51</ele>
        <time>2015-10-04T09:32:48Z</time>
      </trkpt>
      <trkpt lat="47.39331" lon="2.75645">
        <ele>241.4</ele>
        <time>2015-10-04T09:32:58Z</time>
      </trkpt>
      <trkpt lat="47.39329" lon="2.7561">
        <ele>235.69</ele>
        <time>2015-10-04T09:33:13Z</time>
      </trkpt>
      <trkpt lat="47.39331" lon="2.75583">
        <ele>234.23</ele>
        <time>2015-10-04T09:33:28Z</time>
      </trkpt>
      <trkpt lat="47.39336" lon="2.75551">
        <ele>233.1</ele>
        <time>2015-10-04T09:33:43Z</time>
      </trkpt>
      <trkpt lat="47.39345" lon="2.75519">
        <ele>235.06</ele>
        <time>2015-10-04T09:33:58Z</time>
      </trkpt>
      <trkpt lat="47.39352" lon="2.75483">
        <ele>239.25</ele>
        <time>2015-10-04T09:34:18Z</time>
      </trkpt>
      <trkpt lat="47.39361" lon="2.75457">
        <ele>240.21</ele>
        <time>2015-10-04T09:34:28Z</time>
      </trkpt>
      <trkpt lat="47.39369" lon="2.75426">
        <ele>240.84</ele>
        <time>2015-10-04T09:34:48Z</time>
      </trkpt>
      <trkpt lat="47.39386" lon="2.75405">
        <ele>244.24</ele>
        <time>2015-10-04T09:35:03Z</time>
      </trkpt>
      <trkpt lat="47.39395" lon="2.75381">
        <ele>247.34</ele>
        <time>2015-10-04T09:35:18Z</time>
      </trkpt>
      <trkpt lat="47.39413" lon="2.75368">
        <ele>246.83</ele>
        <time>2015-10-04T09:35:33Z</time>
      </trkpt>
      <trkpt lat="47.39436" lon="2.75359">
        <ele>248.63</ele>
        <time>2015-10-04T09:35:43Z</time>
      </trkpt>
      <trkpt lat="47.39454" lon="2.75349">
        <ele>249.99</ele>
        <time>2015-10-04T09:35:58Z</time>
      </trkpt>
      <trkpt lat="47.39469" lon="2.75331">
        <ele>250.84</ele>
        <time>2015-10-04T09:36:13Z</time>
      </trkpt>
      <trkpt lat="47.39486" lon="2.75303">
        <ele>249.08</ele>
        <time>2015-10-04T09:36:28Z</time>
      </trkpt>
      <trkpt lat="47.39496" lon="2.75271">
        <ele>250.74</ele>
        <time>2015-10-04T09:36:43Z</time>
      </trkpt>
      <trkpt lat="47.39498" lon="2.75242">
        <ele>252.51</ele>
        <time>2015-10-04T09:36:58Z</time>
      </trkpt>
      <trkpt lat="47.395" lon="2.75211">
        <ele>255.25</ele>
        <time>2015-10-04T09:37:13Z</time>
      </trkpt>
      <trkpt lat="47.39502" lon="2.75179">
        <ele>256.76</ele>
        <time>2015-10-04T09:37:28Z</time>
      </trkpt>
      <trkpt lat="47.39507" lon="2.75153">
        <ele>259.52</ele>
        <time>2015-10-04T09:37:43Z</time>
      </trkpt>
      <trkpt lat="47.39502" lon="2.7512">
        <ele>259.92</ele>
        <time>2015-10-04T09:37:58Z</time>
      </trkpt>
      <trkpt lat="47.39502" lon="2.75085">
        <ele>259.48</ele>
        <time>2015-10-04T09:38:13Z</time>
      </trkpt>
      <trkpt lat="47.39501" lon="2.75058">
        <ele>263.21</ele>
        <time>2015-10-04T09:38:23Z</time>
      </trkpt>
      <trkpt lat="47.39502" lon="2.7502">
        <ele>267.23</ele>
        <time>2015-10-04T09:38:38Z</time>
      </trkpt>
      <trkpt lat="47.39499" lon="2.74986">
        <ele>265.52</ele>
        <time>2015-10-04T09:39:03Z</time>
      </trkpt>
      <trkpt lat="47.39496" lon="2.74952">
        <ele>263.12</ele>
        <time>2015-10-04T09:39:13Z</time>
      </trkpt>
      <trkpt lat="47.39497" lon="2.74924">
        <ele>262.15</ele>
        <time>2015-10-04T09:39:23Z</time>
      </trkpt>
      <trkpt lat="47.39495" lon="2.74896">
        <ele>261.33</ele>
        <time>2015-10-04T09:39:38Z</time>
      </trkpt>
      <trkpt lat="47.39494" lon="2.74869">
        <ele>262.1</ele>
        <time>2015-10-04T09:39:48Z</time>
      </trkpt>
      <trkpt lat="47.39495" lon="2.74837">
        <ele>263.61</ele>
        <time>2015-10-04T09:40:03Z</time>
      </trkpt>
      <trkpt lat="47.39492" lon="2.74801">
        <ele>264.69</ele>
        <time>2015-10-04T09:40:18Z</time>
      </trkpt>
      <trkpt lat="47.39491" lon="2.74771">
        <ele>267.14</ele>
        <time>2015-10-04T09:40:33Z</time>
      </trkpt>
      <trkpt lat="47.39496" lon="2.74744">
        <ele>266.51</ele>
        <time>2015-10-04T09:40:48Z</time>
      </trkpt>
      <trkpt lat="47.39492" lon="2.74716">
        <ele>265.3</ele>
        <time>2015-10-04T09:40:58Z</time>
      </trkpt>
      <trkpt lat="47.39489" lon="2.74682">
        <ele>267.19</ele>
        <time>2015-10-04T09:41:13Z</time>
      </trkpt>
      <trkpt lat="47.39485" lon="2.74649">
        <ele>269</ele>
        <time>2015-10-04T09:41:28Z</time>
      </trkpt>
      <trkpt lat="47.39487" lon="2.74618">
        <ele>270.78</ele>
        <time>2015-10-04T09:41:43Z</time>
      </trkpt>
      <trkpt lat="47.39484" lon="2.74592">
        <ele>269.29</ele>
        <time>2015-10-04T09:41:53Z</time>
      </trkpt>
      <trkpt lat="47.39482" lon="2.7456">
        <ele>270.03</ele>
        <time>2015-10-04T09:42:08Z</time>
      </trkpt>
      <trkpt lat="47.39486" lon="2.74528">
        <ele>270.77</ele>
        <time>2015-10-04T09:42:23Z</time>
      </trkpt>
      <trkpt lat="47.39491" lon="2.7449">
        <ele>271.01</ele>
        <time>2015-10-04T09:42:38Z</time>
      </trkpt>
      <trkpt lat="47.39479" lon="2.74468">
        <ele>267.46</ele>
        <time>2015-10-04T09:43:28Z</time>
      </trkpt>
      <trkpt lat="47.39455" lon="2.74464">
        <ele>266.05</ele>
        <time>2015-10-04T09:43:43Z</time>
      </trkpt>
      <trkpt lat="47.39431" lon="2.74457">
        <ele>269.36</ele>
        <time>2015-10-04T09:43:58Z</time>
      </trkpt>
      <trkpt lat="47.39412" lon="2.74449">
        <ele>269.86</ele>
        <time>2015-10-04T09:44:13Z</time>
      </trkpt>
      <trkpt lat="47.39395" lon="2.7444">
        <ele>271.62</ele>
        <time>2015-10-04T09:44:28Z</time>
      </trkpt>
      <trkpt lat="47.39378" lon="2.74418">
        <ele>270.68</ele>
        <time>2015-10-04T09:44:43Z</time>
      </trkpt>
      <trkpt lat="47.39355" lon="2.74384">
        <ele>274.2</ele>
        <time>2015-10-04T09:45:03Z</time>
      </trkpt>
      <trkpt lat="47.39347" lon="2.7436">
        <ele>277.62</ele>
        <time>2015-10-04T09:45:13Z</time>
      </trkpt>
      <trkpt lat="47.39339" lon="2.74328">
        <ele>277.17</ele>
        <time>2015-10-04T09:45:28Z</time>
      </trkpt>
      <trkpt lat="47.39328" lon="2.74297">
        <ele>274.75</ele>
        <time>2015-10-04T09:45:43Z</time>
      </trkpt>
      <trkpt lat="47.3932" lon="2.74265">
        <ele>274.67</ele>
        <time>2015-10-04T09:45:58Z</time>
      </trkpt>
      <trkpt lat="47.39311" lon="2.74235">
        <ele>278.01</ele>
        <time>2015-10-04T09:46:13Z</time>
      </trkpt>
      <trkpt lat="47.39293" lon="2.74259">
        <ele>278.52</ele>
        <time>2015-10-04T09:46:28Z</time>
      </trkpt>
      <trkpt lat="47.39275" lon="2.7428">
        <ele>275</ele>
        <time>2015-10-04T09:46:43Z</time>
      </trkpt>
      <trkpt lat="47.39258" lon="2.74296">
        <ele>273.78</ele>
        <time>2015-10-04T09:46:58Z</time>
      </trkpt>
      <trkpt lat="47.3924" lon="2.7431">
        <ele>274.17</ele>
        <time>2015-10-04T09:47:23Z</time>
      </trkpt>
      <trkpt lat="47.39215" lon="2.74313">
        <ele>272.63</ele>
        <time>2015-10-04T09:47:48Z</time>
      </trkpt>
      <trkpt lat="47.39191" lon="2.74315">
        <ele>272.9</ele>
        <time>2015-10-04T09:47:58Z</time>
      </trkpt>
      <trkpt lat="47.39169" lon="2.7432">
        <ele>277.58</ele>
        <time>2015-10-04T09:48:13Z</time>
      </trkpt>
      <trkpt lat="47.39146" lon="2.74314">
        <ele>275.94</ele>
        <time>2015-10-04T09:48:23Z</time>
      </trkpt>
      <trkpt lat="47.39123" lon="2.74331">
        <ele>271.83</ele>
        <time>2015-10-04T09:48:38Z</time>
      </trkpt>
      <trkpt lat="47.39102" lon="2.74332">
        <ele>268.91</ele>
        <time>2015-10-04T09:48:53Z</time>
      </trkpt>
      <trkpt lat="47.39081" lon="2.74324">
        <ele>269.1</ele>
        <time>2015-10-04T09:49:03Z</time>
      </trkpt>
      <trkpt lat="47.39058" lon="2.74321">
        <ele>266.84</ele>
        <time>2015-10-04T09:49:23Z</time>
      </trkpt>
      <trkpt lat="47.3904" lon="2.74306">
        <ele>268.23</ele>
        <time>2015-10-04T09:49:43Z</time>
      </trkpt>
      <trkpt lat="47.39024" lon="2.74293">
        <ele>270.01</ele>
        <time>2015-10-04T09:50:03Z</time>
      </trkpt>
      <trkpt lat="47.38993" lon="2.74282">
        <ele>269.51</ele>
        <time>2015-10-04T09:50:28Z</time>
      </trkpt>
      <trkpt lat="47.38975" lon="2.74282">
        <ele>269.78</ele>
        <time>2015-10-04T09:50:33Z</time>
      </trkpt>
      <trkpt lat="47.38954" lon="2.74286">
        <ele>269.49</ele>
        <time>2015-10-04T09:50:43Z</time>
      </trkpt>
      <trkpt lat="47.38933" lon="2.74296">
        <ele>271.61</ele>
        <time>2015-10-04T09:50:58Z</time>
      </trkpt>
      <trkpt lat="47.38917" lon="2.74276">
        <ele>273.17</ele>
        <time>2015-10-04T09:51:28Z</time>
      </trkpt>
      <trkpt lat="47.38908" lon="2.74249">
        <ele>274.21</ele>
        <time>2015-10-04T09:51:38Z</time>
      </trkpt>
      <trkpt lat="47.38897" lon="2.74219">
        <ele>277.85</ele>
        <time>2015-10-04T09:51:53Z</time>
      </trkpt>
      <trkpt lat="47.38889" lon="2.74186">
        <ele>279.88</ele>
        <time>2015-10-04T09:52:13Z</time>
      </trkpt>
      <trkpt lat="47.38881" lon="2.7415">
        <ele>282.25</ele>
        <time>2015-10-04T09:52:33Z</time>
      </trkpt>
      <trkpt lat="47.38877" lon="2.74122">
        <ele>283.47</ele>
        <time>2015-10-04T09:52:48Z</time>
      </trkpt>
      <trkpt lat="47.38874" lon="2.74094">
        <ele>282.86</ele>
        <time>2015-10-04T09:53:03Z</time>
      </trkpt>
      <trkpt lat="47.38855" lon="2.74072">
        <ele>283.01</ele>
        <time>2015-10-04T09:53:23Z</time>
      </trkpt>
      <trkpt lat="47.38836" lon="2.74054">
        <ele>281.45</ele>
        <time>2015-10-04T09:53:33Z</time>
      </trkpt>
      <trkpt lat="47.38822" lon="2.74036">
        <ele>287.58</ele>
        <time>2015-10-04T09:53:48Z</time>
      </trkpt>
      <trkpt lat="47.38805" lon="2.74017">
        <ele>288.71</ele>
        <time>2015-10-04T09:53:58Z</time>
      </trkpt>
      <trkpt lat="47.38788" lon="2.73987">
        <ele>288.13</ele>
        <time>2015-10-04T09:54:13Z</time>
      </trkpt>
      <trkpt lat="47.38771" lon="2.73957">
        <ele>289.12</ele>
        <time>2015-10-04T09:54:48Z</time>
      </trkpt>
      <trkpt lat="47.38752" lon="2.73931">
        <ele>290.32</ele>
        <time>2015-10-04T09:54:58Z</time>
      </trkpt>
      <trkpt lat="47.38732" lon="2.73906">
        <ele>294.93</ele>
        <time>2015-10-04T09:55:08Z</time>
      </trkpt>
      <trkpt lat="47.38721" lon="2.7388">
        <ele>290.37</ele>
        <time>2015-10-04T09:55:33Z</time>
      </trkpt>
      <trkpt lat="47.38698" lon="2.73854">
        <ele>288.69</ele>
        <time>2015-10-04T09:56:08Z</time>
      </trkpt>
      <trkpt lat="47.38684" lon="2.73831">
        <ele>288.47</ele>
        <time>2015-10-04T09:56:18Z</time>
      </trkpt>
      <trkpt lat="47.3867" lon="2.73813">
        <ele>288.76</ele>
        <time>2015-10-04T09:56:33Z</time>
      </trkpt>
      <trkpt lat="47.38654" lon="2.73794">
        <ele>287.96</ele>
        <time>2015-10-04T09:56:43Z</time>
      </trkpt>
      <trkpt lat="47.38634" lon="2.73773">
        <ele>289.72</ele>
        <time>2015-10-04T09:56:58Z</time>
      </trkpt>
      <trkpt lat="47.38616" lon="2.73747">
        <ele>290.13</ele>
        <time>2015-10-04T09:57:23Z</time>
      </trkpt>
      <trkpt lat="47.38592" lon="2.73719">
        <ele>291.11</ele>
        <time>2015-10-04T09:57:38Z</time>
      </trkpt>
      <trkpt lat="47.38573" lon="2.73705">
        <ele>293.27</ele>
        <time>2015-10-04T09:57:48Z</time>
      </trkpt>
      <trkpt lat="47.38557" lon="2.73692">
        <ele>297.82</ele>
        <time>2015-10-04T09:58:03Z</time>
      </trkpt>
      <trkpt lat="47.38539" lon="2.73676">
        <ele>300.22</ele>
        <time>2015-10-04T09:58:23Z</time>
      </trkpt>
      <trkpt lat="47.38517" lon="2.7368">
        <ele>302.56</ele>
        <time>2015-10-04T09:58:43Z</time>
      </trkpt>
      <trkpt lat="47.38492" lon="2.73669">
        <ele>301.95</ele>
        <time>2015-10-04T09:59:03Z</time>
      </trkpt>
      <trkpt lat="47.3848" lon="2.73647">
        <ele>302.03</ele>
        <time>2015-10-04T09:59:28Z</time>
      </trkpt>
      <trkpt lat="47.38496" lon="2.73621">
        <ele>298.79</ele>
        <time>2015-10-04T09:59:48Z</time>
      </trkpt>
      <trkpt lat="47.38512" lon="2.73606">
        <ele>296.95</ele>
        <time>2015-10-04T10:00:23Z</time>
      </trkpt>
      <trkpt lat="47.38527" lon="2.73587">
        <ele>294.45</ele>
        <time>2015-10-04T10:00:39Z</time>
      </trkpt>
      <trkpt lat="47.38551" lon="2.73572">
        <ele>297.48</ele>
        <time>2015-10-04T10:00:54Z</time>
      </trkpt>
      <trkpt lat="47.38569" lon="2.73552">
        <ele>299.85</ele>
        <time>2015-10-04T10:01:09Z</time>
      </trkpt>
      <trkpt lat="47.38587" lon="2.73529">
        <ele>299.46</ele>
        <time>2015-10-04T10:01:29Z</time>
      </trkpt>
      <trkpt lat="47.38606" lon="2.73521">
        <ele>303.37</ele>
        <time>2015-10-04T10:01:44Z</time>
      </trkpt>
      <trkpt lat="47.38626" lon="2.73504">
        <ele>303.36</ele>
        <time>2015-10-04T10:01:59Z</time>
      </trkpt>
      <trkpt lat="47.38625" lon="2.73472">
        <ele>304.65</ele>
        <time>2015-10-04T10:02:34Z</time>
      </trkpt>
      <trkpt lat="47.38608" lon="2.73462">
        <ele>307.01</ele>
        <time>2015-10-04T10:02:44Z</time>
      </trkpt>
      <trkpt lat="47.38587" lon="2.73467">
        <ele>309.79</ele>
        <time>2015-10-04T10:02:59Z</time>
      </trkpt>
      <trkpt lat="47.38565" lon="2.73467">
        <ele>309.88</ele>
        <time>2015-10-04T10:03:14Z</time>
      </trkpt>
      <trkpt lat="47.38543" lon="2.73471">
        <ele>309.51</ele>
        <time>2015-10-04T10:03:29Z</time>
      </trkpt>
      <trkpt lat="47.38522" lon="2.73471">
        <ele>310.2</ele>
        <time>2015-10-04T10:03:44Z</time>
      </trkpt>
      <trkpt lat="47.38498" lon="2.73476">
        <ele>311.63</ele>
        <time>2015-10-04T10:03:59Z</time>
      </trkpt>
      <trkpt lat="47.38475" lon="2.73482">
        <ele>311.88</ele>
        <time>2015-10-04T10:04:14Z</time>
      </trkpt>
      <trkpt lat="47.38454" lon="2.73491">
        <ele>310.22</ele>
        <time>2015-10-04T10:04:29Z</time>
      </trkpt>
      <trkpt lat="47.38435" lon="2.73496">
        <ele>311.77</ele>
        <time>2015-10-04T10:04:44Z</time>
      </trkpt>
      <trkpt lat="47.38417" lon="2.735">
        <ele>315.81</ele>
        <time>2015-10-04T10:04:54Z</time>
      </trkpt>
      <trkpt lat="47.38393" lon="2.73504">
        <ele>317.93</ele>
        <time>2015-10-04T10:05:09Z</time>
      </trkpt>
      <trkpt lat="47.38374" lon="2.7351">
        <ele>322.24</ele>
        <time>2015-10-04T10:05:24Z</time>
      </trkpt>
      <trkpt lat="47.3835" lon="2.73514">
        <ele>314.03</ele>
        <time>2015-10-04T10:05:39Z</time>
      </trkpt>
      <trkpt lat="47.38329" lon="2.73516">
        <ele>306.23</ele>
        <time>2015-10-04T10:05:54Z</time>
      </trkpt>
      <trkpt lat="47.38306" lon="2.73522">
        <ele>307.04</ele>
        <time>2015-10-04T10:06:09Z</time>
      </trkpt>
      <trkpt lat="47.38285" lon="2.73522">
        <ele>307.42</ele>
        <time>2015-10-04T10:06:24Z</time>
      </trkpt>
      <trkpt lat="47.38263" lon="2.73531">
        <ele>306.45</ele>
        <time>2015-10-04T10:06:39Z</time>
      </trkpt>
      <trkpt lat="47.38244" lon="2.73517">
        <ele>303.67</ele>
        <time>2015-10-04T10:06:54Z</time>
      </trkpt>
      <trkpt lat="47.38225" lon="2.73497">
        <ele>298.77</ele>
        <time>2015-10-04T10:07:14Z</time>
      </trkpt>
      <trkpt lat="47.3821" lon="2.7348">
        <ele>300.34</ele>
        <time>2015-10-04T10:07:24Z</time>
      </trkpt>
      <trkpt lat="47.38194" lon="2.73469">
        <ele>302.49</ele>
        <time>2015-10-04T10:07:39Z</time>
      </trkpt>
      <trkpt lat="47.38176" lon="2.73459">
        <ele>304.06</ele>
        <time>2015-10-04T10:07:54Z</time>
      </trkpt>
      <trkpt lat="47.38149" lon="2.73439">
        <ele>304.07</ele>
        <time>2015-10-04T10:08:09Z</time>
      </trkpt>
      <trkpt lat="47.38131" lon="2.73432">
        <ele>304.44</ele>
        <time>2015-10-04T10:08:19Z</time>
      </trkpt>
      <trkpt lat="47.3811" lon="2.73428">
        <ele>312.53</ele>
        <time>2015-10-04T10:08:34Z</time>
      </trkpt>
      <trkpt lat="47.38089" lon="2.73422">
        <ele>312.79</ele>
        <time>2015-10-04T10:08:49Z</time>
      </trkpt>
      <trkpt lat="47.3807" lon="2.73416">
        <ele>312.82</ele>
        <time>2015-10-04T10:09:29Z</time>
      </trkpt>
      <trkpt lat="47.38046" lon="2.73412">
        <ele>315.93</ele>
        <time>2015-10-04T10:09:44Z</time>
      </trkpt>
      <trkpt lat="47.38027" lon="2.73409">
        <ele>318.25</ele>
        <time>2015-10-04T10:09:54Z</time>
      </trkpt>
      <trkpt lat="47.38007" lon="2.73404">
        <ele>319.36</ele>
        <time>2015-10-04T10:10:04Z</time>
      </trkpt>
      <trkpt lat="47.37988" lon="2.73404">
        <ele>325.67</ele>
        <time>2015-10-04T10:10:19Z</time>
      </trkpt>
      <trkpt lat="47.37961" lon="2.73409">
        <ele>330.14</ele>
        <time>2015-10-04T10:10:39Z</time>
      </trkpt>
      <trkpt lat="47.37938" lon="2.73408">
        <ele>331.06</ele>
        <time>2015-10-04T10:10:54Z</time>
      </trkpt>
      <trkpt lat="47.37914" lon="2.73403">
        <ele>333.76</ele>
        <time>2015-10-04T10:11:09Z</time>
      </trkpt>
      <trkpt lat="47.37892" lon="2.73401">
        <ele>334.23</ele>
        <time>2015-10-04T10:11:24Z</time>
      </trkpt>
      <trkpt lat="47.37872" lon="2.73398">
        <ele>334.83</ele>
        <time>2015-10-04T10:11:39Z</time>
      </trkpt>
      <trkpt lat="47.37849" lon="2.73397">
        <ele>336.53</ele>
        <time>2015-10-04T10:12:09Z</time>
      </trkpt>
      <trkpt lat="47.37827" lon="2.73396">
        <ele>335.83</ele>
        <time>2015-10-04T10:12:24Z</time>
      </trkpt>
      <trkpt lat="47.37805" lon="2.73393">
        <ele>333.82</ele>
        <time>2015-10-04T10:12:39Z</time>
      </trkpt>
      <trkpt lat="47.37783" lon="2.73391">
        <ele>331.72</ele>
        <time>2015-10-04T10:12:54Z</time>
      </trkpt>
      <trkpt lat="47.37763" lon="2.73394">
        <ele>333.12</ele>
        <time>2015-10-04T10:13:09Z</time>
      </trkpt>
      <trkpt lat="47.37743" lon="2.73396">
        <ele>334.45</ele>
        <time>2015-10-04T10:13:24Z</time>
      </trkpt>
      <trkpt lat="47.37721" lon="2.73395">
        <ele>334.91</ele>
        <time>2015-10-04T10:13:44Z</time>
      </trkpt>
      <trkpt lat="47.37702" lon="2.73392">
        <ele>334.87</ele>
        <time>2015-10-04T10:13:59Z</time>
      </trkpt>
      <trkpt lat="47.37683" lon="2.73392">
        <ele>333.32</ele>
        <time>2015-10-04T10:14:14Z</time>
      </trkpt>
      <trkpt lat="47.37661" lon="2.73391">
        <ele>334.33</ele>
        <time>2015-10-04T10:14:29Z</time>
      </trkpt>
      <trkpt lat="47.37639" lon="2.73387">
        <ele>335.71</ele>
        <time>2015-10-04T10:14:44Z</time>
      </trkpt>
      <trkpt lat="47.37618" lon="2.73387">
        <ele>338.48</ele>
        <time>2015-10-04T10:14:59Z</time>
      </trkpt>
      <trkpt lat="47.37596" lon="2.73384">
        <ele>338.63</ele>
        <time>2015-10-04T10:15:24Z</time>
      </trkpt>
      <trkpt lat="47.37576" lon="2.73382">
        <ele>339.09</ele>
        <time>2015-10-04T10:15:39Z</time>
      </trkpt>
      <trkpt lat="47.37555" lon="2.73381">
        <ele>338.74</ele>
        <time>2015-10-04T10:15:54Z</time>
      </trkpt>
      <trkpt lat="47.37534" lon="2.73377">
        <ele>338.83</ele>
        <time>2015-10-04T10:16:09Z</time>
      </trkpt>
      <trkpt lat="47.37514" lon="2.7337">
        <ele>336.79</ele>
        <time>2015-10-04T10:16:24Z</time>
      </trkpt>
      <trkpt lat="47.37494" lon="2.73363">
        <ele>336.25</ele>
        <time>2015-10-04T10:16:39Z</time>
      </trkpt>
      <trkpt lat="47.37472" lon="2.73353">
        <ele>337.35</ele>
        <time>2015-10-04T10:16:54Z</time>
      </trkpt>
      <trkpt lat="47.37451" lon="2.73343">
        <ele>337.59</ele>
        <time>2015-10-04T10:17:09Z</time>
      </trkpt>
      <trkpt lat="47.3743" lon="2.73332">
        <ele>336.73</ele>
        <time>2015-10-04T10:17:24Z</time>
      </trkpt>
      <trkpt lat="47.37411" lon="2.73328">
        <ele>338.3</ele>
        <time>2015-10-04T10:17:49Z</time>
      </trkpt>
      <trkpt lat="47.37392" lon="2.73322">
        <ele>339.32</ele>
        <time>2015-10-04T10:17:59Z</time>
      </trkpt>
      <trkpt lat="47.37374" lon="2.73313">
        <ele>340.7</ele>
        <time>2015-10-04T10:18:09Z</time>
      </trkpt>
      <trkpt lat="47.37356" lon="2.73311">
        <ele>338.56</ele>
        <time>2015-10-04T10:18:24Z</time>
      </trkpt>
      <trkpt lat="47.37339" lon="2.73301">
        <ele>337.96</ele>
        <time>2015-10-04T10:18:34Z</time>
      </trkpt>
      <trkpt lat="47.37321" lon="2.73293">
        <ele>339.07</ele>
        <time>2015-10-04T10:18:49Z</time>
      </trkpt>
      <trkpt lat="47.373" lon="2.73272">
        <ele>344.55</ele>
        <time>2015-10-04T10:19:09Z</time>
      </trkpt>
      <trkpt lat="47.37294" lon="2.73242">
        <ele>345.36</ele>
        <time>2015-10-04T10:19:24Z</time>
      </trkpt>
      <trkpt lat="47.37293" lon="2.73205">
        <ele>341.27</ele>
        <time>2015-10-04T10:19:39Z</time>
      </trkpt>
      <trkpt lat="47.37294" lon="2.73171">
        <ele>338.84</ele>
        <time>2015-10-04T10:19:54Z</time>
      </trkpt>
      <trkpt lat="47.37299" lon="2.73136">
        <ele>332.67</ele>
        <time>2015-10-04T10:20:09Z</time>
      </trkpt>
      <trkpt lat="47.37305" lon="2.73104">
        <ele>325.41</ele>
        <time>2015-10-04T10:20:24Z</time>
      </trkpt>
      <trkpt lat="47.3731" lon="2.73078">
        <ele>321.85</ele>
        <time>2015-10-04T10:20:34Z</time>
      </trkpt>
      <trkpt lat="47.37321" lon="2.73046">
        <ele>320.27</ele>
        <time>2015-10-04T10:20:49Z</time>
      </trkpt>
      <trkpt lat="47.37332" lon="2.73023">
        <ele>319.14</ele>
        <time>2015-10-04T10:21:04Z</time>
      </trkpt>
      <trkpt lat="47.37339" lon="2.72986">
        <ele>319.18</ele>
        <time>2015-10-04T10:21:19Z</time>
      </trkpt>
      <trkpt lat="47.37347" lon="2.72958">
        <ele>318.56</ele>
        <time>2015-10-04T10:21:34Z</time>
      </trkpt>
      <trkpt lat="47.37364" lon="2.72943">
        <ele>324.6</ele>
        <time>2015-10-04T10:21:54Z</time>
      </trkpt>
      <trkpt lat="47.37377" lon="2.72913">
        <ele>322.41</ele>
        <time>2015-10-04T10:22:14Z</time>
      </trkpt>
      <trkpt lat="47.37386" lon="2.7288">
        <ele>321.05</ele>
        <time>2015-10-04T10:22:29Z</time>
      </trkpt>
      <trkpt lat="47.37393" lon="2.72848">
        <ele>322.57</ele>
        <time>2015-10-04T10:22:44Z</time>
      </trkpt>
      <trkpt lat="47.37399" lon="2.72816">
        <ele>320.22</ele>
        <time>2015-10-04T10:22:59Z</time>
      </trkpt>
      <trkpt lat="47.37397" lon="2.72787">
        <ele>318.89</ele>
        <time>2015-10-04T10:23:14Z</time>
      </trkpt>
      <trkpt lat="47.37398" lon="2.72754">
        <ele>317.03</ele>
        <time>2015-10-04T10:23:29Z</time>
      </trkpt>
      <trkpt lat="47.37404" lon="2.72716">
        <ele>315.92</ele>
        <time>2015-10-04T10:23:44Z</time>
      </trkpt>
      <trkpt lat="47.37415" lon="2.72681">
        <ele>311.61</ele>
        <time>2015-10-04T10:24:04Z</time>
      </trkpt>
      <trkpt lat="47.37425" lon="2.72654">
        <ele>315.32</ele>
        <time>2015-10-04T10:24:14Z</time>
      </trkpt>
      <trkpt lat="47.37434" lon="2.72618">
        <ele>312.62</ele>
        <time>2015-10-04T10:24:29Z</time>
      </trkpt>
      <trkpt lat="47.3745" lon="2.7259">
        <ele>312.2</ele>
        <time>2015-10-04T10:24:44Z</time>
      </trkpt>
      <trkpt lat="47.37457" lon="2.72562">
        <ele>310.44</ele>
        <time>2015-10-04T10:24:59Z</time>
      </trkpt>
      <trkpt lat="47.3747" lon="2.72534">
        <ele>307.93</ele>
        <time>2015-10-04T10:25:14Z</time>
      </trkpt>
      <trkpt lat="47.37484" lon="2.72507">
        <ele>309.23</ele>
        <time>2015-10-04T10:25:29Z</time>
      </trkpt>
      <trkpt lat="47.37497" lon="2.72475">
        <ele>309.64</ele>
        <time>2015-10-04T10:25:44Z</time>
      </trkpt>
      <trkpt lat="47.37504" lon="2.72448">
        <ele>309.48</ele>
        <time>2015-10-04T10:25:54Z</time>
      </trkpt>
      <trkpt lat="47.37519" lon="2.72417">
        <ele>311.19</ele>
        <time>2015-10-04T10:26:09Z</time>
      </trkpt>
      <trkpt lat="47.37533" lon="2.72396">
        <ele>310.86</ele>
        <time>2015-10-04T10:26:24Z</time>
      </trkpt>
      <trkpt lat="47.37541" lon="2.72367">
        <ele>307.68</ele>
        <time>2015-10-04T10:26:39Z</time>
      </trkpt>
      <trkpt lat="47.37549" lon="2.72337">
        <ele>304.67</ele>
        <time>2015-10-04T10:26:54Z</time>
      </trkpt>
      <trkpt lat="47.37559" lon="2.72312">
        <ele>304.47</ele>
        <time>2015-10-04T10:27:09Z</time>
      </trkpt>
      <trkpt lat="47.37569" lon="2.72284">
        <ele>302.24</ele>
        <time>2015-10-04T10:27:24Z</time>
      </trkpt>
      <trkpt lat="47.37581" lon="2.72252">
        <ele>300.28</ele>
        <time>2015-10-04T10:27:39Z</time>
      </trkpt>
      <trkpt lat="47.37592" lon="2.72223">
        <ele>298.42</ele>
        <time>2015-10-04T10:27:54Z</time>
      </trkpt>
      <trkpt lat="47.37603" lon="2.72191">
        <ele>301.29</ele>
        <time>2015-10-04T10:28:09Z</time>
      </trkpt>
      <trkpt lat="47.37613" lon="2.72158">
        <ele>304.41</ele>
        <time>2015-10-04T10:28:24Z</time>
      </trkpt>
      <trkpt lat="47.37629" lon="2.72128">
        <ele>306.32</ele>
        <time>2015-10-04T10:28:39Z</time>
      </trkpt>
      <trkpt lat="47.37636" lon="2.72099">
        <ele>304.5</ele>
        <time>2015-10-04T10:28:54Z</time>
      </trkpt>
      <trkpt lat="47.37644" lon="2.72071">
        <ele>304.35</ele>
        <time>2015-10-04T10:29:19Z</time>
      </trkpt>
      <trkpt lat="47.37654" lon="2.72035">
        <ele>303.21</ele>
        <time>2015-10-04T10:29:34Z</time>
      </trkpt>
      <trkpt lat="47.37662" lon="2.72006">
        <ele>304.88</ele>
        <time>2015-10-04T10:29:49Z</time>
      </trkpt>
      <trkpt lat="47.37674" lon="2.71977">
        <ele>304.79</ele>
        <time>2015-10-04T10:30:04Z</time>
      </trkpt>
      <trkpt lat="47.37679" lon="2.71948">
        <ele>299.02</ele>
        <time>2015-10-04T10:30:29Z</time>
      </trkpt>
      <trkpt lat="47.37681" lon="2.71916">
        <ele>298.17</ele>
        <time>2015-10-04T10:30:44Z</time>
      </trkpt>
      <trkpt lat="47.37689" lon="2.71884">
        <ele>295.76</ele>
        <time>2015-10-04T10:37:34Z</time>
      </trkpt>
      <trkpt lat="47.37698" lon="2.71857">
        <ele>291.95</ele>
        <time>2015-10-04T10:37:49Z</time>
      </trkpt>
      <trkpt lat="47.377" lon="2.71827">
        <ele>291.66</ele>
        <time>2015-10-04T10:37:59Z</time>
      </trkpt>
      <trkpt lat="47.37714" lon="2.71796">
        <ele>288.85</ele>
        <time>2015-10-04T10:38:14Z</time>
      </trkpt>
      <trkpt lat="47.37727" lon="2.71765">
        <ele>288.47</ele>
        <time>2015-10-04T10:38:29Z</time>
      </trkpt>
      <trkpt lat="47.37732" lon="2.71735">
        <ele>290.04</ele>
        <time>2015-10-04T10:38:44Z</time>
      </trkpt>
      <trkpt lat="47.37734" lon="2.71699">
        <ele>289.69</ele>
        <time>2015-10-04T10:38:59Z</time>
      </trkpt>
      <trkpt lat="47.37743" lon="2.71672">
        <ele>289.41</ele>
        <time>2015-10-04T10:39:14Z</time>
      </trkpt>
      <trkpt lat="47.37751" lon="2.71635">
        <ele>291.62</ele>
        <time>2015-10-04T10:39:34Z</time>
      </trkpt>
      <trkpt lat="47.37762" lon="2.71609">
        <ele>292.85</ele>
        <time>2015-10-04T10:39:44Z</time>
      </trkpt>
      <trkpt lat="47.3778" lon="2.71584">
        <ele>293.03</ele>
        <time>2015-10-04T10:39:59Z</time>
      </trkpt>
      <trkpt lat="47.3779" lon="2.71562">
        <ele>292.33</ele>
        <time>2015-10-04T10:40:14Z</time>
      </trkpt>
      <trkpt lat="47.37805" lon="2.71531">
        <ele>293.41</ele>
        <time>2015-10-04T10:40:34Z</time>
      </trkpt>
      <trkpt lat="47.3782" lon="2.71504">
        <ele>294.34</ele>
        <time>2015-10-04T10:40:49Z</time>
      </trkpt>
      <trkpt lat="47.37833" lon="2.71475">
        <ele>294.16</ele>
        <time>2015-10-04T10:41:04Z</time>
      </trkpt>
      <trkpt lat="47.37842" lon="2.71441">
        <ele>292.93</ele>
        <time>2015-10-04T10:41:19Z</time>
      </trkpt>
      <trkpt lat="47.37849" lon="2.71412">
        <ele>291.28</ele>
        <time>2015-10-04T10:41:34Z</time>
      </trkpt>
      <trkpt lat="47.3785" lon="2.71374">
        <ele>292.52</ele>
        <time>2015-10-04T10:41:54Z</time>
      </trkpt>
      <trkpt lat="47.37855" lon="2.7134">
        <ele>290.95</ele>
        <time>2015-10-04T10:42:09Z</time>
      </trkpt>
      <trkpt lat="47.37857" lon="2.71308">
        <ele>289.45</ele>
        <time>2015-10-04T10:42:24Z</time>
      </trkpt>
      <trkpt lat="47.37854" lon="2.71279">
        <ele>290.66</ele>
        <time>2015-10-04T10:42:39Z</time>
      </trkpt>
      <trkpt lat="47.37852" lon="2.71245">
        <ele>289.67</ele>
        <time>2015-10-04T10:42:54Z</time>
      </trkpt>
      <trkpt lat="47.37848" lon="2.71219">
        <ele>287.26</ele>
        <time>2015-10-04T10:43:04Z</time>
      </trkpt>
      <trkpt lat="47.37848" lon="2.71188">
        <ele>285.33</ele>
        <time>2015-10-04T10:43:24Z</time>
      </trkpt>
      <trkpt lat="47.37852" lon="2.71158">
        <ele>285.13</ele>
        <time>2015-10-04T10:43:34Z</time>
      </trkpt>
      <trkpt lat="47.37852" lon="2.71123">
        <ele>286.53</ele>
        <time>2015-10-04T10:43:49Z</time>
      </trkpt>
      <trkpt lat="47.37848" lon="2.71096">
        <ele>284.1</ele>
        <time>2015-10-04T10:43:59Z</time>
      </trkpt>
      <trkpt lat="47.37858" lon="2.71073">
        <ele>285.65</ele>
        <time>2015-10-04T10:44:14Z</time>
      </trkpt>
      <trkpt lat="47.37867" lon="2.71038">
        <ele>287.28</ele>
        <time>2015-10-04T10:44:34Z</time>
      </trkpt>
      <trkpt lat="47.37881" lon="2.71018">
        <ele>287.97</ele>
        <time>2015-10-04T10:44:44Z</time>
      </trkpt>
      <trkpt lat="47.37893" lon="2.70994">
        <ele>288.53</ele>
        <time>2015-10-04T10:44:59Z</time>
      </trkpt>
      <trkpt lat="47.37915" lon="2.70975">
        <ele>286.96</ele>
        <time>2015-10-04T10:45:14Z</time>
      </trkpt>
      <trkpt lat="47.3793" lon="2.70952">
        <ele>287.63</ele>
        <time>2015-10-04T10:45:29Z</time>
      </trkpt>
      <trkpt lat="47.37945" lon="2.70923">
        <ele>289.07</ele>
        <time>2015-10-04T10:45:44Z</time>
      </trkpt>
      <trkpt lat="47.37961" lon="2.70909">
        <ele>287.96</ele>
        <time>2015-10-04T10:45:54Z</time>
      </trkpt>
      <trkpt lat="47.37982" lon="2.70887">
        <ele>286.06</ele>
        <time>2015-10-04T10:46:09Z</time>
      </trkpt>
      <trkpt lat="47.37996" lon="2.70865">
        <ele>286.89</ele>
        <time>2015-10-04T10:46:34Z</time>
      </trkpt>
      <trkpt lat="47.38023" lon="2.70849">
        <ele>283.49</ele>
        <time>2015-10-04T10:46:54Z</time>
      </trkpt>
      <trkpt lat="47.38041" lon="2.70839">
        <ele>284.87</ele>
        <time>2015-10-04T10:46:59Z</time>
      </trkpt>
      <trkpt lat="47.3806" lon="2.70821">
        <ele>287.24</ele>
        <time>2015-10-04T10:47:09Z</time>
      </trkpt>
      <trkpt lat="47.38076" lon="2.70798">
        <ele>288.74</ele>
        <time>2015-10-04T10:47:24Z</time>
      </trkpt>
      <trkpt lat="47.3809" lon="2.70778">
        <ele>287.53</ele>
        <time>2015-10-04T10:47:34Z</time>
      </trkpt>
      <trkpt lat="47.38109" lon="2.7076">
        <ele>281.74</ele>
        <time>2015-10-04T10:47:54Z</time>
      </trkpt>
      <trkpt lat="47.3811" lon="2.70792">
        <ele>286.16</ele>
        <time>2015-10-04T10:48:24Z</time>
      </trkpt>
      <trkpt lat="47.38111" lon="2.7082">
        <ele>286.91</ele>
        <time>2015-10-04T10:48:34Z</time>
      </trkpt>
      <trkpt lat="47.38111" lon="2.7085">
        <ele>288.36</ele>
        <time>2015-10-04T10:48:59Z</time>
      </trkpt>
      <trkpt lat="47.38108" lon="2.70892">
        <ele>290.9</ele>
        <time>2015-10-04T10:49:19Z</time>
      </trkpt>
      <trkpt lat="47.38104" lon="2.70926">
        <ele>291.14</ele>
        <time>2015-10-04T10:49:29Z</time>
      </trkpt>
      <trkpt lat="47.381" lon="2.70953">
        <ele>288.45</ele>
        <time>2015-10-04T10:49:49Z</time>
      </trkpt>
      <trkpt lat="47.38102" lon="2.70986">
        <ele>289.23</ele>
        <time>2015-10-04T10:49:59Z</time>
      </trkpt>
      <trkpt lat="47.38104" lon="2.71013">
        <ele>290.85</ele>
        <time>2015-10-04T10:50:09Z</time>
      </trkpt>
      <trkpt lat="47.38121" lon="2.71045">
        <ele>290.07</ele>
        <time>2015-10-04T10:50:34Z</time>
      </trkpt>
      <trkpt lat="47.38146" lon="2.71071">
        <ele>289.64</ele>
        <time>2015-10-04T10:50:44Z</time>
      </trkpt>
      <trkpt lat="47.38162" lon="2.71089">
        <ele>290.08</ele>
        <time>2015-10-04T10:50:54Z</time>
      </trkpt>
      <trkpt lat="47.38184" lon="2.71077">
        <ele>289.39</ele>
        <time>2015-10-04T10:51:14Z</time>
      </trkpt>
      <trkpt lat="47.38206" lon="2.7107">
        <ele>291.68</ele>
        <time>2015-10-04T10:51:29Z</time>
      </trkpt>
      <trkpt lat="47.38223" lon="2.71058">
        <ele>294.02</ele>
        <time>2015-10-04T10:51:44Z</time>
      </trkpt>
      <trkpt lat="47.38239" lon="2.71044">
        <ele>291.02</ele>
        <time>2015-10-04T10:51:59Z</time>
      </trkpt>
      <trkpt lat="47.38257" lon="2.71037">
        <ele>289.65</ele>
        <time>2015-10-04T10:52:09Z</time>
      </trkpt>
      <trkpt lat="47.38279" lon="2.71024">
        <ele>288.66</ele>
        <time>2015-10-04T10:52:24Z</time>
      </trkpt>
      <trkpt lat="47.38298" lon="2.70995">
        <ele>290.17</ele>
        <time>2015-10-04T10:52:54Z</time>
      </trkpt>
      <trkpt lat="47.38312" lon="2.70975">
        <ele>290.84</ele>
        <time>2015-10-04T10:53:04Z</time>
      </trkpt>
      <trkpt lat="47.38328" lon="2.70956">
        <ele>290.45</ele>
        <time>2015-10-04T10:53:14Z</time>
      </trkpt>
      <trkpt lat="47.38338" lon="2.70932">
        <ele>292.56</ele>
        <time>2015-10-04T10:53:24Z</time>
      </trkpt>
      <trkpt lat="47.3835" lon="2.70906">
        <ele>294.83</ele>
        <time>2015-10-04T10:53:34Z</time>
      </trkpt>
      <trkpt lat="47.38359" lon="2.70878">
        <ele>297.61</ele>
        <time>2015-10-04T10:53:49Z</time>
      </trkpt>
      <trkpt lat="47.38377" lon="2.70853">
        <ele>297.51</ele>
        <time>2015-10-04T10:54:04Z</time>
      </trkpt>
      <trkpt lat="47.3839" lon="2.70834">
        <ele>295.59</ele>
        <time>2015-10-04T10:54:19Z</time>
      </trkpt>
      <trkpt lat="47.38409" lon="2.70816">
        <ele>293.03</ele>
        <time>2015-10-04T10:54:34Z</time>
      </trkpt>
      <trkpt lat="47.38426" lon="2.708">
        <ele>293.74</ele>
        <time>2015-10-04T10:54:49Z</time>
      </trkpt>
      <trkpt lat="47.38445" lon="2.70777">
        <ele>295.93</ele>
        <time>2015-10-04T10:55:04Z</time>
      </trkpt>
      <trkpt lat="47.38465" lon="2.70752">
        <ele>296.03</ele>
        <time>2015-10-04T10:55:19Z</time>
      </trkpt>
      <trkpt lat="47.38481" lon="2.70734">
        <ele>291.73</ele>
        <time>2015-10-04T10:55:34Z</time>
      </trkpt>
      <trkpt lat="47.38497" lon="2.70711">
        <ele>287.93</ele>
        <time>2015-10-04T10:55:49Z</time>
      </trkpt>
      <trkpt lat="47.38514" lon="2.70689">
        <ele>285.73</ele>
        <time>2015-10-04T10:56:04Z</time>
      </trkpt>
      <trkpt lat="47.38536" lon="2.70684">
        <ele>285.16</ele>
        <time>2015-10-04T10:56:24Z</time>
      </trkpt>
      <trkpt lat="47.38555" lon="2.70684">
        <ele>284.66</ele>
        <time>2015-10-04T10:56:39Z</time>
      </trkpt>
      <trkpt lat="47.38575" lon="2.70682">
        <ele>286.46</ele>
        <time>2015-10-04T10:56:49Z</time>
      </trkpt>
      <trkpt lat="47.38592" lon="2.70675">
        <ele>286.15</ele>
        <time>2015-10-04T10:57:04Z</time>
      </trkpt>
      <trkpt lat="47.38614" lon="2.70671">
        <ele>285.84</ele>
        <time>2015-10-04T10:57:19Z</time>
      </trkpt>
      <trkpt lat="47.38643" lon="2.70668">
        <ele>286.91</ele>
        <time>2015-10-04T10:57:34Z</time>
      </trkpt>
      <trkpt lat="47.38665" lon="2.70669">
        <ele>287.89</ele>
        <time>2015-10-04T10:57:49Z</time>
      </trkpt>
      <trkpt lat="47.38684" lon="2.70674">
        <ele>287.16</ele>
        <time>2015-10-04T10:58:04Z</time>
      </trkpt>
      <trkpt lat="47.38702" lon="2.70665">
        <ele>286.91</ele>
        <time>2015-10-04T10:58:14Z</time>
      </trkpt>
      <trkpt lat="47.38704" lon="2.70631">
        <ele>289.53</ele>
        <time>2015-10-04T10:58:29Z</time>
      </trkpt>
      <trkpt lat="47.387" lon="2.70601">
        <ele>286.16</ele>
        <time>2015-10-04T10:58:44Z</time>
      </trkpt>
      <trkpt lat="47.38688" lon="2.70564">
        <ele>285.37</ele>
        <time>2015-10-04T10:59:09Z</time>
      </trkpt>
      <trkpt lat="47.38675" lon="2.70536">
        <ele>284.59</ele>
        <time>2015-10-04T10:59:24Z</time>
      </trkpt>
      <trkpt lat="47.38681" lon="2.705">
        <ele>284.35</ele>
        <time>2015-10-04T10:59:44Z</time>
      </trkpt>
      <trkpt lat="47.38696" lon="2.70481">
        <ele>284.71</ele>
        <time>2015-10-04T10:59:54Z</time>
      </trkpt>
      <trkpt lat="47.38699" lon="2.70444">
        <ele>284.43</ele>
        <time>2015-10-04T11:00:10Z</time>
      </trkpt>
      <trkpt lat="47.38701" lon="2.70412">
        <ele>284.12</ele>
        <time>2015-10-04T11:00:25Z</time>
      </trkpt>
      <trkpt lat="47.38719" lon="2.70398">
        <ele>288</ele>
        <time>2015-10-04T11:00:35Z</time>
      </trkpt>
      <trkpt lat="47.3874" lon="2.70402">
        <ele>291.76</ele>
        <time>2015-10-04T11:00:50Z</time>
      </trkpt>
      <trkpt lat="47.38765" lon="2.70408">
        <ele>294</ele>
        <time>2015-10-04T11:01:05Z</time>
      </trkpt>
      <trkpt lat="47.38792" lon="2.70415">
        <ele>290.66</ele>
        <time>2015-10-04T11:01:25Z</time>
      </trkpt>
      <trkpt lat="47.38808" lon="2.70402">
        <ele>291.59</ele>
        <time>2015-10-04T11:01:45Z</time>
      </trkpt>
      <trkpt lat="47.38819" lon="2.70379">
        <ele>294.51</ele>
        <time>2015-10-04T11:02:10Z</time>
      </trkpt>
      <trkpt lat="47.38835" lon="2.70361">
        <ele>299.88</ele>
        <time>2015-10-04T11:02:25Z</time>
      </trkpt>
      <trkpt lat="47.38855" lon="2.70366">
        <ele>303.94</ele>
        <time>2015-10-04T11:02:45Z</time>
      </trkpt>
      <trkpt lat="47.38878" lon="2.70364">
        <ele>305.01</ele>
        <time>2015-10-04T11:03:00Z</time>
      </trkpt>
      <trkpt lat="47.38898" lon="2.70358">
        <ele>305.4</ele>
        <time>2015-10-04T11:03:15Z</time>
      </trkpt>
      <trkpt lat="47.38918" lon="2.70366">
        <ele>300.82</ele>
        <time>2015-10-04T11:03:40Z</time>
      </trkpt>
      <trkpt lat="47.38939" lon="2.70351">
        <ele>302.88</ele>
        <time>2015-10-04T11:03:55Z</time>
      </trkpt>
      <trkpt lat="47.38962" lon="2.7034">
        <ele>309.04</ele>
        <time>2015-10-04T11:04:15Z</time>
      </trkpt>
      <trkpt lat="47.38986" lon="2.70338">
        <ele>310.47</ele>
        <time>2015-10-04T11:04:30Z</time>
      </trkpt>
      <trkpt lat="47.39009" lon="2.7034">
        <ele>316.28</ele>
        <time>2015-10-04T11:04:50Z</time>
      </trkpt>
      <trkpt lat="47.39035" lon="2.70334">
        <ele>315.45</ele>
        <time>2015-10-04T11:05:05Z</time>
      </trkpt>
      <trkpt lat="47.39053" lon="2.70314">
        <ele>319.25</ele>
        <time>2015-10-04T11:05:25Z</time>
      </trkpt>
      <trkpt lat="47.39072" lon="2.70296">
        <ele>317.11</ele>
        <time>2015-10-04T11:05:40Z</time>
      </trkpt>
      <trkpt lat="47.39086" lon="2.70279">
        <ele>318.89</ele>
        <time>2015-10-04T11:05:55Z</time>
      </trkpt>
      <trkpt lat="47.39108" lon="2.70271">
        <ele>319.82</ele>
        <time>2015-10-04T11:06:40Z</time>
      </trkpt>
      <trkpt lat="47.39127" lon="2.70265">
        <ele>321.12</ele>
        <time>2015-10-04T11:06:50Z</time>
      </trkpt>
      <trkpt lat="47.39147" lon="2.70257">
        <ele>321.7</ele>
        <time>2015-10-04T11:07:05Z</time>
      </trkpt>
      <trkpt lat="47.39168" lon="2.70258">
        <ele>320.53</ele>
        <time>2015-10-04T11:07:20Z</time>
      </trkpt>
      <trkpt lat="47.39191" lon="2.7026">
        <ele>320.03</ele>
        <time>2015-10-04T11:07:40Z</time>
      </trkpt>
      <trkpt lat="47.3921" lon="2.70262">
        <ele>321.63</ele>
        <time>2015-10-04T11:07:50Z</time>
      </trkpt>
      <trkpt lat="47.39239" lon="2.70257">
        <ele>315.21</ele>
        <time>2015-10-04T11:08:15Z</time>
      </trkpt>
      <trkpt lat="47.39255" lon="2.70246">
        <ele>311.87</ele>
        <time>2015-10-04T11:08:25Z</time>
      </trkpt>
      <trkpt lat="47.39273" lon="2.70221">
        <ele>311</ele>
        <time>2015-10-04T11:08:40Z</time>
      </trkpt>
      <trkpt lat="47.39288" lon="2.70204">
        <ele>312.41</ele>
        <time>2015-10-04T11:08:55Z</time>
      </trkpt>
      <trkpt lat="47.39301" lon="2.7017">
        <ele>312.55</ele>
        <time>2015-10-04T11:09:15Z</time>
      </trkpt>
      <trkpt lat="47.39311" lon="2.7014">
        <ele>312.45</ele>
        <time>2015-10-04T11:09:30Z</time>
      </trkpt>
      <trkpt lat="47.39329" lon="2.70111">
        <ele>309.59</ele>
        <time>2015-10-04T11:09:45Z</time>
      </trkpt>
      <trkpt lat="47.39335" lon="2.70079">
        <ele>309.53</ele>
        <time>2015-10-04T11:10:00Z</time>
      </trkpt>
      <trkpt lat="47.39342" lon="2.7005">
        <ele>311.01</ele>
        <time>2015-10-04T11:10:20Z</time>
      </trkpt>
      <trkpt lat="47.39353" lon="2.70013">
        <ele>312.4</ele>
        <time>2015-10-04T11:10:40Z</time>
      </trkpt>
      <trkpt lat="47.3936" lon="2.69986">
        <ele>315.03</ele>
        <time>2015-10-04T11:10:55Z</time>
      </trkpt>
      <trkpt lat="47.39366" lon="2.6995">
        <ele>315.65</ele>
        <time>2015-10-04T11:11:10Z</time>
      </trkpt>
      <trkpt lat="47.3937" lon="2.69922">
        <ele>317.58</ele>
        <time>2015-10-04T11:11:20Z</time>
      </trkpt>
      <trkpt lat="47.39371" lon="2.69892">
        <ele>318.11</ele>
        <time>2015-10-04T11:11:30Z</time>
      </trkpt>
      <trkpt lat="47.39368" lon="2.69859">
        <ele>321.52</ele>
        <time>2015-10-04T11:11:45Z</time>
      </trkpt>
      <trkpt lat="47.39378" lon="2.69827">
        <ele>325.63</ele>
        <time>2015-10-04T11:12:05Z</time>
      </trkpt>
      <trkpt lat="47.39377" lon="2.698">
        <ele>329.5</ele>
        <time>2015-10-04T11:12:14Z</time>
      </trkpt>
      <trkpt lat="47.39371" lon="2.69762">
        <ele>334.83</ele>
        <time>2015-10-04T11:12:40Z</time>
      </trkpt>
      <trkpt lat="47.39375" lon="2.69731">
        <ele>334.24</ele>
        <time>2015-10-04T11:12:55Z</time>
      </trkpt>
      <trkpt lat="47.39377" lon="2.697">
        <ele>334.52</ele>
        <time>2015-10-04T11:13:10Z</time>
      </trkpt>
      <trkpt lat="47.39383" lon="2.69661">
        <ele>331.88</ele>
        <time>2015-10-04T11:13:25Z</time>
      </trkpt>
      <trkpt lat="47.39379" lon="2.69624">
        <ele>329.51</ele>
        <time>2015-10-04T11:13:40Z</time>
      </trkpt>
      <trkpt lat="47.39385" lon="2.69596">
        <ele>328.99</ele>
        <time>2015-10-04T11:13:55Z</time>
      </trkpt>
      <trkpt lat="47.39392" lon="2.69563">
        <ele>329.79</ele>
        <time>2015-10-04T11:14:10Z</time>
      </trkpt>
      <trkpt lat="47.39393" lon="2.69529">
        <ele>324.04</ele>
        <time>2015-10-04T11:14:25Z</time>
      </trkpt>
      <trkpt lat="47.39398" lon="2.69494">
        <ele>318.58</ele>
        <time>2015-10-04T11:14:40Z</time>
      </trkpt>
      <trkpt lat="47.39408" lon="2.69468">
        <ele>310.49</ele>
        <time>2015-10-04T11:14:55Z</time>
      </trkpt>
      <trkpt lat="47.39417" lon="2.69435">
        <ele>308.5</ele>
        <time>2015-10-04T11:15:10Z</time>
      </trkpt>
      <trkpt lat="47.39422" lon="2.69404">
        <ele>307.34</ele>
        <time>2015-10-04T11:15:25Z</time>
      </trkpt>
      <trkpt lat="47.39428" lon="2.69379">
        <ele>307.11</ele>
        <time>2015-10-04T11:15:40Z</time>
      </trkpt>
      <trkpt lat="47.39433" lon="2.6935">
        <ele>308.41</ele>
        <time>2015-10-04T11:16:05Z</time>
      </trkpt>
      <trkpt lat="47.39442" lon="2.69323">
        <ele>309.7</ele>
        <time>2015-10-04T11:16:15Z</time>
      </trkpt>
      <trkpt lat="47.39451" lon="2.69293">
        <ele>309.39</ele>
        <time>2015-10-04T11:16:25Z</time>
      </trkpt>
      <trkpt lat="47.39465" lon="2.69262">
        <ele>309.15</ele>
        <time>2015-10-04T11:16:40Z</time>
      </trkpt>
      <trkpt lat="47.39475" lon="2.69239">
        <ele>310.63</ele>
        <time>2015-10-04T11:16:55Z</time>
      </trkpt>
      <trkpt lat="47.39481" lon="2.69212">
        <ele>310.05</ele>
        <time>2015-10-04T11:17:05Z</time>
      </trkpt>
      <trkpt lat="47.39501" lon="2.69196">
        <ele>308.6</ele>
        <time>2015-10-04T11:17:20Z</time>
      </trkpt>
      <trkpt lat="47.39512" lon="2.69173">
        <ele>303.51</ele>
        <time>2015-10-04T11:17:40Z</time>
      </trkpt>
      <trkpt lat="47.39518" lon="2.69139">
        <ele>306.29</ele>
        <time>2015-10-04T11:18:00Z</time>
      </trkpt>
      <trkpt lat="47.39531" lon="2.69103">
        <ele>306.76</ele>
        <time>2015-10-04T11:18:15Z</time>
      </trkpt>
      <trkpt lat="47.39542" lon="2.6907">
        <ele>304.13</ele>
        <time>2015-10-04T11:18:30Z</time>
      </trkpt>
      <trkpt lat="47.39553" lon="2.69042">
        <ele>304.48</ele>
        <time>2015-10-04T11:18:45Z</time>
      </trkpt>
      <trkpt lat="47.39575" lon="2.69032">
        <ele>305.69</ele>
        <time>2015-10-04T11:19:00Z</time>
      </trkpt>
      <trkpt lat="47.39595" lon="2.69022">
        <ele>296.62</ele>
        <time>2015-10-04T11:19:20Z</time>
      </trkpt>
      <trkpt lat="47.396" lon="2.68993">
        <ele>284.42</ele>
        <time>2015-10-04T11:19:35Z</time>
      </trkpt>
      <trkpt lat="47.39606" lon="2.68965">
        <ele>283.92</ele>
        <time>2015-10-04T11:19:45Z</time>
      </trkpt>
      <trkpt lat="47.39607" lon="2.68937">
        <ele>280.04</ele>
        <time>2015-10-04T11:20:00Z</time>
      </trkpt>
      <trkpt lat="47.39613" lon="2.6891">
        <ele>280.9</ele>
        <time>2015-10-04T11:20:10Z</time>
      </trkpt>
      <trkpt lat="47.39618" lon="2.6888">
        <ele>277.74</ele>
        <time>2015-10-04T11:20:25Z</time>
      </trkpt>
      <trkpt lat="47.39625" lon="2.68855">
        <ele>273.81</ele>
        <time>2015-10-04T11:20:40Z</time>
      </trkpt>
      <trkpt lat="47.39637" lon="2.68825">
        <ele>272.11</ele>
        <time>2015-10-04T11:20:55Z</time>
      </trkpt>
      <trkpt lat="47.39645" lon="2.68799">
        <ele>271.4</ele>
        <time>2015-10-04T11:21:10Z</time>
      </trkpt>
      <trkpt lat="47.39648" lon="2.68771">
        <ele>269.54</ele>
        <time>2015-10-04T11:21:30Z</time>
      </trkpt>
      <trkpt lat="47.3965" lon="2.6873">
        <ele>266.86</ele>
        <time>2015-10-04T11:21:45Z</time>
      </trkpt>
      <trkpt lat="47.39652" lon="2.68699">
        <ele>263.61</ele>
        <time>2015-10-04T11:22:00Z</time>
      </trkpt>
      <trkpt lat="47.39654" lon="2.68664">
        <ele>260.25</ele>
        <time>2015-10-04T11:22:20Z</time>
      </trkpt>
      <trkpt lat="47.39657" lon="2.68629">
        <ele>260.02</ele>
        <time>2015-10-04T11:22:35Z</time>
      </trkpt>
      <trkpt lat="47.3964" lon="2.68603">
        <ele>256.57</ele>
        <time>2015-10-04T11:22:55Z</time>
      </trkpt>
      <trkpt lat="47.39625" lon="2.68586">
        <ele>256.15</ele>
        <time>2015-10-04T11:23:10Z</time>
      </trkpt>
      <trkpt lat="47.39615" lon="2.68558">
        <ele>253.32</ele>
        <time>2015-10-04T11:23:25Z</time>
      </trkpt>
      <trkpt lat="47.39615" lon="2.68529">
        <ele>255.63</ele>
        <time>2015-10-04T11:23:40Z</time>
      </trkpt>
      <trkpt lat="47.39609" lon="2.685">
        <ele>258.49</ele>
        <time>2015-10-04T11:24:05Z</time>
      </trkpt>
      <trkpt lat="47.39603" lon="2.68474">
        <ele>257.12</ele>
        <time>2015-10-04T11:24:15Z</time>
      </trkpt>
      <trkpt lat="47.39597" lon="2.68447">
        <ele>256.2</ele>
        <time>2015-10-04T11:24:25Z</time>
      </trkpt>
      <trkpt lat="47.39591" lon="2.68412">
        <ele>257.68</ele>
        <time>2015-10-04T11:24:40Z</time>
      </trkpt>
      <trkpt lat="47.39587" lon="2.68382">
        <ele>260.44</ele>
        <time>2015-10-04T11:24:55Z</time>
      </trkpt>
      <trkpt lat="47.39561" lon="2.68364">
        <ele>261.42</ele>
        <time>2015-10-04T11:25:20Z</time>
      </trkpt>
      <trkpt lat="47.39538" lon="2.68348">
        <ele>261.93</ele>
        <time>2015-10-04T11:25:30Z</time>
      </trkpt>
      <trkpt lat="47.3952" lon="2.68334">
        <ele>262.1</ele>
        <time>2015-10-04T11:25:40Z</time>
      </trkpt>
      <trkpt lat="47.39533" lon="2.68302">
        <ele>263.94</ele>
        <time>2015-10-04T11:26:00Z</time>
      </trkpt>
      <trkpt lat="47.39537" lon="2.68269">
        <ele>265.29</ele>
        <time>2015-10-04T11:26:15Z</time>
      </trkpt>
      <trkpt lat="47.39536" lon="2.68232">
        <ele>265.9</ele>
        <time>2015-10-04T11:26:30Z</time>
      </trkpt>
      <trkpt lat="47.39531" lon="2.68204">
        <ele>263.53</ele>
        <time>2015-10-04T11:26:45Z</time>
      </trkpt>
      <trkpt lat="47.39521" lon="2.68178">
        <ele>261.34</ele>
        <time>2015-10-04T11:27:00Z</time>
      </trkpt>
      <trkpt lat="47.39504" lon="2.6815">
        <ele>255.44</ele>
        <time>2015-10-04T11:27:25Z</time>
      </trkpt>
      <trkpt lat="47.39486" lon="2.68124">
        <ele>251.65</ele>
        <time>2015-10-04T11:27:45Z</time>
      </trkpt>
      <trkpt lat="47.3947" lon="2.68092">
        <ele>248.87</ele>
        <time>2015-10-04T11:28:00Z</time>
      </trkpt>
      <trkpt lat="47.39457" lon="2.68061">
        <ele>246.84</ele>
        <time>2015-10-04T11:28:15Z</time>
      </trkpt>
      <trkpt lat="47.39442" lon="2.68043">
        <ele>247.57</ele>
        <time>2015-10-04T11:28:30Z</time>
      </trkpt>
      <trkpt lat="47.39426" lon="2.68025">
        <ele>246.56</ele>
        <time>2015-10-04T11:28:40Z</time>
      </trkpt>
      <trkpt lat="47.39407" lon="2.67999">
        <ele>248.56</ele>
        <time>2015-10-04T11:29:00Z</time>
      </trkpt>
      <trkpt lat="47.39389" lon="2.67985">
        <ele>248.26</ele>
        <time>2015-10-04T11:29:15Z</time>
      </trkpt>
      <trkpt lat="47.39372" lon="2.67965">
        <ele>241.33</ele>
        <time>2015-10-04T11:29:25Z</time>
      </trkpt>
      <trkpt lat="47.39358" lon="2.67935">
        <ele>238.08</ele>
        <time>2015-10-04T11:29:40Z</time>
      </trkpt>
      <trkpt lat="47.39351" lon="2.67907">
        <ele>234.97</ele>
        <time>2015-10-04T11:29:55Z</time>
      </trkpt>
      <trkpt lat="47.39339" lon="2.67879">
        <ele>235.95</ele>
        <time>2015-10-04T11:30:10Z</time>
      </trkpt>
      <trkpt lat="47.39327" lon="2.67857">
        <ele>236.31</ele>
        <time>2015-10-04T11:30:25Z</time>
      </trkpt>
      <trkpt lat="47.39311" lon="2.6783">
        <ele>233.79</ele>
        <time>2015-10-04T11:30:40Z</time>
      </trkpt>
      <trkpt lat="47.39302" lon="2.67803">
        <ele>227.56</ele>
        <time>2015-10-04T11:31:10Z</time>
      </trkpt>
      <trkpt lat="47.39289" lon="2.67775">
        <ele>227.18</ele>
        <time>2015-10-04T11:31:20Z</time>
      </trkpt>
      <trkpt lat="47.39279" lon="2.67745">
        <ele>225.49</ele>
        <time>2015-10-04T11:31:30Z</time>
      </trkpt>
      <trkpt lat="47.39275" lon="2.67707">
        <ele>223.54</ele>
        <time>2015-10-04T11:31:50Z</time>
      </trkpt>
      <trkpt lat="47.39284" lon="2.6767">
        <ele>224.61</ele>
        <time>2015-10-04T11:32:05Z</time>
      </trkpt>
      <trkpt lat="47.39296" lon="2.67646">
        <ele>215.3</ele>
        <time>2015-10-04T11:32:20Z</time>
      </trkpt>
      <trkpt lat="47.39303" lon="2.67619">
        <ele>213.77</ele>
        <time>2015-10-04T11:32:45Z</time>
      </trkpt>
      <trkpt lat="47.39315" lon="2.67594">
        <ele>213.77</ele>
        <time>2015-10-04T11:33:00Z</time>
      </trkpt>
      <trkpt lat="47.39323" lon="2.67568">
        <ele>217.3</ele>
        <time>2015-10-04T11:33:20Z</time>
      </trkpt>
      <trkpt lat="47.39342" lon="2.67536">
        <ele>220.72</ele>
        <time>2015-10-04T11:33:30Z</time>
      </trkpt>
      <trkpt lat="47.39364" lon="2.67507">
        <ele>218.83</ele>
        <time>2015-10-04T11:33:45Z</time>
      </trkpt>
      <trkpt lat="47.39381" lon="2.67479">
        <ele>218.53</ele>
        <time>2015-10-04T11:33:55Z</time>
      </trkpt>
      <trkpt lat="47.39393" lon="2.67459">
        <ele>218.85</ele>
        <time>2015-10-04T11:34:05Z</time>
      </trkpt>
      <trkpt lat="47.39396" lon="2.67425">
        <ele>218.57</ele>
        <time>2015-10-04T11:34:30Z</time>
      </trkpt>
      <trkpt lat="47.39379" lon="2.67419">
        <ele>217.71</ele>
        <time>2015-10-04T11:34:50Z</time>
      </trkpt>
      <trkpt lat="47.39355" lon="2.67424">
        <ele>215.8</ele>
        <time>2015-10-04T11:35:05Z</time>
      </trkpt>
      <trkpt lat="47.39332" lon="2.67438">
        <ele>216.94</ele>
        <time>2015-10-04T11:35:15Z</time>
      </trkpt>
      <trkpt lat="47.39306" lon="2.67456">
        <ele>215.41</ele>
        <time>2015-10-04T11:35:25Z</time>
      </trkpt>
      <trkpt lat="47.39289" lon="2.67466">
        <ele>216.43</ele>
        <time>2015-10-04T11:35:40Z</time>
      </trkpt>
      <trkpt lat="47.39259" lon="2.67481">
        <ele>218.77</ele>
        <time>2015-10-04T11:36:15Z</time>
      </trkpt>
      <trkpt lat="47.39239" lon="2.6749">
        <ele>218.71</ele>
        <time>2015-10-04T11:36:25Z</time>
      </trkpt>
      <trkpt lat="47.39219" lon="2.67498">
        <ele>217.82</ele>
        <time>2015-10-04T11:36:35Z</time>
      </trkpt>
      <trkpt lat="47.392" lon="2.67515">
        <ele>217.97</ele>
        <time>2015-10-04T11:36:45Z</time>
      </trkpt>
      <trkpt lat="47.39178" lon="2.6753">
        <ele>216.5</ele>
        <time>2015-10-04T11:37:05Z</time>
      </trkpt>
      <trkpt lat="47.39162" lon="2.67552">
        <ele>213.32</ele>
        <time>2015-10-04T11:37:25Z</time>
      </trkpt>
      <trkpt lat="47.39149" lon="2.67571">
        <ele>210.75</ele>
        <time>2015-10-04T11:37:35Z</time>
      </trkpt>
      <trkpt lat="47.39131" lon="2.67596">
        <ele>210.08</ele>
        <time>2015-10-04T11:37:50Z</time>
      </trkpt>
      <trkpt lat="47.3912" lon="2.67623">
        <ele>208.96</ele>
        <time>2015-10-04T11:38:10Z</time>
      </trkpt>
      <trkpt lat="47.39101" lon="2.67637">
        <ele>208.38</ele>
        <time>2015-10-04T11:38:20Z</time>
      </trkpt>
      <trkpt lat="47.3908" lon="2.67651">
        <ele>209.29</ele>
        <time>2015-10-04T11:38:30Z</time>
      </trkpt>
      <trkpt lat="47.39055" lon="2.67653">
        <ele>213.29</ele>
        <time>2015-10-04T11:38:45Z</time>
      </trkpt>
      <trkpt lat="47.39035" lon="2.6767">
        <ele>216.74</ele>
        <time>2015-10-04T11:39:00Z</time>
      </trkpt>
      <trkpt lat="47.39017" lon="2.67697">
        <ele>217.25</ele>
        <time>2015-10-04T11:39:20Z</time>
      </trkpt>
      <trkpt lat="47.38999" lon="2.67729">
        <ele>216.54</ele>
        <time>2015-10-04T11:39:35Z</time>
      </trkpt>
      <trkpt lat="47.38985" lon="2.67753">
        <ele>217.48</ele>
        <time>2015-10-04T11:39:45Z</time>
      </trkpt>
      <trkpt lat="47.38974" lon="2.67779">
        <ele>219.04</ele>
        <time>2015-10-04T11:39:55Z</time>
      </trkpt>
      <trkpt lat="47.38964" lon="2.67803">
        <ele>220.25</ele>
        <time>2015-10-04T11:40:05Z</time>
      </trkpt>
      <trkpt lat="47.38947" lon="2.67838">
        <ele>221.97</ele>
        <time>2015-10-04T11:40:30Z</time>
      </trkpt>
      <trkpt lat="47.38937" lon="2.67869">
        <ele>222.41</ele>
        <time>2015-10-04T11:40:40Z</time>
      </trkpt>
      <trkpt lat="47.38929" lon="2.67894">
        <ele>222.72</ele>
        <time>2015-10-04T11:40:50Z</time>
      </trkpt>
      <trkpt lat="47.38919" lon="2.67922">
        <ele>221.9</ele>
        <time>2015-10-04T11:41:00Z</time>
      </trkpt>
      <trkpt lat="47.38913" lon="2.67961">
        <ele>218.14</ele>
        <time>2015-10-04T11:41:20Z</time>
      </trkpt>
      <trkpt lat="47.38904" lon="2.67996">
        <ele>216.72</ele>
        <time>2015-10-04T11:41:35Z</time>
      </trkpt>
      <trkpt lat="47.389" lon="2.68022">
        <ele>217.9</ele>
        <time>2015-10-04T11:42:00Z</time>
      </trkpt>
    </trkseg>
  </trk>
</gpx>